<?xml version="1.0" encoding="UTF-8" standalone="no" ?>
<gpx xmlns="http://www.topografix.com/GPX/1/1" xmlns:xsi="http://www.w3.org/2001/XMLSchema-instance" xsi:schemaLocation="http://www.topografix.com/GPX/1/1 http://www.topografix.com/GPX/1/1/gpx.xsd" version="1.1" creator="VisuGPX - https://www.visugpx.com">
  <metadata>
    <name>Aubin boucle 10km</name>
    <desc><![CDATA[Petite boucle aux abords de Aubin.
Grande partie sur route, qqs secteurs sentiers, sous-bois.]]></desc>
  </metadata>
  <trk>
    <name><![CDATA[Rec 4]]></name>
    <trkseg>
      <trkpt lat="44.54651" lon="2.23248">
        <ele>224</ele>
        <time>2018-05-31T16:41:47Z</time>
      </trkpt>
      <trkpt lat="44.54667" lon="2.23279">
        <ele>227.2</ele>
        <time>2018-05-31T16:41:51Z</time>
      </trkpt>
      <trkpt lat="44.54682" lon="2.23283">
        <ele>230.6</ele>
        <time>2018-05-31T16:41:52Z</time>
      </trkpt>
      <trkpt lat="44.54675" lon="2.23277">
        <ele>229.1</ele>
        <time>2018-05-31T16:41:53Z</time>
      </trkpt>
      <trkpt lat="44.54689" lon="2.23278">
        <ele>232.2</ele>
        <time>2018-05-31T16:41:54Z</time>
      </trkpt>
      <trkpt lat="44.54654" lon="2.23247">
        <ele>224.4</ele>
        <time>2018-05-31T16:41:56Z</time>
      </trkpt>
      <trkpt lat="44.54683" lon="2.23256">
        <ele>224.5</ele>
        <time>2018-05-31T16:41:57Z</time>
      </trkpt>
      <trkpt lat="44.54707" lon="2.23265">
        <ele>224.5</ele>
        <time>2018-05-31T16:41:58Z</time>
      </trkpt>
      <trkpt lat="44.54702" lon="2.2327">
        <ele>224.6</ele>
        <time>2018-05-31T16:41:59Z</time>
      </trkpt>
      <trkpt lat="44.5469" lon="2.23273">
        <ele>224.6</ele>
        <time>2018-05-31T16:42:00Z</time>
      </trkpt>
      <trkpt lat="44.5469" lon="2.23283">
        <ele>224.6</ele>
        <time>2018-05-31T16:42:01Z</time>
      </trkpt>
      <trkpt lat="44.54693" lon="2.23292">
        <ele>224.7</ele>
        <time>2018-05-31T16:42:02Z</time>
      </trkpt>
      <trkpt lat="44.54682" lon="2.23266">
        <ele>224.7</ele>
        <time>2018-05-31T16:42:03Z</time>
      </trkpt>
      <trkpt lat="44.54684" lon="2.23262">
        <ele>224.8</ele>
        <time>2018-05-31T16:42:05Z</time>
      </trkpt>
      <trkpt lat="44.54688" lon="2.23279">
        <ele>224.8</ele>
        <time>2018-05-31T16:42:07Z</time>
      </trkpt>
      <trkpt lat="44.54692" lon="2.23284">
        <ele>224.9</ele>
        <time>2018-05-31T16:42:08Z</time>
      </trkpt>
      <trkpt lat="44.54689" lon="2.23287">
        <ele>224.9</ele>
        <time>2018-05-31T16:42:10Z</time>
      </trkpt>
      <trkpt lat="44.54689" lon="2.23292">
        <ele>224.9</ele>
        <time>2018-05-31T16:42:12Z</time>
      </trkpt>
      <trkpt lat="44.54687" lon="2.23297">
        <ele>225</ele>
        <time>2018-05-31T16:42:14Z</time>
      </trkpt>
      <trkpt lat="44.54687" lon="2.23303">
        <ele>225</ele>
        <time>2018-05-31T16:42:16Z</time>
      </trkpt>
      <trkpt lat="44.54686" lon="2.23306">
        <ele>225</ele>
        <time>2018-05-31T16:42:21Z</time>
      </trkpt>
      <trkpt lat="44.54687" lon="2.2331">
        <ele>225.1</ele>
        <time>2018-05-31T16:42:29Z</time>
      </trkpt>
      <trkpt lat="44.54686" lon="2.23314">
        <ele>225.1</ele>
        <time>2018-05-31T16:42:30Z</time>
      </trkpt>
      <trkpt lat="44.54685" lon="2.23318">
        <ele>225.2</ele>
        <time>2018-05-31T16:42:31Z</time>
      </trkpt>
      <trkpt lat="44.54686" lon="2.23322">
        <ele>225.2</ele>
        <time>2018-05-31T16:42:32Z</time>
      </trkpt>
      <trkpt lat="44.54687" lon="2.23332">
        <ele>225.3</ele>
        <time>2018-05-31T16:42:35Z</time>
      </trkpt>
      <trkpt lat="44.54687" lon="2.23347">
        <ele>225.5</ele>
        <time>2018-05-31T16:42:37Z</time>
      </trkpt>
      <trkpt lat="44.54688" lon="2.23351">
        <ele>225.6</ele>
        <time>2018-05-31T16:42:38Z</time>
      </trkpt>
      <trkpt lat="44.54686" lon="2.23354">
        <ele>225.6</ele>
        <time>2018-05-31T16:42:39Z</time>
      </trkpt>
      <trkpt lat="44.54683" lon="2.23361">
        <ele>225.7</ele>
        <time>2018-05-31T16:42:41Z</time>
      </trkpt>
      <trkpt lat="44.54685" lon="2.23365">
        <ele>225.8</ele>
        <time>2018-05-31T16:42:42Z</time>
      </trkpt>
      <trkpt lat="44.54684" lon="2.2337">
        <ele>225.9</ele>
        <time>2018-05-31T16:42:43Z</time>
      </trkpt>
      <trkpt lat="44.54683" lon="2.23373">
        <ele>225.9</ele>
        <time>2018-05-31T16:42:44Z</time>
      </trkpt>
      <trkpt lat="44.54683" lon="2.23379">
        <ele>226</ele>
        <time>2018-05-31T16:42:45Z</time>
      </trkpt>
      <trkpt lat="44.54684" lon="2.23384">
        <ele>226.1</ele>
        <time>2018-05-31T16:42:46Z</time>
      </trkpt>
      <trkpt lat="44.54685" lon="2.23391">
        <ele>226.2</ele>
        <time>2018-05-31T16:42:48Z</time>
      </trkpt>
      <trkpt lat="44.54687" lon="2.23399">
        <ele>226.3</ele>
        <time>2018-05-31T16:42:50Z</time>
      </trkpt>
      <trkpt lat="44.54688" lon="2.23406">
        <ele>226.4</ele>
        <time>2018-05-31T16:42:52Z</time>
      </trkpt>
      <trkpt lat="44.54691" lon="2.23413">
        <ele>226.5</ele>
        <time>2018-05-31T16:42:53Z</time>
      </trkpt>
      <trkpt lat="44.54692" lon="2.23416">
        <ele>226.6</ele>
        <time>2018-05-31T16:42:54Z</time>
      </trkpt>
      <trkpt lat="44.54693" lon="2.23421">
        <ele>226.7</ele>
        <time>2018-05-31T16:42:55Z</time>
      </trkpt>
      <trkpt lat="44.5469" lon="2.23425">
        <ele>226.8</ele>
        <time>2018-05-31T16:42:56Z</time>
      </trkpt>
      <trkpt lat="44.5469" lon="2.2343">
        <ele>226.9</ele>
        <time>2018-05-31T16:42:57Z</time>
      </trkpt>
      <trkpt lat="44.54692" lon="2.23432">
        <ele>226.9</ele>
        <time>2018-05-31T16:42:58Z</time>
      </trkpt>
      <trkpt lat="44.54694" lon="2.23437">
        <ele>227</ele>
        <time>2018-05-31T16:42:59Z</time>
      </trkpt>
      <trkpt lat="44.54694" lon="2.23442">
        <ele>227.1</ele>
        <time>2018-05-31T16:43:00Z</time>
      </trkpt>
      <trkpt lat="44.54691" lon="2.23444">
        <ele>227.2</ele>
        <time>2018-05-31T16:43:01Z</time>
      </trkpt>
      <trkpt lat="44.54693" lon="2.2345">
        <ele>227.3</ele>
        <time>2018-05-31T16:43:03Z</time>
      </trkpt>
      <trkpt lat="44.54694" lon="2.23453">
        <ele>227.4</ele>
        <time>2018-05-31T16:43:04Z</time>
      </trkpt>
      <trkpt lat="44.54693" lon="2.23458">
        <ele>227.4</ele>
        <time>2018-05-31T16:43:06Z</time>
      </trkpt>
      <trkpt lat="44.54694" lon="2.23465">
        <ele>227.6</ele>
        <time>2018-05-31T16:43:07Z</time>
      </trkpt>
      <trkpt lat="44.54694" lon="2.23469">
        <ele>227.6</ele>
        <time>2018-05-31T16:43:08Z</time>
      </trkpt>
      <trkpt lat="44.54696" lon="2.23471">
        <ele>227.7</ele>
        <time>2018-05-31T16:43:09Z</time>
      </trkpt>
      <trkpt lat="44.54698" lon="2.23481">
        <ele>227.9</ele>
        <time>2018-05-31T16:43:11Z</time>
      </trkpt>
      <trkpt lat="44.54699" lon="2.23485">
        <ele>227.9</ele>
        <time>2018-05-31T16:43:13Z</time>
      </trkpt>
      <trkpt lat="44.54702" lon="2.2349">
        <ele>228.1</ele>
        <time>2018-05-31T16:43:15Z</time>
      </trkpt>
      <trkpt lat="44.54704" lon="2.23494">
        <ele>228.1</ele>
        <time>2018-05-31T16:43:19Z</time>
      </trkpt>
      <trkpt lat="44.54705" lon="2.23498">
        <ele>228.2</ele>
        <time>2018-05-31T16:43:20Z</time>
      </trkpt>
      <trkpt lat="44.54708" lon="2.23504">
        <ele>228.3</ele>
        <time>2018-05-31T16:43:21Z</time>
      </trkpt>
      <trkpt lat="44.54707" lon="2.23512">
        <ele>228.4</ele>
        <time>2018-05-31T16:43:23Z</time>
      </trkpt>
      <trkpt lat="44.54711" lon="2.23518">
        <ele>228.5</ele>
        <time>2018-05-31T16:43:24Z</time>
      </trkpt>
      <trkpt lat="44.54713" lon="2.23527">
        <ele>228.6</ele>
        <time>2018-05-31T16:43:25Z</time>
      </trkpt>
      <trkpt lat="44.54711" lon="2.23531">
        <ele>228.6</ele>
        <time>2018-05-31T16:43:27Z</time>
      </trkpt>
      <trkpt lat="44.54711" lon="2.23536">
        <ele>228.6</ele>
        <time>2018-05-31T16:43:28Z</time>
      </trkpt>
      <trkpt lat="44.54709" lon="2.23542">
        <ele>228.7</ele>
        <time>2018-05-31T16:43:30Z</time>
      </trkpt>
      <trkpt lat="44.54709" lon="2.23548">
        <ele>228.7</ele>
        <time>2018-05-31T16:43:32Z</time>
      </trkpt>
      <trkpt lat="44.5471" lon="2.23552">
        <ele>228.7</ele>
        <time>2018-05-31T16:43:33Z</time>
      </trkpt>
      <trkpt lat="44.54713" lon="2.23554">
        <ele>228.8</ele>
        <time>2018-05-31T16:43:34Z</time>
      </trkpt>
      <trkpt lat="44.54716" lon="2.23564">
        <ele>228.8</ele>
        <time>2018-05-31T16:43:36Z</time>
      </trkpt>
      <trkpt lat="44.54719" lon="2.2357">
        <ele>228.9</ele>
        <time>2018-05-31T16:43:38Z</time>
      </trkpt>
      <trkpt lat="44.54724" lon="2.23575">
        <ele>228.9</ele>
        <time>2018-05-31T16:43:40Z</time>
      </trkpt>
      <trkpt lat="44.54726" lon="2.23583">
        <ele>229</ele>
        <time>2018-05-31T16:43:41Z</time>
      </trkpt>
      <trkpt lat="44.54726" lon="2.23587">
        <ele>229</ele>
        <time>2018-05-31T16:43:42Z</time>
      </trkpt>
      <trkpt lat="44.54725" lon="2.2359">
        <ele>229.1</ele>
        <time>2018-05-31T16:43:43Z</time>
      </trkpt>
      <trkpt lat="44.54723" lon="2.23593">
        <ele>229.1</ele>
        <time>2018-05-31T16:43:45Z</time>
      </trkpt>
      <trkpt lat="44.5472" lon="2.23598">
        <ele>229.2</ele>
        <time>2018-05-31T16:43:47Z</time>
      </trkpt>
      <trkpt lat="44.54723" lon="2.23601">
        <ele>229.2</ele>
        <time>2018-05-31T16:43:48Z</time>
      </trkpt>
      <trkpt lat="44.54723" lon="2.23607">
        <ele>229.3</ele>
        <time>2018-05-31T16:43:50Z</time>
      </trkpt>
      <trkpt lat="44.54725" lon="2.23612">
        <ele>229.3</ele>
        <time>2018-05-31T16:43:52Z</time>
      </trkpt>
      <trkpt lat="44.54723" lon="2.23616">
        <ele>229.3</ele>
        <time>2018-05-31T16:43:54Z</time>
      </trkpt>
      <trkpt lat="44.54725" lon="2.23621">
        <ele>229.4</ele>
        <time>2018-05-31T16:43:56Z</time>
      </trkpt>
      <trkpt lat="44.54727" lon="2.23623">
        <ele>229.4</ele>
        <time>2018-05-31T16:43:57Z</time>
      </trkpt>
      <trkpt lat="44.54728" lon="2.23631">
        <ele>229.4</ele>
        <time>2018-05-31T16:43:59Z</time>
      </trkpt>
      <trkpt lat="44.54729" lon="2.2364">
        <ele>229.5</ele>
        <time>2018-05-31T16:44:01Z</time>
      </trkpt>
      <trkpt lat="44.54729" lon="2.23645">
        <ele>229.5</ele>
        <time>2018-05-31T16:44:03Z</time>
      </trkpt>
      <trkpt lat="44.54726" lon="2.2365">
        <ele>229.5</ele>
        <time>2018-05-31T16:44:04Z</time>
      </trkpt>
      <trkpt lat="44.54729" lon="2.23656">
        <ele>229.5</ele>
        <time>2018-05-31T16:44:05Z</time>
      </trkpt>
      <trkpt lat="44.54731" lon="2.23659">
        <ele>229.5</ele>
        <time>2018-05-31T16:44:07Z</time>
      </trkpt>
      <trkpt lat="44.54734" lon="2.23661">
        <ele>229.6</ele>
        <time>2018-05-31T16:44:08Z</time>
      </trkpt>
      <trkpt lat="44.54737" lon="2.23665">
        <ele>229.6</ele>
        <time>2018-05-31T16:44:10Z</time>
      </trkpt>
      <trkpt lat="44.54736" lon="2.2367">
        <ele>229.6</ele>
        <time>2018-05-31T16:44:12Z</time>
      </trkpt>
      <trkpt lat="44.54738" lon="2.2368">
        <ele>229.6</ele>
        <time>2018-05-31T16:44:14Z</time>
      </trkpt>
      <trkpt lat="44.54741" lon="2.23684">
        <ele>229.7</ele>
        <time>2018-05-31T16:44:17Z</time>
      </trkpt>
      <trkpt lat="44.54744" lon="2.23688">
        <ele>229.7</ele>
        <time>2018-05-31T16:44:20Z</time>
      </trkpt>
      <trkpt lat="44.54749" lon="2.23693">
        <ele>229.8</ele>
        <time>2018-05-31T16:44:23Z</time>
      </trkpt>
      <trkpt lat="44.54753" lon="2.23696">
        <ele>229.8</ele>
        <time>2018-05-31T16:44:24Z</time>
      </trkpt>
      <trkpt lat="44.54757" lon="2.23704">
        <ele>229.9</ele>
        <time>2018-05-31T16:44:26Z</time>
      </trkpt>
      <trkpt lat="44.54757" lon="2.23709">
        <ele>230</ele>
        <time>2018-05-31T16:44:27Z</time>
      </trkpt>
      <trkpt lat="44.54761" lon="2.23714">
        <ele>230.3</ele>
        <time>2018-05-31T16:44:29Z</time>
      </trkpt>
      <trkpt lat="44.54764" lon="2.2372">
        <ele>230.4</ele>
        <time>2018-05-31T16:44:31Z</time>
      </trkpt>
      <trkpt lat="44.54769" lon="2.23725">
        <ele>230.6</ele>
        <time>2018-05-31T16:44:32Z</time>
      </trkpt>
      <trkpt lat="44.54771" lon="2.23729">
        <ele>230.6</ele>
        <time>2018-05-31T16:44:33Z</time>
      </trkpt>
      <trkpt lat="44.54775" lon="2.23734">
        <ele>230.7</ele>
        <time>2018-05-31T16:44:34Z</time>
      </trkpt>
      <trkpt lat="44.5478" lon="2.23737">
        <ele>230.9</ele>
        <time>2018-05-31T16:44:37Z</time>
      </trkpt>
      <trkpt lat="44.5478" lon="2.23741">
        <ele>231</ele>
        <time>2018-05-31T16:44:38Z</time>
      </trkpt>
      <trkpt lat="44.54783" lon="2.23747">
        <ele>231.1</ele>
        <time>2018-05-31T16:44:40Z</time>
      </trkpt>
      <trkpt lat="44.54783" lon="2.23752">
        <ele>231.1</ele>
        <time>2018-05-31T16:44:42Z</time>
      </trkpt>
      <trkpt lat="44.54784" lon="2.23757">
        <ele>231.2</ele>
        <time>2018-05-31T16:44:43Z</time>
      </trkpt>
      <trkpt lat="44.54785" lon="2.23764">
        <ele>231.3</ele>
        <time>2018-05-31T16:44:45Z</time>
      </trkpt>
      <trkpt lat="44.54788" lon="2.23764">
        <ele>231.4</ele>
        <time>2018-05-31T16:44:46Z</time>
      </trkpt>
      <trkpt lat="44.5479" lon="2.23767">
        <ele>231.4</ele>
        <time>2018-05-31T16:44:47Z</time>
      </trkpt>
      <trkpt lat="44.54793" lon="2.23772">
        <ele>231.5</ele>
        <time>2018-05-31T16:44:49Z</time>
      </trkpt>
      <trkpt lat="44.54794" lon="2.23775">
        <ele>231.5</ele>
        <time>2018-05-31T16:44:50Z</time>
      </trkpt>
      <trkpt lat="44.54796" lon="2.23779">
        <ele>231.6</ele>
        <time>2018-05-31T16:44:51Z</time>
      </trkpt>
      <trkpt lat="44.54798" lon="2.23786">
        <ele>231.9</ele>
        <time>2018-05-31T16:44:53Z</time>
      </trkpt>
      <trkpt lat="44.548" lon="2.23789">
        <ele>232</ele>
        <time>2018-05-31T16:44:55Z</time>
      </trkpt>
      <trkpt lat="44.54802" lon="2.23792">
        <ele>232.1</ele>
        <time>2018-05-31T16:44:57Z</time>
      </trkpt>
      <trkpt lat="44.54804" lon="2.23795">
        <ele>232.2</ele>
        <time>2018-05-31T16:45:00Z</time>
      </trkpt>
      <trkpt lat="44.54806" lon="2.23798">
        <ele>232.2</ele>
        <time>2018-05-31T16:45:02Z</time>
      </trkpt>
      <trkpt lat="44.54808" lon="2.23801">
        <ele>232.3</ele>
        <time>2018-05-31T16:45:03Z</time>
      </trkpt>
      <trkpt lat="44.54811" lon="2.23801">
        <ele>232.4</ele>
        <time>2018-05-31T16:45:06Z</time>
      </trkpt>
      <trkpt lat="44.54813" lon="2.23806">
        <ele>232.5</ele>
        <time>2018-05-31T16:45:08Z</time>
      </trkpt>
      <trkpt lat="44.54813" lon="2.2381">
        <ele>232.7</ele>
        <time>2018-05-31T16:45:10Z</time>
      </trkpt>
      <trkpt lat="44.54818" lon="2.23824">
        <ele>233</ele>
        <time>2018-05-31T16:45:15Z</time>
      </trkpt>
      <trkpt lat="44.54821" lon="2.23827">
        <ele>233.1</ele>
        <time>2018-05-31T16:45:16Z</time>
      </trkpt>
      <trkpt lat="44.54826" lon="2.23833">
        <ele>233.2</ele>
        <time>2018-05-31T16:45:18Z</time>
      </trkpt>
      <trkpt lat="44.54828" lon="2.23841">
        <ele>233.3</ele>
        <time>2018-05-31T16:45:19Z</time>
      </trkpt>
      <trkpt lat="44.54831" lon="2.23851">
        <ele>233.4</ele>
        <time>2018-05-31T16:45:20Z</time>
      </trkpt>
      <trkpt lat="44.54833" lon="2.23865">
        <ele>233.6</ele>
        <time>2018-05-31T16:45:21Z</time>
      </trkpt>
      <trkpt lat="44.54834" lon="2.2386">
        <ele>233.6</ele>
        <time>2018-05-31T16:45:23Z</time>
      </trkpt>
      <trkpt lat="44.54841" lon="2.23857">
        <ele>233.7</ele>
        <time>2018-05-31T16:45:24Z</time>
      </trkpt>
      <trkpt lat="44.54844" lon="2.23859">
        <ele>233.8</ele>
        <time>2018-05-31T16:45:25Z</time>
      </trkpt>
      <trkpt lat="44.54849" lon="2.2386">
        <ele>233.9</ele>
        <time>2018-05-31T16:45:27Z</time>
      </trkpt>
      <trkpt lat="44.54851" lon="2.23864">
        <ele>234</ele>
        <time>2018-05-31T16:45:28Z</time>
      </trkpt>
      <trkpt lat="44.54856" lon="2.23871">
        <ele>234.2</ele>
        <time>2018-05-31T16:45:30Z</time>
      </trkpt>
      <trkpt lat="44.54861" lon="2.23876">
        <ele>234.4</ele>
        <time>2018-05-31T16:45:32Z</time>
      </trkpt>
      <trkpt lat="44.54864" lon="2.2388">
        <ele>234.5</ele>
        <time>2018-05-31T16:45:34Z</time>
      </trkpt>
      <trkpt lat="44.54862" lon="2.23888">
        <ele>234.7</ele>
        <time>2018-05-31T16:45:36Z</time>
      </trkpt>
      <trkpt lat="44.54862" lon="2.23893">
        <ele>234.8</ele>
        <time>2018-05-31T16:45:39Z</time>
      </trkpt>
      <trkpt lat="44.54861" lon="2.23899">
        <ele>234.9</ele>
        <time>2018-05-31T16:45:40Z</time>
      </trkpt>
      <trkpt lat="44.54865" lon="2.23901">
        <ele>235.1</ele>
        <time>2018-05-31T16:45:42Z</time>
      </trkpt>
      <trkpt lat="44.54867" lon="2.23907">
        <ele>235.2</ele>
        <time>2018-05-31T16:45:45Z</time>
      </trkpt>
      <trkpt lat="44.54871" lon="2.23913">
        <ele>235.5</ele>
        <time>2018-05-31T16:45:47Z</time>
      </trkpt>
      <trkpt lat="44.54873" lon="2.2392">
        <ele>235.6</ele>
        <time>2018-05-31T16:45:50Z</time>
      </trkpt>
      <trkpt lat="44.54875" lon="2.23919">
        <ele>235.8</ele>
        <time>2018-05-31T16:45:51Z</time>
      </trkpt>
      <trkpt lat="44.54878" lon="2.23923">
        <ele>235.9</ele>
        <time>2018-05-31T16:45:53Z</time>
      </trkpt>
      <trkpt lat="44.54881" lon="2.23923">
        <ele>236.1</ele>
        <time>2018-05-31T16:45:55Z</time>
      </trkpt>
      <trkpt lat="44.54887" lon="2.23925">
        <ele>236.4</ele>
        <time>2018-05-31T16:45:57Z</time>
      </trkpt>
      <trkpt lat="44.54977" lon="2.23973">
        <ele>237.6</ele>
        <time>2018-05-31T16:46:36Z</time>
      </trkpt>
      <trkpt lat="44.5498" lon="2.23974">
        <ele>238.4</ele>
        <time>2018-05-31T16:46:37Z</time>
      </trkpt>
      <trkpt lat="44.54978" lon="2.23981">
        <ele>237.9</ele>
        <time>2018-05-31T16:46:39Z</time>
      </trkpt>
      <trkpt lat="44.54983" lon="2.23973">
        <ele>239.6</ele>
        <time>2018-05-31T16:46:40Z</time>
      </trkpt>
      <trkpt lat="44.54989" lon="2.23988">
        <ele>238.8</ele>
        <time>2018-05-31T16:46:41Z</time>
      </trkpt>
      <trkpt lat="44.54982" lon="2.23996">
        <ele>238.6</ele>
        <time>2018-05-31T16:46:42Z</time>
      </trkpt>
      <trkpt lat="44.54982" lon="2.23989">
        <ele>239.5</ele>
        <time>2018-05-31T16:46:43Z</time>
      </trkpt>
      <trkpt lat="44.54985" lon="2.23986">
        <ele>240.5</ele>
        <time>2018-05-31T16:46:44Z</time>
      </trkpt>
      <trkpt lat="44.54987" lon="2.23991">
        <ele>240.6</ele>
        <time>2018-05-31T16:46:46Z</time>
      </trkpt>
      <trkpt lat="44.54991" lon="2.23985">
        <ele>240.8</ele>
        <time>2018-05-31T16:46:48Z</time>
      </trkpt>
      <trkpt lat="44.54994" lon="2.23983">
        <ele>240.9</ele>
        <time>2018-05-31T16:46:49Z</time>
      </trkpt>
      <trkpt lat="44.55005" lon="2.23985">
        <ele>241.3</ele>
        <time>2018-05-31T16:46:51Z</time>
      </trkpt>
      <trkpt lat="44.55014" lon="2.23973">
        <ele>241.7</ele>
        <time>2018-05-31T16:46:52Z</time>
      </trkpt>
      <trkpt lat="44.55015" lon="2.23968">
        <ele>241.8</ele>
        <time>2018-05-31T16:46:54Z</time>
      </trkpt>
      <trkpt lat="44.55017" lon="2.23975">
        <ele>242</ele>
        <time>2018-05-31T16:46:56Z</time>
      </trkpt>
      <trkpt lat="44.5502" lon="2.23972">
        <ele>242.1</ele>
        <time>2018-05-31T16:46:57Z</time>
      </trkpt>
      <trkpt lat="44.55022" lon="2.23965">
        <ele>242.3</ele>
        <time>2018-05-31T16:46:58Z</time>
      </trkpt>
      <trkpt lat="44.55025" lon="2.23973">
        <ele>242.5</ele>
        <time>2018-05-31T16:47:00Z</time>
      </trkpt>
      <trkpt lat="44.55028" lon="2.23974">
        <ele>242.6</ele>
        <time>2018-05-31T16:47:01Z</time>
      </trkpt>
      <trkpt lat="44.55033" lon="2.23975">
        <ele>242.7</ele>
        <time>2018-05-31T16:47:03Z</time>
      </trkpt>
      <trkpt lat="44.55037" lon="2.2398">
        <ele>243</ele>
        <time>2018-05-31T16:47:07Z</time>
      </trkpt>
      <trkpt lat="44.55039" lon="2.23982">
        <ele>243.2</ele>
        <time>2018-05-31T16:47:08Z</time>
      </trkpt>
      <trkpt lat="44.55041" lon="2.23987">
        <ele>243.3</ele>
        <time>2018-05-31T16:47:09Z</time>
      </trkpt>
      <trkpt lat="44.55045" lon="2.23994">
        <ele>243.5</ele>
        <time>2018-05-31T16:47:13Z</time>
      </trkpt>
      <trkpt lat="44.55048" lon="2.23993">
        <ele>243.6</ele>
        <time>2018-05-31T16:47:14Z</time>
      </trkpt>
      <trkpt lat="44.55052" lon="2.23996">
        <ele>243.8</ele>
        <time>2018-05-31T16:47:16Z</time>
      </trkpt>
      <trkpt lat="44.55054" lon="2.23998">
        <ele>243.9</ele>
        <time>2018-05-31T16:47:17Z</time>
      </trkpt>
      <trkpt lat="44.55058" lon="2.24">
        <ele>244</ele>
        <time>2018-05-31T16:47:20Z</time>
      </trkpt>
      <trkpt lat="44.55062" lon="2.23993">
        <ele>244.2</ele>
        <time>2018-05-31T16:47:22Z</time>
      </trkpt>
      <trkpt lat="44.55065" lon="2.23992">
        <ele>244.3</ele>
        <time>2018-05-31T16:47:24Z</time>
      </trkpt>
      <trkpt lat="44.55068" lon="2.23997">
        <ele>244.5</ele>
        <time>2018-05-31T16:47:25Z</time>
      </trkpt>
      <trkpt lat="44.55071" lon="2.23998">
        <ele>244.5</ele>
        <time>2018-05-31T16:47:26Z</time>
      </trkpt>
      <trkpt lat="44.55074" lon="2.24002">
        <ele>244.7</ele>
        <time>2018-05-31T16:47:28Z</time>
      </trkpt>
      <trkpt lat="44.55077" lon="2.24001">
        <ele>244.8</ele>
        <time>2018-05-31T16:47:29Z</time>
      </trkpt>
      <trkpt lat="44.55079" lon="2.24006">
        <ele>244.9</ele>
        <time>2018-05-31T16:47:30Z</time>
      </trkpt>
      <trkpt lat="44.5508" lon="2.24011">
        <ele>245</ele>
        <time>2018-05-31T16:47:32Z</time>
      </trkpt>
      <trkpt lat="44.55084" lon="2.24011">
        <ele>245.1</ele>
        <time>2018-05-31T16:47:34Z</time>
      </trkpt>
      <trkpt lat="44.55086" lon="2.24009">
        <ele>245.3</ele>
        <time>2018-05-31T16:47:35Z</time>
      </trkpt>
      <trkpt lat="44.55089" lon="2.24008">
        <ele>245.4</ele>
        <time>2018-05-31T16:47:39Z</time>
      </trkpt>
      <trkpt lat="44.55092" lon="2.2401">
        <ele>245.5</ele>
        <time>2018-05-31T16:47:40Z</time>
      </trkpt>
      <trkpt lat="44.55098" lon="2.24017">
        <ele>245.8</ele>
        <time>2018-05-31T16:47:42Z</time>
      </trkpt>
      <trkpt lat="44.55101" lon="2.24021">
        <ele>245.9</ele>
        <time>2018-05-31T16:47:43Z</time>
      </trkpt>
      <trkpt lat="44.55105" lon="2.24024">
        <ele>246.1</ele>
        <time>2018-05-31T16:47:45Z</time>
      </trkpt>
      <trkpt lat="44.55104" lon="2.24015">
        <ele>246.2</ele>
        <time>2018-05-31T16:47:46Z</time>
      </trkpt>
      <trkpt lat="44.55111" lon="2.24013">
        <ele>246.5</ele>
        <time>2018-05-31T16:47:47Z</time>
      </trkpt>
      <trkpt lat="44.55114" lon="2.24016">
        <ele>246.5</ele>
        <time>2018-05-31T16:47:48Z</time>
      </trkpt>
      <trkpt lat="44.55111" lon="2.24022">
        <ele>246.6</ele>
        <time>2018-05-31T16:47:50Z</time>
      </trkpt>
      <trkpt lat="44.55115" lon="2.24024">
        <ele>246.7</ele>
        <time>2018-05-31T16:47:52Z</time>
      </trkpt>
      <trkpt lat="44.55116" lon="2.24028">
        <ele>246.7</ele>
        <time>2018-05-31T16:47:53Z</time>
      </trkpt>
      <trkpt lat="44.55119" lon="2.24028">
        <ele>246.8</ele>
        <time>2018-05-31T16:47:54Z</time>
      </trkpt>
      <trkpt lat="44.55119" lon="2.24033">
        <ele>246.8</ele>
        <time>2018-05-31T16:47:57Z</time>
      </trkpt>
      <trkpt lat="44.55123" lon="2.24036">
        <ele>246.9</ele>
        <time>2018-05-31T16:47:58Z</time>
      </trkpt>
      <trkpt lat="44.55122" lon="2.24031">
        <ele>247</ele>
        <time>2018-05-31T16:47:59Z</time>
      </trkpt>
      <trkpt lat="44.55126" lon="2.2403">
        <ele>247.1</ele>
        <time>2018-05-31T16:48:02Z</time>
      </trkpt>
      <trkpt lat="44.55128" lon="2.24032">
        <ele>247.1</ele>
        <time>2018-05-31T16:48:03Z</time>
      </trkpt>
      <trkpt lat="44.55129" lon="2.24038">
        <ele>247.2</ele>
        <time>2018-05-31T16:48:04Z</time>
      </trkpt>
      <trkpt lat="44.55133" lon="2.24043">
        <ele>247.3</ele>
        <time>2018-05-31T16:48:05Z</time>
      </trkpt>
      <trkpt lat="44.55139" lon="2.24033">
        <ele>247.5</ele>
        <time>2018-05-31T16:48:07Z</time>
      </trkpt>
      <trkpt lat="44.55149" lon="2.24028">
        <ele>247.7</ele>
        <time>2018-05-31T16:48:08Z</time>
      </trkpt>
      <trkpt lat="44.55149" lon="2.24033">
        <ele>247.8</ele>
        <time>2018-05-31T16:48:09Z</time>
      </trkpt>
      <trkpt lat="44.55146" lon="2.24029">
        <ele>247.9</ele>
        <time>2018-05-31T16:48:10Z</time>
      </trkpt>
      <trkpt lat="44.55151" lon="2.2403">
        <ele>248</ele>
        <time>2018-05-31T16:48:11Z</time>
      </trkpt>
      <trkpt lat="44.55155" lon="2.24034">
        <ele>248.1</ele>
        <time>2018-05-31T16:48:13Z</time>
      </trkpt>
      <trkpt lat="44.55156" lon="2.24038">
        <ele>248.2</ele>
        <time>2018-05-31T16:48:14Z</time>
      </trkpt>
      <trkpt lat="44.55156" lon="2.24045">
        <ele>248.3</ele>
        <time>2018-05-31T16:48:15Z</time>
      </trkpt>
      <trkpt lat="44.55152" lon="2.24046">
        <ele>248.4</ele>
        <time>2018-05-31T16:48:18Z</time>
      </trkpt>
      <trkpt lat="44.55158" lon="2.24053">
        <ele>248.6</ele>
        <time>2018-05-31T16:48:21Z</time>
      </trkpt>
      <trkpt lat="44.55161" lon="2.24056">
        <ele>248.7</ele>
        <time>2018-05-31T16:48:24Z</time>
      </trkpt>
      <trkpt lat="44.55152" lon="2.24057">
        <ele>249.7</ele>
        <time>2018-05-31T16:48:26Z</time>
      </trkpt>
      <trkpt lat="44.55144" lon="2.24063">
        <ele>250</ele>
        <time>2018-05-31T16:48:28Z</time>
      </trkpt>
      <trkpt lat="44.55139" lon="2.24064">
        <ele>250.3</ele>
        <time>2018-05-31T16:48:31Z</time>
      </trkpt>
      <trkpt lat="44.55143" lon="2.24068">
        <ele>250.5</ele>
        <time>2018-05-31T16:48:33Z</time>
      </trkpt>
      <trkpt lat="44.55146" lon="2.24069">
        <ele>250.7</ele>
        <time>2018-05-31T16:48:36Z</time>
      </trkpt>
      <trkpt lat="44.55145" lon="2.24074">
        <ele>250.8</ele>
        <time>2018-05-31T16:48:39Z</time>
      </trkpt>
      <trkpt lat="44.55147" lon="2.24077">
        <ele>250.9</ele>
        <time>2018-05-31T16:48:40Z</time>
      </trkpt>
      <trkpt lat="44.55146" lon="2.24081">
        <ele>251</ele>
        <time>2018-05-31T16:48:41Z</time>
      </trkpt>
      <trkpt lat="44.55141" lon="2.24082">
        <ele>251.1</ele>
        <time>2018-05-31T16:48:44Z</time>
      </trkpt>
      <trkpt lat="44.55139" lon="2.24079">
        <ele>251.2</ele>
        <time>2018-05-31T16:48:47Z</time>
      </trkpt>
      <trkpt lat="44.55135" lon="2.24078">
        <ele>251.3</ele>
        <time>2018-05-31T16:48:48Z</time>
      </trkpt>
      <trkpt lat="44.55138" lon="2.24079">
        <ele>251.4</ele>
        <time>2018-05-31T16:48:49Z</time>
      </trkpt>
      <trkpt lat="44.55133" lon="2.24082">
        <ele>251.5</ele>
        <time>2018-05-31T16:48:51Z</time>
      </trkpt>
      <trkpt lat="44.55123" lon="2.24084">
        <ele>251.8</ele>
        <time>2018-05-31T16:48:52Z</time>
      </trkpt>
      <trkpt lat="44.55114" lon="2.24077">
        <ele>252</ele>
        <time>2018-05-31T16:48:53Z</time>
      </trkpt>
      <trkpt lat="44.5511" lon="2.24077">
        <ele>252.1</ele>
        <time>2018-05-31T16:48:55Z</time>
      </trkpt>
      <trkpt lat="44.55105" lon="2.24077">
        <ele>252.3</ele>
        <time>2018-05-31T16:48:56Z</time>
      </trkpt>
      <trkpt lat="44.55107" lon="2.24081">
        <ele>252.4</ele>
        <time>2018-05-31T16:48:57Z</time>
      </trkpt>
      <trkpt lat="44.55103" lon="2.24081">
        <ele>252.5</ele>
        <time>2018-05-31T16:48:58Z</time>
      </trkpt>
      <trkpt lat="44.55107" lon="2.24083">
        <ele>252.7</ele>
        <time>2018-05-31T16:49:00Z</time>
      </trkpt>
      <trkpt lat="44.55104" lon="2.24084">
        <ele>252.8</ele>
        <time>2018-05-31T16:49:01Z</time>
      </trkpt>
      <trkpt lat="44.55099" lon="2.24081">
        <ele>253.1</ele>
        <time>2018-05-31T16:49:02Z</time>
      </trkpt>
      <trkpt lat="44.55097" lon="2.24084">
        <ele>253.3</ele>
        <time>2018-05-31T16:49:03Z</time>
      </trkpt>
      <trkpt lat="44.55092" lon="2.24083">
        <ele>253.5</ele>
        <time>2018-05-31T16:49:04Z</time>
      </trkpt>
      <trkpt lat="44.55091" lon="2.24087">
        <ele>253.6</ele>
        <time>2018-05-31T16:49:06Z</time>
      </trkpt>
      <trkpt lat="44.55088" lon="2.24086">
        <ele>253.8</ele>
        <time>2018-05-31T16:49:07Z</time>
      </trkpt>
      <trkpt lat="44.55091" lon="2.24088">
        <ele>253.9</ele>
        <time>2018-05-31T16:49:09Z</time>
      </trkpt>
      <trkpt lat="44.55086" lon="2.24086">
        <ele>254.2</ele>
        <time>2018-05-31T16:49:10Z</time>
      </trkpt>
      <trkpt lat="44.5508" lon="2.24085">
        <ele>254.5</ele>
        <time>2018-05-31T16:49:11Z</time>
      </trkpt>
      <trkpt lat="44.55069" lon="2.2408">
        <ele>255</ele>
        <time>2018-05-31T16:49:13Z</time>
      </trkpt>
      <trkpt lat="44.55065" lon="2.24079">
        <ele>255.2</ele>
        <time>2018-05-31T16:49:14Z</time>
      </trkpt>
      <trkpt lat="44.55059" lon="2.2408">
        <ele>255.7</ele>
        <time>2018-05-31T16:49:15Z</time>
      </trkpt>
      <trkpt lat="44.55055" lon="2.24084">
        <ele>256.1</ele>
        <time>2018-05-31T16:49:16Z</time>
      </trkpt>
      <trkpt lat="44.55052" lon="2.24082">
        <ele>256.4</ele>
        <time>2018-05-31T16:49:17Z</time>
      </trkpt>
      <trkpt lat="44.55054" lon="2.24085">
        <ele>256.6</ele>
        <time>2018-05-31T16:49:18Z</time>
      </trkpt>
      <trkpt lat="44.55047" lon="2.24084">
        <ele>257.1</ele>
        <time>2018-05-31T16:49:19Z</time>
      </trkpt>
      <trkpt lat="44.55041" lon="2.24081">
        <ele>257.5</ele>
        <time>2018-05-31T16:49:23Z</time>
      </trkpt>
      <trkpt lat="44.55037" lon="2.24078">
        <ele>257.9</ele>
        <time>2018-05-31T16:49:24Z</time>
      </trkpt>
      <trkpt lat="44.55033" lon="2.24078">
        <ele>257.8</ele>
        <time>2018-05-31T16:49:26Z</time>
      </trkpt>
      <trkpt lat="44.55028" lon="2.24078">
        <ele>257.7</ele>
        <time>2018-05-31T16:49:28Z</time>
      </trkpt>
      <trkpt lat="44.55023" lon="2.24078">
        <ele>257.5</ele>
        <time>2018-05-31T16:49:32Z</time>
      </trkpt>
      <trkpt lat="44.55021" lon="2.24077">
        <ele>257.4</ele>
        <time>2018-05-31T16:49:33Z</time>
      </trkpt>
      <trkpt lat="44.55014" lon="2.24075">
        <ele>257.1</ele>
        <time>2018-05-31T16:49:34Z</time>
      </trkpt>
      <trkpt lat="44.55008" lon="2.2408">
        <ele>256.7</ele>
        <time>2018-05-31T16:49:37Z</time>
      </trkpt>
      <trkpt lat="44.55004" lon="2.2408">
        <ele>256.5</ele>
        <time>2018-05-31T16:49:38Z</time>
      </trkpt>
      <trkpt lat="44.55001" lon="2.24081">
        <ele>256.3</ele>
        <time>2018-05-31T16:49:39Z</time>
      </trkpt>
      <trkpt lat="44.54996" lon="2.24083">
        <ele>256</ele>
        <time>2018-05-31T16:49:40Z</time>
      </trkpt>
      <trkpt lat="44.54997" lon="2.24087">
        <ele>255.8</ele>
        <time>2018-05-31T16:49:42Z</time>
      </trkpt>
      <trkpt lat="44.54992" lon="2.24088">
        <ele>255.6</ele>
        <time>2018-05-31T16:49:45Z</time>
      </trkpt>
      <trkpt lat="44.54989" lon="2.24088">
        <ele>255.5</ele>
        <time>2018-05-31T16:49:46Z</time>
      </trkpt>
      <trkpt lat="44.54985" lon="2.24086">
        <ele>255.4</ele>
        <time>2018-05-31T16:49:47Z</time>
      </trkpt>
      <trkpt lat="44.54981" lon="2.24087">
        <ele>255.3</ele>
        <time>2018-05-31T16:49:49Z</time>
      </trkpt>
      <trkpt lat="44.54987" lon="2.24093">
        <ele>256</ele>
        <time>2018-05-31T16:49:50Z</time>
      </trkpt>
      <trkpt lat="44.54993" lon="2.24098">
        <ele>256.8</ele>
        <time>2018-05-31T16:49:51Z</time>
      </trkpt>
      <trkpt lat="44.54995" lon="2.24099">
        <ele>256.4</ele>
        <time>2018-05-31T16:49:52Z</time>
      </trkpt>
      <trkpt lat="44.54991" lon="2.24099">
        <ele>256</ele>
        <time>2018-05-31T16:49:53Z</time>
      </trkpt>
      <trkpt lat="44.54987" lon="2.24095">
        <ele>255.6</ele>
        <time>2018-05-31T16:49:55Z</time>
      </trkpt>
      <trkpt lat="44.54983" lon="2.24094">
        <ele>254.1</ele>
        <time>2018-05-31T16:49:56Z</time>
      </trkpt>
      <trkpt lat="44.54986" lon="2.24101">
        <ele>255.9</ele>
        <time>2018-05-31T16:49:59Z</time>
      </trkpt>
      <trkpt lat="44.54989" lon="2.24105">
        <ele>256.6</ele>
        <time>2018-05-31T16:50:02Z</time>
      </trkpt>
      <trkpt lat="44.54989" lon="2.24109">
        <ele>257.3</ele>
        <time>2018-05-31T16:50:05Z</time>
      </trkpt>
      <trkpt lat="44.54983" lon="2.24109">
        <ele>256.8</ele>
        <time>2018-05-31T16:50:08Z</time>
      </trkpt>
      <trkpt lat="44.54972" lon="2.24104">
        <ele>255.1</ele>
        <time>2018-05-31T16:50:11Z</time>
      </trkpt>
      <trkpt lat="44.54963" lon="2.24097">
        <ele>254.9</ele>
        <time>2018-05-31T16:50:12Z</time>
      </trkpt>
      <trkpt lat="44.54958" lon="2.24098">
        <ele>254.9</ele>
        <time>2018-05-31T16:50:13Z</time>
      </trkpt>
      <trkpt lat="44.54949" lon="2.24096">
        <ele>254.7</ele>
        <time>2018-05-31T16:50:14Z</time>
      </trkpt>
      <trkpt lat="44.54946" lon="2.24097">
        <ele>254.7</ele>
        <time>2018-05-31T16:50:16Z</time>
      </trkpt>
      <trkpt lat="44.54941" lon="2.24097">
        <ele>254.6</ele>
        <time>2018-05-31T16:50:18Z</time>
      </trkpt>
      <trkpt lat="44.54935" lon="2.24096">
        <ele>254.5</ele>
        <time>2018-05-31T16:50:19Z</time>
      </trkpt>
      <trkpt lat="44.5493" lon="2.24094">
        <ele>254.3</ele>
        <time>2018-05-31T16:50:20Z</time>
      </trkpt>
      <trkpt lat="44.54922" lon="2.2409">
        <ele>254</ele>
        <time>2018-05-31T16:50:23Z</time>
      </trkpt>
      <trkpt lat="44.5492" lon="2.24095">
        <ele>253.9</ele>
        <time>2018-05-31T16:50:24Z</time>
      </trkpt>
      <trkpt lat="44.54915" lon="2.24096">
        <ele>253.7</ele>
        <time>2018-05-31T16:50:26Z</time>
      </trkpt>
      <trkpt lat="44.54912" lon="2.24098">
        <ele>253.6</ele>
        <time>2018-05-31T16:50:27Z</time>
      </trkpt>
      <trkpt lat="44.54909" lon="2.24104">
        <ele>253.4</ele>
        <time>2018-05-31T16:50:29Z</time>
      </trkpt>
      <trkpt lat="44.54895" lon="2.24122">
        <ele>257.8</ele>
        <time>2018-05-31T16:50:33Z</time>
      </trkpt>
      <trkpt lat="44.54888" lon="2.24124">
        <ele>257.9</ele>
        <time>2018-05-31T16:50:34Z</time>
      </trkpt>
      <trkpt lat="44.54887" lon="2.24114">
        <ele>258</ele>
        <time>2018-05-31T16:50:35Z</time>
      </trkpt>
      <trkpt lat="44.54896" lon="2.24124">
        <ele>258.1</ele>
        <time>2018-05-31T16:50:36Z</time>
      </trkpt>
      <trkpt lat="44.54886" lon="2.24121">
        <ele>258.3</ele>
        <time>2018-05-31T16:50:37Z</time>
      </trkpt>
      <trkpt lat="44.54889" lon="2.24121">
        <ele>258.3</ele>
        <time>2018-05-31T16:50:38Z</time>
      </trkpt>
      <trkpt lat="44.54883" lon="2.24116">
        <ele>258.4</ele>
        <time>2018-05-31T16:50:39Z</time>
      </trkpt>
      <trkpt lat="44.5488" lon="2.24117">
        <ele>258.5</ele>
        <time>2018-05-31T16:50:40Z</time>
      </trkpt>
      <trkpt lat="44.54872" lon="2.24114">
        <ele>258.6</ele>
        <time>2018-05-31T16:50:42Z</time>
      </trkpt>
      <trkpt lat="44.54866" lon="2.24113">
        <ele>257.5</ele>
        <time>2018-05-31T16:50:43Z</time>
      </trkpt>
      <trkpt lat="44.54864" lon="2.24112">
        <ele>255.8</ele>
        <time>2018-05-31T16:50:44Z</time>
      </trkpt>
      <trkpt lat="44.54861" lon="2.2411">
        <ele>254.9</ele>
        <time>2018-05-31T16:50:45Z</time>
      </trkpt>
      <trkpt lat="44.54858" lon="2.24108">
        <ele>253.2</ele>
        <time>2018-05-31T16:50:47Z</time>
      </trkpt>
      <trkpt lat="44.54856" lon="2.24103">
        <ele>251.7</ele>
        <time>2018-05-31T16:50:48Z</time>
      </trkpt>
      <trkpt lat="44.54854" lon="2.24106">
        <ele>251.6</ele>
        <time>2018-05-31T16:50:49Z</time>
      </trkpt>
      <trkpt lat="44.54845" lon="2.24105">
        <ele>251.4</ele>
        <time>2018-05-31T16:50:50Z</time>
      </trkpt>
      <trkpt lat="44.54844" lon="2.24101">
        <ele>251.3</ele>
        <time>2018-05-31T16:50:51Z</time>
      </trkpt>
      <trkpt lat="44.54839" lon="2.24103">
        <ele>251.1</ele>
        <time>2018-05-31T16:50:52Z</time>
      </trkpt>
      <trkpt lat="44.54833" lon="2.24109">
        <ele>250.9</ele>
        <time>2018-05-31T16:50:54Z</time>
      </trkpt>
      <trkpt lat="44.54822" lon="2.24108">
        <ele>250.5</ele>
        <time>2018-05-31T16:50:55Z</time>
      </trkpt>
      <trkpt lat="44.54823" lon="2.24114">
        <ele>250.3</ele>
        <time>2018-05-31T16:50:57Z</time>
      </trkpt>
      <trkpt lat="44.54826" lon="2.24121">
        <ele>250.8</ele>
        <time>2018-05-31T16:50:58Z</time>
      </trkpt>
      <trkpt lat="44.54823" lon="2.24122">
        <ele>251.4</ele>
        <time>2018-05-31T16:50:59Z</time>
      </trkpt>
      <trkpt lat="44.54562" lon="2.24226">
        <ele>240.6</ele>
        <time>2018-05-31T16:52:55Z</time>
      </trkpt>
      <trkpt lat="44.54563" lon="2.24233">
        <ele>240.6</ele>
        <time>2018-05-31T16:52:56Z</time>
      </trkpt>
      <trkpt lat="44.5457" lon="2.24239">
        <ele>240.5</ele>
        <time>2018-05-31T16:52:57Z</time>
      </trkpt>
      <trkpt lat="44.54563" lon="2.24235">
        <ele>240.3</ele>
        <time>2018-05-31T16:52:58Z</time>
      </trkpt>
      <trkpt lat="44.5456" lon="2.24229">
        <ele>240.3</ele>
        <time>2018-05-31T16:52:59Z</time>
      </trkpt>
      <trkpt lat="44.5456" lon="2.24234">
        <ele>240.2</ele>
        <time>2018-05-31T16:53:00Z</time>
      </trkpt>
      <trkpt lat="44.54562" lon="2.24241">
        <ele>240.2</ele>
        <time>2018-05-31T16:53:01Z</time>
      </trkpt>
      <trkpt lat="44.54565" lon="2.24244">
        <ele>240.1</ele>
        <time>2018-05-31T16:53:02Z</time>
      </trkpt>
      <trkpt lat="44.54561" lon="2.24242">
        <ele>240.1</ele>
        <time>2018-05-31T16:53:04Z</time>
      </trkpt>
      <trkpt lat="44.54564" lon="2.24249">
        <ele>240</ele>
        <time>2018-05-31T16:53:05Z</time>
      </trkpt>
      <trkpt lat="44.54559" lon="2.24248">
        <ele>239.9</ele>
        <time>2018-05-31T16:53:07Z</time>
      </trkpt>
      <trkpt lat="44.54556" lon="2.24253">
        <ele>239.9</ele>
        <time>2018-05-31T16:53:08Z</time>
      </trkpt>
      <trkpt lat="44.54553" lon="2.24257">
        <ele>239.8</ele>
        <time>2018-05-31T16:53:09Z</time>
      </trkpt>
      <trkpt lat="44.54554" lon="2.24264">
        <ele>239.8</ele>
        <time>2018-05-31T16:53:11Z</time>
      </trkpt>
      <trkpt lat="44.54553" lon="2.24268">
        <ele>239.7</ele>
        <time>2018-05-31T16:53:13Z</time>
      </trkpt>
      <trkpt lat="44.54549" lon="2.2427">
        <ele>239.7</ele>
        <time>2018-05-31T16:53:14Z</time>
      </trkpt>
      <trkpt lat="44.54537" lon="2.24268">
        <ele>239.5</ele>
        <time>2018-05-31T16:53:27Z</time>
      </trkpt>
      <trkpt lat="44.54536" lon="2.24263">
        <ele>239.5</ele>
        <time>2018-05-31T16:53:33Z</time>
      </trkpt>
      <trkpt lat="44.54533" lon="2.24261">
        <ele>239.4</ele>
        <time>2018-05-31T16:53:36Z</time>
      </trkpt>
      <trkpt lat="44.54531" lon="2.24258">
        <ele>239.4</ele>
        <time>2018-05-31T16:53:42Z</time>
      </trkpt>
      <trkpt lat="44.54529" lon="2.24255">
        <ele>239.3</ele>
        <time>2018-05-31T16:53:44Z</time>
      </trkpt>
      <trkpt lat="44.54526" lon="2.24251">
        <ele>239.3</ele>
        <time>2018-05-31T16:53:45Z</time>
      </trkpt>
      <trkpt lat="44.54529" lon="2.24254">
        <ele>239.7</ele>
        <time>2018-05-31T16:53:46Z</time>
      </trkpt>
      <trkpt lat="44.54532" lon="2.2426">
        <ele>241.6</ele>
        <time>2018-05-31T16:53:50Z</time>
      </trkpt>
      <trkpt lat="44.54533" lon="2.24263">
        <ele>242.3</ele>
        <time>2018-05-31T16:53:51Z</time>
      </trkpt>
      <trkpt lat="44.54531" lon="2.24259">
        <ele>241.4</ele>
        <time>2018-05-31T16:53:52Z</time>
      </trkpt>
      <trkpt lat="44.54529" lon="2.24254">
        <ele>239.3</ele>
        <time>2018-05-31T16:53:53Z</time>
      </trkpt>
      <trkpt lat="44.54525" lon="2.24254">
        <ele>239.3</ele>
        <time>2018-05-31T16:53:56Z</time>
      </trkpt>
      <trkpt lat="44.5452" lon="2.24255">
        <ele>238.2</ele>
        <time>2018-05-31T16:53:58Z</time>
      </trkpt>
      <trkpt lat="44.54517" lon="2.24258">
        <ele>237.7</ele>
        <time>2018-05-31T16:54:02Z</time>
      </trkpt>
      <trkpt lat="44.54519" lon="2.24262">
        <ele>238.6</ele>
        <time>2018-05-31T16:54:05Z</time>
      </trkpt>
      <trkpt lat="44.54509" lon="2.24257">
        <ele>236.3</ele>
        <time>2018-05-31T16:54:07Z</time>
      </trkpt>
      <trkpt lat="44.54503" lon="2.2426">
        <ele>236.1</ele>
        <time>2018-05-31T16:54:08Z</time>
      </trkpt>
      <trkpt lat="44.54499" lon="2.24262">
        <ele>235.6</ele>
        <time>2018-05-31T16:54:09Z</time>
      </trkpt>
      <trkpt lat="44.54502" lon="2.24263">
        <ele>236.5</ele>
        <time>2018-05-31T16:54:10Z</time>
      </trkpt>
      <trkpt lat="44.54497" lon="2.24268">
        <ele>236.7</ele>
        <time>2018-05-31T16:54:12Z</time>
      </trkpt>
      <trkpt lat="44.545" lon="2.24272">
        <ele>237.3</ele>
        <time>2018-05-31T16:54:13Z</time>
      </trkpt>
      <trkpt lat="44.54498" lon="2.24276">
        <ele>237.2</ele>
        <time>2018-05-31T16:54:14Z</time>
      </trkpt>
      <trkpt lat="44.54496" lon="2.24277">
        <ele>237</ele>
        <time>2018-05-31T16:54:15Z</time>
      </trkpt>
      <trkpt lat="44.54493" lon="2.24277">
        <ele>236.9</ele>
        <time>2018-05-31T16:54:16Z</time>
      </trkpt>
      <trkpt lat="44.54494" lon="2.24288">
        <ele>236.5</ele>
        <time>2018-05-31T16:54:17Z</time>
      </trkpt>
      <trkpt lat="44.54491" lon="2.24291">
        <ele>236.4</ele>
        <time>2018-05-31T16:54:18Z</time>
      </trkpt>
      <trkpt lat="44.54488" lon="2.24294">
        <ele>236.2</ele>
        <time>2018-05-31T16:54:19Z</time>
      </trkpt>
      <trkpt lat="44.54479" lon="2.24294">
        <ele>235.8</ele>
        <time>2018-05-31T16:54:21Z</time>
      </trkpt>
      <trkpt lat="44.54483" lon="2.24296">
        <ele>235.6</ele>
        <time>2018-05-31T16:54:22Z</time>
      </trkpt>
      <trkpt lat="44.54472" lon="2.243">
        <ele>235.1</ele>
        <time>2018-05-31T16:54:26Z</time>
      </trkpt>
      <trkpt lat="44.54468" lon="2.24305">
        <ele>234.9</ele>
        <time>2018-05-31T16:54:29Z</time>
      </trkpt>
      <trkpt lat="44.54466" lon="2.24308">
        <ele>234.8</ele>
        <time>2018-05-31T16:54:30Z</time>
      </trkpt>
      <trkpt lat="44.54468" lon="2.24309">
        <ele>234.6</ele>
        <time>2018-05-31T16:54:31Z</time>
      </trkpt>
      <trkpt lat="44.5444" lon="2.24304">
        <ele>232.9</ele>
        <time>2018-05-31T16:54:34Z</time>
      </trkpt>
      <trkpt lat="44.54429" lon="2.24303">
        <ele>232</ele>
        <time>2018-05-31T16:54:35Z</time>
      </trkpt>
      <trkpt lat="44.54427" lon="2.24308">
        <ele>231.7</ele>
        <time>2018-05-31T16:54:36Z</time>
      </trkpt>
      <trkpt lat="44.5443" lon="2.24311">
        <ele>231</ele>
        <time>2018-05-31T16:54:37Z</time>
      </trkpt>
      <trkpt lat="44.54443" lon="2.24314">
        <ele>232.4</ele>
        <time>2018-05-31T16:54:39Z</time>
      </trkpt>
      <trkpt lat="44.54451" lon="2.24318">
        <ele>233.2</ele>
        <time>2018-05-31T16:54:40Z</time>
      </trkpt>
      <trkpt lat="44.54444" lon="2.24321">
        <ele>233.9</ele>
        <time>2018-05-31T16:54:42Z</time>
      </trkpt>
      <trkpt lat="44.54447" lon="2.24322">
        <ele>234.2</ele>
        <time>2018-05-31T16:54:43Z</time>
      </trkpt>
      <trkpt lat="44.5444" lon="2.2432">
        <ele>235</ele>
        <time>2018-05-31T16:54:44Z</time>
      </trkpt>
      <trkpt lat="44.54443" lon="2.24328">
        <ele>235.6</ele>
        <time>2018-05-31T16:54:46Z</time>
      </trkpt>
      <trkpt lat="44.54438" lon="2.24332">
        <ele>236.2</ele>
        <time>2018-05-31T16:54:50Z</time>
      </trkpt>
      <trkpt lat="44.54435" lon="2.24334">
        <ele>236.5</ele>
        <time>2018-05-31T16:54:51Z</time>
      </trkpt>
      <trkpt lat="44.54438" lon="2.2433">
        <ele>236.9</ele>
        <time>2018-05-31T16:54:52Z</time>
      </trkpt>
      <trkpt lat="44.54432" lon="2.24337">
        <ele>237.7</ele>
        <time>2018-05-31T16:54:53Z</time>
      </trkpt>
      <trkpt lat="44.54427" lon="2.24342">
        <ele>238.3</ele>
        <time>2018-05-31T16:54:54Z</time>
      </trkpt>
      <trkpt lat="44.54422" lon="2.24343">
        <ele>238.9</ele>
        <time>2018-05-31T16:54:55Z</time>
      </trkpt>
      <trkpt lat="44.54412" lon="2.2434">
        <ele>240</ele>
        <time>2018-05-31T16:54:56Z</time>
      </trkpt>
      <trkpt lat="44.54409" lon="2.24344">
        <ele>240.4</ele>
        <time>2018-05-31T16:54:57Z</time>
      </trkpt>
      <trkpt lat="44.54402" lon="2.24345">
        <ele>241.1</ele>
        <time>2018-05-31T16:54:58Z</time>
      </trkpt>
      <trkpt lat="44.54394" lon="2.24346">
        <ele>242</ele>
        <time>2018-05-31T16:54:59Z</time>
      </trkpt>
      <trkpt lat="44.54388" lon="2.24343">
        <ele>242</ele>
        <time>2018-05-31T16:55:00Z</time>
      </trkpt>
      <trkpt lat="44.54395" lon="2.24345">
        <ele>242</ele>
        <time>2018-05-31T16:55:01Z</time>
      </trkpt>
      <trkpt lat="44.54392" lon="2.24342">
        <ele>242</ele>
        <time>2018-05-31T16:55:02Z</time>
      </trkpt>
      <trkpt lat="44.54388" lon="2.24345">
        <ele>242</ele>
        <time>2018-05-31T16:55:03Z</time>
      </trkpt>
      <trkpt lat="44.54381" lon="2.24346">
        <ele>242</ele>
        <time>2018-05-31T16:55:04Z</time>
      </trkpt>
      <trkpt lat="44.54377" lon="2.24348">
        <ele>242</ele>
        <time>2018-05-31T16:55:05Z</time>
      </trkpt>
      <trkpt lat="44.54372" lon="2.24352">
        <ele>242</ele>
        <time>2018-05-31T16:55:06Z</time>
      </trkpt>
      <trkpt lat="44.54366" lon="2.24352">
        <ele>242</ele>
        <time>2018-05-31T16:55:07Z</time>
      </trkpt>
      <trkpt lat="44.54385" lon="2.24364">
        <ele>242</ele>
        <time>2018-05-31T16:55:10Z</time>
      </trkpt>
      <trkpt lat="44.54378" lon="2.24367">
        <ele>242</ele>
        <time>2018-05-31T16:55:12Z</time>
      </trkpt>
      <trkpt lat="44.54377" lon="2.24371">
        <ele>241.9</ele>
        <time>2018-05-31T16:55:14Z</time>
      </trkpt>
      <trkpt lat="44.54374" lon="2.2437">
        <ele>241.9</ele>
        <time>2018-05-31T16:55:16Z</time>
      </trkpt>
      <trkpt lat="44.54382" lon="2.24375">
        <ele>242.5</ele>
        <time>2018-05-31T16:55:18Z</time>
      </trkpt>
      <trkpt lat="44.54377" lon="2.24377">
        <ele>242.3</ele>
        <time>2018-05-31T16:55:19Z</time>
      </trkpt>
      <trkpt lat="44.54375" lon="2.24382">
        <ele>242.4</ele>
        <time>2018-05-31T16:55:21Z</time>
      </trkpt>
      <trkpt lat="44.54378" lon="2.24384">
        <ele>242.5</ele>
        <time>2018-05-31T16:55:22Z</time>
      </trkpt>
      <trkpt lat="44.54375" lon="2.24388">
        <ele>242.6</ele>
        <time>2018-05-31T16:55:24Z</time>
      </trkpt>
      <trkpt lat="44.54372" lon="2.24389">
        <ele>242.5</ele>
        <time>2018-05-31T16:55:25Z</time>
      </trkpt>
      <trkpt lat="44.54366" lon="2.2439">
        <ele>242.4</ele>
        <time>2018-05-31T16:55:26Z</time>
      </trkpt>
      <trkpt lat="44.54354" lon="2.24387">
        <ele>242.3</ele>
        <time>2018-05-31T16:55:27Z</time>
      </trkpt>
      <trkpt lat="44.54363" lon="2.24394">
        <ele>242.5</ele>
        <time>2018-05-31T16:55:28Z</time>
      </trkpt>
      <trkpt lat="44.54355" lon="2.24393">
        <ele>242.5</ele>
        <time>2018-05-31T16:55:29Z</time>
      </trkpt>
      <trkpt lat="44.54354" lon="2.24397">
        <ele>242.5</ele>
        <time>2018-05-31T16:55:30Z</time>
      </trkpt>
      <trkpt lat="44.54353" lon="2.24404">
        <ele>242.6</ele>
        <time>2018-05-31T16:55:32Z</time>
      </trkpt>
      <trkpt lat="44.5435" lon="2.24406">
        <ele>242.7</ele>
        <time>2018-05-31T16:55:33Z</time>
      </trkpt>
      <trkpt lat="44.54359" lon="2.24411">
        <ele>242.7</ele>
        <time>2018-05-31T16:55:34Z</time>
      </trkpt>
      <trkpt lat="44.54353" lon="2.2441">
        <ele>242.7</ele>
        <time>2018-05-31T16:55:35Z</time>
      </trkpt>
      <trkpt lat="44.54343" lon="2.24413">
        <ele>242.7</ele>
        <time>2018-05-31T16:55:37Z</time>
      </trkpt>
      <trkpt lat="44.54333" lon="2.24412">
        <ele>242.5</ele>
        <time>2018-05-31T16:55:38Z</time>
      </trkpt>
      <trkpt lat="44.54347" lon="2.24416">
        <ele>242.8</ele>
        <time>2018-05-31T16:55:39Z</time>
      </trkpt>
      <trkpt lat="44.54348" lon="2.24421">
        <ele>242.8</ele>
        <time>2018-05-31T16:55:40Z</time>
      </trkpt>
      <trkpt lat="44.54353" lon="2.24422">
        <ele>242.9</ele>
        <time>2018-05-31T16:55:41Z</time>
      </trkpt>
      <trkpt lat="44.54315" lon="2.24423">
        <ele>242.4</ele>
        <time>2018-05-31T16:55:44Z</time>
      </trkpt>
      <trkpt lat="44.54313" lon="2.24426">
        <ele>242.5</ele>
        <time>2018-05-31T16:55:46Z</time>
      </trkpt>
      <trkpt lat="44.5431" lon="2.24428">
        <ele>242.5</ele>
        <time>2018-05-31T16:55:47Z</time>
      </trkpt>
      <trkpt lat="44.54298" lon="2.24426">
        <ele>242.6</ele>
        <time>2018-05-31T16:55:50Z</time>
      </trkpt>
      <trkpt lat="44.54301" lon="2.24427">
        <ele>242.7</ele>
        <time>2018-05-31T16:55:51Z</time>
      </trkpt>
      <trkpt lat="44.54307" lon="2.24431">
        <ele>242.7</ele>
        <time>2018-05-31T16:55:52Z</time>
      </trkpt>
      <trkpt lat="44.54313" lon="2.24442">
        <ele>242.8</ele>
        <time>2018-05-31T16:55:53Z</time>
      </trkpt>
      <trkpt lat="44.54299" lon="2.24438">
        <ele>242.9</ele>
        <time>2018-05-31T16:55:54Z</time>
      </trkpt>
      <trkpt lat="44.54294" lon="2.24449">
        <ele>242.9</ele>
        <time>2018-05-31T16:55:55Z</time>
      </trkpt>
      <trkpt lat="44.54298" lon="2.24452">
        <ele>242.9</ele>
        <time>2018-05-31T16:55:56Z</time>
      </trkpt>
      <trkpt lat="44.54303" lon="2.24452">
        <ele>243</ele>
        <time>2018-05-31T16:55:57Z</time>
      </trkpt>
      <trkpt lat="44.5429" lon="2.24454">
        <ele>243</ele>
        <time>2018-05-31T16:56:00Z</time>
      </trkpt>
      <trkpt lat="44.54138" lon="2.24302">
        <ele>262.1</ele>
        <time>2018-05-31T16:59:19Z</time>
      </trkpt>
      <trkpt lat="44.54149" lon="2.24293">
        <ele>261.9</ele>
        <time>2018-05-31T16:59:21Z</time>
      </trkpt>
      <trkpt lat="44.54153" lon="2.24286">
        <ele>261.8</ele>
        <time>2018-05-31T16:59:22Z</time>
      </trkpt>
      <trkpt lat="44.54157" lon="2.2428">
        <ele>261.9</ele>
        <time>2018-05-31T16:59:23Z</time>
      </trkpt>
      <trkpt lat="44.54165" lon="2.2427">
        <ele>262.4</ele>
        <time>2018-05-31T16:59:25Z</time>
      </trkpt>
      <trkpt lat="44.54163" lon="2.24262">
        <ele>263.1</ele>
        <time>2018-05-31T16:59:27Z</time>
      </trkpt>
      <trkpt lat="44.54165" lon="2.24254">
        <ele>263.9</ele>
        <time>2018-05-31T16:59:28Z</time>
      </trkpt>
      <trkpt lat="44.54165" lon="2.24248">
        <ele>264.2</ele>
        <time>2018-05-31T16:59:31Z</time>
      </trkpt>
      <trkpt lat="44.54165" lon="2.24241">
        <ele>264.8</ele>
        <time>2018-05-31T16:59:33Z</time>
      </trkpt>
      <trkpt lat="44.54165" lon="2.24236">
        <ele>265.1</ele>
        <time>2018-05-31T16:59:34Z</time>
      </trkpt>
      <trkpt lat="44.54162" lon="2.24235">
        <ele>265.2</ele>
        <time>2018-05-31T16:59:35Z</time>
      </trkpt>
      <trkpt lat="44.5416" lon="2.24232">
        <ele>265.5</ele>
        <time>2018-05-31T16:59:37Z</time>
      </trkpt>
      <trkpt lat="44.54158" lon="2.2423">
        <ele>265.7</ele>
        <time>2018-05-31T16:59:39Z</time>
      </trkpt>
      <trkpt lat="44.54151" lon="2.24229">
        <ele>266.2</ele>
        <time>2018-05-31T16:59:42Z</time>
      </trkpt>
      <trkpt lat="44.54151" lon="2.24226">
        <ele>266.4</ele>
        <time>2018-05-31T16:59:43Z</time>
      </trkpt>
      <trkpt lat="44.54147" lon="2.24226">
        <ele>266.9</ele>
        <time>2018-05-31T16:59:44Z</time>
      </trkpt>
      <trkpt lat="44.54149" lon="2.2422">
        <ele>267.3</ele>
        <time>2018-05-31T16:59:45Z</time>
      </trkpt>
      <trkpt lat="44.54146" lon="2.24217">
        <ele>267.5</ele>
        <time>2018-05-31T16:59:47Z</time>
      </trkpt>
      <trkpt lat="44.54144" lon="2.24215">
        <ele>267.7</ele>
        <time>2018-05-31T16:59:49Z</time>
      </trkpt>
      <trkpt lat="44.54145" lon="2.24211">
        <ele>268</ele>
        <time>2018-05-31T16:59:50Z</time>
      </trkpt>
      <trkpt lat="44.54142" lon="2.24209">
        <ele>268.2</ele>
        <time>2018-05-31T16:59:52Z</time>
      </trkpt>
      <trkpt lat="44.54139" lon="2.24207">
        <ele>268.7</ele>
        <time>2018-05-31T16:59:53Z</time>
      </trkpt>
      <trkpt lat="44.54135" lon="2.24207">
        <ele>269</ele>
        <time>2018-05-31T16:59:54Z</time>
      </trkpt>
      <trkpt lat="44.54129" lon="2.24206">
        <ele>269.3</ele>
        <time>2018-05-31T16:59:56Z</time>
      </trkpt>
      <trkpt lat="44.5413" lon="2.24199">
        <ele>269.6</ele>
        <time>2018-05-31T16:59:58Z</time>
      </trkpt>
      <trkpt lat="44.54132" lon="2.24187">
        <ele>270.1</ele>
        <time>2018-05-31T16:59:59Z</time>
      </trkpt>
      <trkpt lat="44.54128" lon="2.24187">
        <ele>270.2</ele>
        <time>2018-05-31T17:00:00Z</time>
      </trkpt>
      <trkpt lat="44.54126" lon="2.24184">
        <ele>270.5</ele>
        <time>2018-05-31T17:00:01Z</time>
      </trkpt>
      <trkpt lat="44.54123" lon="2.24183">
        <ele>270.9</ele>
        <time>2018-05-31T17:00:03Z</time>
      </trkpt>
      <trkpt lat="44.54121" lon="2.24179">
        <ele>271.3</ele>
        <time>2018-05-31T17:00:05Z</time>
      </trkpt>
      <trkpt lat="44.54117" lon="2.24175">
        <ele>271.7</ele>
        <time>2018-05-31T17:00:07Z</time>
      </trkpt>
      <trkpt lat="44.54113" lon="2.24179">
        <ele>272.1</ele>
        <time>2018-05-31T17:00:08Z</time>
      </trkpt>
      <trkpt lat="44.54117" lon="2.2418">
        <ele>272.5</ele>
        <time>2018-05-31T17:00:09Z</time>
      </trkpt>
      <trkpt lat="44.5411" lon="2.24181">
        <ele>273.5</ele>
        <time>2018-05-31T17:00:11Z</time>
      </trkpt>
      <trkpt lat="44.54112" lon="2.24175">
        <ele>274.4</ele>
        <time>2018-05-31T17:00:12Z</time>
      </trkpt>
      <trkpt lat="44.54107" lon="2.24175">
        <ele>275</ele>
        <time>2018-05-31T17:00:15Z</time>
      </trkpt>
      <trkpt lat="44.54103" lon="2.24168">
        <ele>276</ele>
        <time>2018-05-31T17:00:17Z</time>
      </trkpt>
      <trkpt lat="44.54103" lon="2.24161">
        <ele>277</ele>
        <time>2018-05-31T17:00:18Z</time>
      </trkpt>
      <trkpt lat="44.54101" lon="2.24157">
        <ele>277.6</ele>
        <time>2018-05-31T17:00:19Z</time>
      </trkpt>
      <trkpt lat="44.54097" lon="2.24156">
        <ele>278.2</ele>
        <time>2018-05-31T17:00:20Z</time>
      </trkpt>
      <trkpt lat="44.54092" lon="2.24155">
        <ele>279.1</ele>
        <time>2018-05-31T17:00:21Z</time>
      </trkpt>
      <trkpt lat="44.54092" lon="2.24151">
        <ele>279.8</ele>
        <time>2018-05-31T17:00:22Z</time>
      </trkpt>
      <trkpt lat="44.5409" lon="2.24152">
        <ele>280.4</ele>
        <time>2018-05-31T17:00:23Z</time>
      </trkpt>
      <trkpt lat="44.54087" lon="2.24146">
        <ele>281</ele>
        <time>2018-05-31T17:00:25Z</time>
      </trkpt>
      <trkpt lat="44.54086" lon="2.24142">
        <ele>281.4</ele>
        <time>2018-05-31T17:00:27Z</time>
      </trkpt>
      <trkpt lat="44.54081" lon="2.2414">
        <ele>282.1</ele>
        <time>2018-05-31T17:00:29Z</time>
      </trkpt>
      <trkpt lat="44.54082" lon="2.24136">
        <ele>282.5</ele>
        <time>2018-05-31T17:00:30Z</time>
      </trkpt>
      <trkpt lat="44.54077" lon="2.24129">
        <ele>283.1</ele>
        <time>2018-05-31T17:00:33Z</time>
      </trkpt>
      <trkpt lat="44.54081" lon="2.24123">
        <ele>283.6</ele>
        <time>2018-05-31T17:00:36Z</time>
      </trkpt>
      <trkpt lat="44.54076" lon="2.24123">
        <ele>284</ele>
        <time>2018-05-31T17:00:37Z</time>
      </trkpt>
      <trkpt lat="44.54073" lon="2.24119">
        <ele>284.4</ele>
        <time>2018-05-31T17:00:38Z</time>
      </trkpt>
      <trkpt lat="44.5407" lon="2.24118">
        <ele>284.6</ele>
        <time>2018-05-31T17:00:39Z</time>
      </trkpt>
      <trkpt lat="44.54068" lon="2.24117">
        <ele>285.2</ele>
        <time>2018-05-31T17:00:40Z</time>
      </trkpt>
      <trkpt lat="44.54071" lon="2.24116">
        <ele>285.7</ele>
        <time>2018-05-31T17:00:41Z</time>
      </trkpt>
      <trkpt lat="44.54065" lon="2.24115">
        <ele>286.4</ele>
        <time>2018-05-31T17:00:43Z</time>
      </trkpt>
      <trkpt lat="44.54061" lon="2.24113">
        <ele>287</ele>
        <time>2018-05-31T17:00:44Z</time>
      </trkpt>
      <trkpt lat="44.54038" lon="2.24109">
        <ele>290.8</ele>
        <time>2018-05-31T17:01:00Z</time>
      </trkpt>
      <trkpt lat="44.53791" lon="2.23969">
        <ele>325.7</ele>
        <time>2018-05-31T17:03:33Z</time>
      </trkpt>
      <trkpt lat="44.53787" lon="2.23966">
        <ele>326.2</ele>
        <time>2018-05-31T17:03:34Z</time>
      </trkpt>
      <trkpt lat="44.53793" lon="2.23962">
        <ele>325.5</ele>
        <time>2018-05-31T17:03:36Z</time>
      </trkpt>
      <trkpt lat="44.53789" lon="2.23963">
        <ele>324.9</ele>
        <time>2018-05-31T17:03:38Z</time>
      </trkpt>
      <trkpt lat="44.53782" lon="2.23963">
        <ele>325.5</ele>
        <time>2018-05-31T17:03:40Z</time>
      </trkpt>
      <trkpt lat="44.53788" lon="2.23965">
        <ele>324.3</ele>
        <time>2018-05-31T17:03:41Z</time>
      </trkpt>
      <trkpt lat="44.53783" lon="2.23963">
        <ele>324.2</ele>
        <time>2018-05-31T17:03:42Z</time>
      </trkpt>
      <trkpt lat="44.53778" lon="2.23961">
        <ele>325.1</ele>
        <time>2018-05-31T17:03:44Z</time>
      </trkpt>
      <trkpt lat="44.53774" lon="2.2396">
        <ele>325</ele>
        <time>2018-05-31T17:03:45Z</time>
      </trkpt>
      <trkpt lat="44.5377" lon="2.23957">
        <ele>325.4</ele>
        <time>2018-05-31T17:03:47Z</time>
      </trkpt>
      <trkpt lat="44.53777" lon="2.23955">
        <ele>324.2</ele>
        <time>2018-05-31T17:03:49Z</time>
      </trkpt>
      <trkpt lat="44.53773" lon="2.23955">
        <ele>324.1</ele>
        <time>2018-05-31T17:03:50Z</time>
      </trkpt>
      <trkpt lat="44.53773" lon="2.23951">
        <ele>324.1</ele>
        <time>2018-05-31T17:03:52Z</time>
      </trkpt>
      <trkpt lat="44.53772" lon="2.23947">
        <ele>324.4</ele>
        <time>2018-05-31T17:03:55Z</time>
      </trkpt>
      <trkpt lat="44.53768" lon="2.23946">
        <ele>324.2</ele>
        <time>2018-05-31T17:03:56Z</time>
      </trkpt>
      <trkpt lat="44.5377" lon="2.23944">
        <ele>323.8</ele>
        <time>2018-05-31T17:03:57Z</time>
      </trkpt>
      <trkpt lat="44.53767" lon="2.2394">
        <ele>324</ele>
        <time>2018-05-31T17:03:59Z</time>
      </trkpt>
      <trkpt lat="44.53766" lon="2.23935">
        <ele>324.2</ele>
        <time>2018-05-31T17:04:01Z</time>
      </trkpt>
      <trkpt lat="44.53769" lon="2.2393">
        <ele>323.6</ele>
        <time>2018-05-31T17:04:03Z</time>
      </trkpt>
      <trkpt lat="44.53773" lon="2.2393">
        <ele>322.4</ele>
        <time>2018-05-31T17:04:04Z</time>
      </trkpt>
      <trkpt lat="44.53768" lon="2.23927">
        <ele>322.8</ele>
        <time>2018-05-31T17:04:06Z</time>
      </trkpt>
      <trkpt lat="44.53766" lon="2.23923">
        <ele>323.1</ele>
        <time>2018-05-31T17:04:08Z</time>
      </trkpt>
      <trkpt lat="44.53767" lon="2.23919">
        <ele>323.3</ele>
        <time>2018-05-31T17:04:11Z</time>
      </trkpt>
      <trkpt lat="44.5377" lon="2.23914">
        <ele>323.5</ele>
        <time>2018-05-31T17:04:13Z</time>
      </trkpt>
      <trkpt lat="44.53771" lon="2.23909">
        <ele>323.8</ele>
        <time>2018-05-31T17:04:15Z</time>
      </trkpt>
      <trkpt lat="44.53774" lon="2.23905">
        <ele>324.1</ele>
        <time>2018-05-31T17:04:18Z</time>
      </trkpt>
      <trkpt lat="44.53776" lon="2.23902">
        <ele>324.3</ele>
        <time>2018-05-31T17:04:22Z</time>
      </trkpt>
      <trkpt lat="44.53775" lon="2.23897">
        <ele>324.6</ele>
        <time>2018-05-31T17:04:24Z</time>
      </trkpt>
      <trkpt lat="44.53775" lon="2.23893">
        <ele>324.9</ele>
        <time>2018-05-31T17:04:26Z</time>
      </trkpt>
      <trkpt lat="44.53777" lon="2.23889">
        <ele>325.1</ele>
        <time>2018-05-31T17:04:29Z</time>
      </trkpt>
      <trkpt lat="44.53779" lon="2.23887">
        <ele>325.2</ele>
        <time>2018-05-31T17:04:31Z</time>
      </trkpt>
      <trkpt lat="44.53779" lon="2.23882">
        <ele>325.3</ele>
        <time>2018-05-31T17:04:33Z</time>
      </trkpt>
      <trkpt lat="44.53777" lon="2.23885">
        <ele>325.5</ele>
        <time>2018-05-31T17:04:34Z</time>
      </trkpt>
      <trkpt lat="44.53779" lon="2.23877">
        <ele>325.9</ele>
        <time>2018-05-31T17:04:35Z</time>
      </trkpt>
      <trkpt lat="44.5378" lon="2.23873">
        <ele>326</ele>
        <time>2018-05-31T17:04:36Z</time>
      </trkpt>
      <trkpt lat="44.53778" lon="2.23866">
        <ele>327.2</ele>
        <time>2018-05-31T17:04:41Z</time>
      </trkpt>
      <trkpt lat="44.53779" lon="2.2387">
        <ele>327.2</ele>
        <time>2018-05-31T17:04:44Z</time>
      </trkpt>
      <trkpt lat="44.53775" lon="2.23866">
        <ele>327.3</ele>
        <time>2018-05-31T17:04:49Z</time>
      </trkpt>
      <trkpt lat="44.53778" lon="2.2387">
        <ele>327.4</ele>
        <time>2018-05-31T17:04:50Z</time>
      </trkpt>
      <trkpt lat="44.53781" lon="2.23867">
        <ele>327.4</ele>
        <time>2018-05-31T17:04:52Z</time>
      </trkpt>
      <trkpt lat="44.53777" lon="2.23872">
        <ele>327.4</ele>
        <time>2018-05-31T17:04:53Z</time>
      </trkpt>
      <trkpt lat="44.53769" lon="2.23872">
        <ele>327.4</ele>
        <time>2018-05-31T17:04:55Z</time>
      </trkpt>
      <trkpt lat="44.53769" lon="2.23877">
        <ele>327.3</ele>
        <time>2018-05-31T17:04:56Z</time>
      </trkpt>
      <trkpt lat="44.53768" lon="2.23881">
        <ele>327.3</ele>
        <time>2018-05-31T17:04:58Z</time>
      </trkpt>
      <trkpt lat="44.53763" lon="2.23888">
        <ele>327.3</ele>
        <time>2018-05-31T17:04:59Z</time>
      </trkpt>
      <trkpt lat="44.5376" lon="2.23889">
        <ele>327.2</ele>
        <time>2018-05-31T17:05:01Z</time>
      </trkpt>
      <trkpt lat="44.5376" lon="2.23893">
        <ele>327.2</ele>
        <time>2018-05-31T17:05:02Z</time>
      </trkpt>
      <trkpt lat="44.53758" lon="2.239">
        <ele>327.1</ele>
        <time>2018-05-31T17:05:04Z</time>
      </trkpt>
      <trkpt lat="44.53753" lon="2.23895">
        <ele>327</ele>
        <time>2018-05-31T17:05:05Z</time>
      </trkpt>
      <trkpt lat="44.53751" lon="2.23898">
        <ele>326.9</ele>
        <time>2018-05-31T17:05:06Z</time>
      </trkpt>
      <trkpt lat="44.53746" lon="2.23896">
        <ele>326.8</ele>
        <time>2018-05-31T17:05:08Z</time>
      </trkpt>
      <trkpt lat="44.53739" lon="2.23896">
        <ele>326.6</ele>
        <time>2018-05-31T17:05:09Z</time>
      </trkpt>
      <trkpt lat="44.53735" lon="2.23896">
        <ele>326.5</ele>
        <time>2018-05-31T17:05:10Z</time>
      </trkpt>
      <trkpt lat="44.53728" lon="2.23899">
        <ele>326.3</ele>
        <time>2018-05-31T17:05:12Z</time>
      </trkpt>
      <trkpt lat="44.53724" lon="2.23899">
        <ele>326.2</ele>
        <time>2018-05-31T17:05:13Z</time>
      </trkpt>
      <trkpt lat="44.53722" lon="2.23897">
        <ele>326.2</ele>
        <time>2018-05-31T17:05:14Z</time>
      </trkpt>
      <trkpt lat="44.53719" lon="2.23895">
        <ele>326.1</ele>
        <time>2018-05-31T17:05:17Z</time>
      </trkpt>
      <trkpt lat="44.53716" lon="2.23891">
        <ele>326.1</ele>
        <time>2018-05-31T17:05:20Z</time>
      </trkpt>
      <trkpt lat="44.53716" lon="2.23887">
        <ele>326</ele>
        <time>2018-05-31T17:05:23Z</time>
      </trkpt>
      <trkpt lat="44.53714" lon="2.23882">
        <ele>326</ele>
        <time>2018-05-31T17:05:25Z</time>
      </trkpt>
      <trkpt lat="44.53718" lon="2.23879">
        <ele>325.9</ele>
        <time>2018-05-31T17:05:27Z</time>
      </trkpt>
      <trkpt lat="44.5372" lon="2.23874">
        <ele>325.9</ele>
        <time>2018-05-31T17:05:29Z</time>
      </trkpt>
      <trkpt lat="44.53715" lon="2.23873">
        <ele>325.9</ele>
        <time>2018-05-31T17:05:31Z</time>
      </trkpt>
      <trkpt lat="44.53711" lon="2.23871">
        <ele>325.9</ele>
        <time>2018-05-31T17:05:32Z</time>
      </trkpt>
      <trkpt lat="44.53707" lon="2.23871">
        <ele>325.9</ele>
        <time>2018-05-31T17:05:33Z</time>
      </trkpt>
      <trkpt lat="44.53699" lon="2.2387">
        <ele>325.9</ele>
        <time>2018-05-31T17:05:34Z</time>
      </trkpt>
      <trkpt lat="44.53685" lon="2.23861">
        <ele>326</ele>
        <time>2018-05-31T17:05:37Z</time>
      </trkpt>
      <trkpt lat="44.53679" lon="2.23861">
        <ele>326.1</ele>
        <time>2018-05-31T17:05:38Z</time>
      </trkpt>
      <trkpt lat="44.53675" lon="2.23858">
        <ele>326.2</ele>
        <time>2018-05-31T17:05:39Z</time>
      </trkpt>
      <trkpt lat="44.53671" lon="2.23857">
        <ele>326.3</ele>
        <time>2018-05-31T17:05:40Z</time>
      </trkpt>
      <trkpt lat="44.53675" lon="2.23858">
        <ele>326.3</ele>
        <time>2018-05-31T17:05:41Z</time>
      </trkpt>
      <trkpt lat="44.53673" lon="2.23855">
        <ele>326.4</ele>
        <time>2018-05-31T17:05:45Z</time>
      </trkpt>
      <trkpt lat="44.53677" lon="2.23857">
        <ele>326.5</ele>
        <time>2018-05-31T17:05:47Z</time>
      </trkpt>
      <trkpt lat="44.53669" lon="2.23854">
        <ele>326.7</ele>
        <time>2018-05-31T17:05:49Z</time>
      </trkpt>
      <trkpt lat="44.53665" lon="2.23855">
        <ele>326.7</ele>
        <time>2018-05-31T17:05:50Z</time>
      </trkpt>
      <trkpt lat="44.53661" lon="2.23853">
        <ele>326.8</ele>
        <time>2018-05-31T17:05:51Z</time>
      </trkpt>
      <trkpt lat="44.53652" lon="2.23846">
        <ele>327</ele>
        <time>2018-05-31T17:05:54Z</time>
      </trkpt>
      <trkpt lat="44.53643" lon="2.23841">
        <ele>327.1</ele>
        <time>2018-05-31T17:05:55Z</time>
      </trkpt>
      <trkpt lat="44.53639" lon="2.23837">
        <ele>327.2</ele>
        <time>2018-05-31T17:05:56Z</time>
      </trkpt>
      <trkpt lat="44.53644" lon="2.23835">
        <ele>327.3</ele>
        <time>2018-05-31T17:05:57Z</time>
      </trkpt>
      <trkpt lat="44.53634" lon="2.23833">
        <ele>327.4</ele>
        <time>2018-05-31T17:05:58Z</time>
      </trkpt>
      <trkpt lat="44.53631" lon="2.23832">
        <ele>327.4</ele>
        <time>2018-05-31T17:06:02Z</time>
      </trkpt>
      <trkpt lat="44.53555" lon="2.24208">
        <ele>299.7</ele>
        <time>2018-05-31T17:08:26Z</time>
      </trkpt>
      <trkpt lat="44.53552" lon="2.24217">
        <ele>305.3</ele>
        <time>2018-05-31T17:08:27Z</time>
      </trkpt>
      <trkpt lat="44.53557" lon="2.24212">
        <ele>305.5</ele>
        <time>2018-05-31T17:08:28Z</time>
      </trkpt>
      <trkpt lat="44.53558" lon="2.24206">
        <ele>305.7</ele>
        <time>2018-05-31T17:08:29Z</time>
      </trkpt>
      <trkpt lat="44.53561" lon="2.24202">
        <ele>305.8</ele>
        <time>2018-05-31T17:08:31Z</time>
      </trkpt>
      <trkpt lat="44.53559" lon="2.24213">
        <ele>305.4</ele>
        <time>2018-05-31T17:08:32Z</time>
      </trkpt>
      <trkpt lat="44.53561" lon="2.24222">
        <ele>305</ele>
        <time>2018-05-31T17:08:34Z</time>
      </trkpt>
      <trkpt lat="44.5356" lon="2.24229">
        <ele>304.7</ele>
        <time>2018-05-31T17:08:35Z</time>
      </trkpt>
      <trkpt lat="44.5356" lon="2.24237">
        <ele>304.4</ele>
        <time>2018-05-31T17:08:36Z</time>
      </trkpt>
      <trkpt lat="44.53558" lon="2.24241">
        <ele>304.2</ele>
        <time>2018-05-31T17:08:39Z</time>
      </trkpt>
      <trkpt lat="44.53555" lon="2.24244">
        <ele>304</ele>
        <time>2018-05-31T17:08:42Z</time>
      </trkpt>
      <trkpt lat="44.53556" lon="2.24249">
        <ele>303.7</ele>
        <time>2018-05-31T17:08:43Z</time>
      </trkpt>
      <trkpt lat="44.53556" lon="2.24257">
        <ele>303.2</ele>
        <time>2018-05-31T17:08:46Z</time>
      </trkpt>
      <trkpt lat="44.53557" lon="2.24262">
        <ele>302.9</ele>
        <time>2018-05-31T17:08:47Z</time>
      </trkpt>
      <trkpt lat="44.53558" lon="2.24266">
        <ele>302.6</ele>
        <time>2018-05-31T17:08:48Z</time>
      </trkpt>
      <trkpt lat="44.53555" lon="2.24269">
        <ele>302.3</ele>
        <time>2018-05-31T17:08:50Z</time>
      </trkpt>
      <trkpt lat="44.53552" lon="2.24272">
        <ele>301.9</ele>
        <time>2018-05-31T17:08:51Z</time>
      </trkpt>
      <trkpt lat="44.53544" lon="2.24278">
        <ele>300.4</ele>
        <time>2018-05-31T17:08:52Z</time>
      </trkpt>
      <trkpt lat="44.53539" lon="2.24272">
        <ele>300.1</ele>
        <time>2018-05-31T17:08:53Z</time>
      </trkpt>
      <trkpt lat="44.53528" lon="2.24269">
        <ele>299.7</ele>
        <time>2018-05-31T17:08:55Z</time>
      </trkpt>
      <trkpt lat="44.53525" lon="2.24268">
        <ele>299.5</ele>
        <time>2018-05-31T17:08:56Z</time>
      </trkpt>
      <trkpt lat="44.53524" lon="2.24273">
        <ele>299.3</ele>
        <time>2018-05-31T17:08:57Z</time>
      </trkpt>
      <trkpt lat="44.53528" lon="2.24275">
        <ele>299.1</ele>
        <time>2018-05-31T17:08:58Z</time>
      </trkpt>
      <trkpt lat="44.53524" lon="2.24279">
        <ele>298.9</ele>
        <time>2018-05-31T17:08:59Z</time>
      </trkpt>
      <trkpt lat="44.5352" lon="2.24281">
        <ele>298.7</ele>
        <time>2018-05-31T17:09:00Z</time>
      </trkpt>
      <trkpt lat="44.53522" lon="2.24287">
        <ele>298.5</ele>
        <time>2018-05-31T17:09:02Z</time>
      </trkpt>
      <trkpt lat="44.53515" lon="2.24287">
        <ele>298</ele>
        <time>2018-05-31T17:09:03Z</time>
      </trkpt>
      <trkpt lat="44.5352" lon="2.24287">
        <ele>297.6</ele>
        <time>2018-05-31T17:09:04Z</time>
      </trkpt>
      <trkpt lat="44.53517" lon="2.24287">
        <ele>297.3</ele>
        <time>2018-05-31T17:09:05Z</time>
      </trkpt>
      <trkpt lat="44.53515" lon="2.24289">
        <ele>297.1</ele>
        <time>2018-05-31T17:09:06Z</time>
      </trkpt>
      <trkpt lat="44.53511" lon="2.24289">
        <ele>296.8</ele>
        <time>2018-05-31T17:09:08Z</time>
      </trkpt>
      <trkpt lat="44.53504" lon="2.24286">
        <ele>296.1</ele>
        <time>2018-05-31T17:09:09Z</time>
      </trkpt>
      <trkpt lat="44.53507" lon="2.24289">
        <ele>295.7</ele>
        <time>2018-05-31T17:09:11Z</time>
      </trkpt>
      <trkpt lat="44.53504" lon="2.24292">
        <ele>295.4</ele>
        <time>2018-05-31T17:09:12Z</time>
      </trkpt>
      <trkpt lat="44.53507" lon="2.24295">
        <ele>295.1</ele>
        <time>2018-05-31T17:09:13Z</time>
      </trkpt>
      <trkpt lat="44.53503" lon="2.24294">
        <ele>294.7</ele>
        <time>2018-05-31T17:09:14Z</time>
      </trkpt>
      <trkpt lat="44.53498" lon="2.24294">
        <ele>294.2</ele>
        <time>2018-05-31T17:09:15Z</time>
      </trkpt>
      <trkpt lat="44.53494" lon="2.24292">
        <ele>293.8</ele>
        <time>2018-05-31T17:09:16Z</time>
      </trkpt>
      <trkpt lat="44.53488" lon="2.24299">
        <ele>293</ele>
        <time>2018-05-31T17:09:21Z</time>
      </trkpt>
      <trkpt lat="44.53486" lon="2.24298">
        <ele>292.7</ele>
        <time>2018-05-31T17:09:22Z</time>
      </trkpt>
      <trkpt lat="44.53488" lon="2.24303">
        <ele>292.3</ele>
        <time>2018-05-31T17:09:23Z</time>
      </trkpt>
      <trkpt lat="44.53484" lon="2.24302">
        <ele>291.9</ele>
        <time>2018-05-31T17:09:24Z</time>
      </trkpt>
      <trkpt lat="44.53479" lon="2.24304">
        <ele>291.4</ele>
        <time>2018-05-31T17:09:26Z</time>
      </trkpt>
      <trkpt lat="44.53477" lon="2.24305">
        <ele>291.1</ele>
        <time>2018-05-31T17:09:27Z</time>
      </trkpt>
      <trkpt lat="44.53472" lon="2.24309">
        <ele>290.5</ele>
        <time>2018-05-31T17:09:28Z</time>
      </trkpt>
      <trkpt lat="44.53466" lon="2.2431">
        <ele>289.8</ele>
        <time>2018-05-31T17:09:31Z</time>
      </trkpt>
      <trkpt lat="44.53461" lon="2.2431">
        <ele>289.3</ele>
        <time>2018-05-31T17:09:32Z</time>
      </trkpt>
      <trkpt lat="44.53457" lon="2.24312">
        <ele>288.8</ele>
        <time>2018-05-31T17:09:33Z</time>
      </trkpt>
      <trkpt lat="44.53451" lon="2.24312">
        <ele>288.1</ele>
        <time>2018-05-31T17:09:35Z</time>
      </trkpt>
      <trkpt lat="44.53447" lon="2.24311">
        <ele>287.5</ele>
        <time>2018-05-31T17:09:36Z</time>
      </trkpt>
      <trkpt lat="44.53446" lon="2.24315">
        <ele>287.2</ele>
        <time>2018-05-31T17:09:37Z</time>
      </trkpt>
      <trkpt lat="44.53441" lon="2.24316">
        <ele>286.5</ele>
        <time>2018-05-31T17:09:38Z</time>
      </trkpt>
      <trkpt lat="44.53444" lon="2.24318">
        <ele>288.3</ele>
        <time>2018-05-31T17:09:40Z</time>
      </trkpt>
      <trkpt lat="44.53449" lon="2.24321">
        <ele>289.1</ele>
        <time>2018-05-31T17:09:42Z</time>
      </trkpt>
      <trkpt lat="44.53452" lon="2.24317">
        <ele>289.8</ele>
        <time>2018-05-31T17:09:43Z</time>
      </trkpt>
      <trkpt lat="44.53456" lon="2.24317">
        <ele>290.3</ele>
        <time>2018-05-31T17:09:44Z</time>
      </trkpt>
      <trkpt lat="44.53459" lon="2.2432">
        <ele>290.9</ele>
        <time>2018-05-31T17:09:48Z</time>
      </trkpt>
      <trkpt lat="44.53463" lon="2.24312">
        <ele>291.8</ele>
        <time>2018-05-31T17:09:50Z</time>
      </trkpt>
      <trkpt lat="44.53469" lon="2.24312">
        <ele>292.6</ele>
        <time>2018-05-31T17:09:52Z</time>
      </trkpt>
      <trkpt lat="44.53471" lon="2.24311">
        <ele>293</ele>
        <time>2018-05-31T17:09:53Z</time>
      </trkpt>
      <trkpt lat="44.53475" lon="2.2431">
        <ele>293.5</ele>
        <time>2018-05-31T17:09:54Z</time>
      </trkpt>
      <trkpt lat="44.53478" lon="2.24312">
        <ele>293.9</ele>
        <time>2018-05-31T17:09:56Z</time>
      </trkpt>
      <trkpt lat="44.53484" lon="2.24314">
        <ele>294.8</ele>
        <time>2018-05-31T17:09:58Z</time>
      </trkpt>
      <trkpt lat="44.5349" lon="2.24306">
        <ele>295.8</ele>
        <time>2018-05-31T17:09:59Z</time>
      </trkpt>
      <trkpt lat="44.53493" lon="2.24306">
        <ele>296.3</ele>
        <time>2018-05-31T17:10:00Z</time>
      </trkpt>
      <trkpt lat="44.53497" lon="2.24304">
        <ele>296.8</ele>
        <time>2018-05-31T17:10:02Z</time>
      </trkpt>
      <trkpt lat="44.535" lon="2.24306">
        <ele>297.3</ele>
        <time>2018-05-31T17:10:03Z</time>
      </trkpt>
      <trkpt lat="44.53505" lon="2.24301">
        <ele>298.1</ele>
        <time>2018-05-31T17:10:04Z</time>
      </trkpt>
      <trkpt lat="44.53508" lon="2.243">
        <ele>298.6</ele>
        <time>2018-05-31T17:10:06Z</time>
      </trkpt>
      <trkpt lat="44.5351" lon="2.24295">
        <ele>299.1</ele>
        <time>2018-05-31T17:10:07Z</time>
      </trkpt>
      <trkpt lat="44.53514" lon="2.24296">
        <ele>299.7</ele>
        <time>2018-05-31T17:10:08Z</time>
      </trkpt>
      <trkpt lat="44.53518" lon="2.24293">
        <ele>300.4</ele>
        <time>2018-05-31T17:10:10Z</time>
      </trkpt>
      <trkpt lat="44.53518" lon="2.24291">
        <ele>301</ele>
        <time>2018-05-31T17:10:12Z</time>
      </trkpt>
      <trkpt lat="44.53521" lon="2.24289">
        <ele>301.2</ele>
        <time>2018-05-31T17:10:13Z</time>
      </trkpt>
      <trkpt lat="44.53526" lon="2.2429">
        <ele>301.6</ele>
        <time>2018-05-31T17:10:15Z</time>
      </trkpt>
      <trkpt lat="44.53529" lon="2.24291">
        <ele>301.8</ele>
        <time>2018-05-31T17:10:16Z</time>
      </trkpt>
      <trkpt lat="44.5353" lon="2.24295">
        <ele>302.1</ele>
        <time>2018-05-31T17:10:17Z</time>
      </trkpt>
      <trkpt lat="44.5353" lon="2.24301">
        <ele>302.2</ele>
        <time>2018-05-31T17:10:18Z</time>
      </trkpt>
      <trkpt lat="44.53527" lon="2.24304">
        <ele>302.2</ele>
        <time>2018-05-31T17:10:19Z</time>
      </trkpt>
      <trkpt lat="44.53524" lon="2.24308">
        <ele>302.2</ele>
        <time>2018-05-31T17:10:21Z</time>
      </trkpt>
      <trkpt lat="44.53522" lon="2.24315">
        <ele>302.2</ele>
        <time>2018-05-31T17:10:23Z</time>
      </trkpt>
      <trkpt lat="44.5352" lon="2.24317">
        <ele>302.2</ele>
        <time>2018-05-31T17:10:25Z</time>
      </trkpt>
      <trkpt lat="44.53519" lon="2.2432">
        <ele>302.3</ele>
        <time>2018-05-31T17:10:26Z</time>
      </trkpt>
      <trkpt lat="44.53508" lon="2.24324">
        <ele>302.8</ele>
        <time>2018-05-31T17:10:28Z</time>
      </trkpt>
      <trkpt lat="44.53505" lon="2.2433">
        <ele>302.8</ele>
        <time>2018-05-31T17:10:30Z</time>
      </trkpt>
      <trkpt lat="44.53502" lon="2.24334">
        <ele>302.7</ele>
        <time>2018-05-31T17:10:32Z</time>
      </trkpt>
      <trkpt lat="44.53499" lon="2.24335">
        <ele>302.7</ele>
        <time>2018-05-31T17:10:34Z</time>
      </trkpt>
      <trkpt lat="44.53507" lon="2.24346">
        <ele>302.7</ele>
        <time>2018-05-31T17:10:36Z</time>
      </trkpt>
      <trkpt lat="44.53502" lon="2.24343">
        <ele>302.8</ele>
        <time>2018-05-31T17:10:37Z</time>
      </trkpt>
      <trkpt lat="44.53503" lon="2.24346">
        <ele>302.9</ele>
        <time>2018-05-31T17:10:41Z</time>
      </trkpt>
      <trkpt lat="44.535" lon="2.24346">
        <ele>303</ele>
        <time>2018-05-31T17:10:42Z</time>
      </trkpt>
      <trkpt lat="44.53496" lon="2.24347">
        <ele>302.9</ele>
        <time>2018-05-31T17:10:43Z</time>
      </trkpt>
      <trkpt lat="44.53501" lon="2.24347">
        <ele>302.8</ele>
        <time>2018-05-31T17:10:44Z</time>
      </trkpt>
      <trkpt lat="44.53503" lon="2.24354">
        <ele>302.7</ele>
        <time>2018-05-31T17:10:45Z</time>
      </trkpt>
      <trkpt lat="44.53503" lon="2.24348">
        <ele>302.6</ele>
        <time>2018-05-31T17:10:46Z</time>
      </trkpt>
      <trkpt lat="44.53496" lon="2.24345">
        <ele>302.8</ele>
        <time>2018-05-31T17:10:48Z</time>
      </trkpt>
      <trkpt lat="44.53492" lon="2.24358">
        <ele>302.9</ele>
        <time>2018-05-31T17:10:49Z</time>
      </trkpt>
      <trkpt lat="44.53486" lon="2.24355">
        <ele>302.5</ele>
        <time>2018-05-31T17:10:50Z</time>
      </trkpt>
      <trkpt lat="44.53482" lon="2.24354">
        <ele>302.3</ele>
        <time>2018-05-31T17:10:51Z</time>
      </trkpt>
      <trkpt lat="44.53479" lon="2.24358">
        <ele>302.2</ele>
        <time>2018-05-31T17:10:52Z</time>
      </trkpt>
      <trkpt lat="44.53478" lon="2.24361">
        <ele>302.1</ele>
        <time>2018-05-31T17:10:53Z</time>
      </trkpt>
      <trkpt lat="44.53469" lon="2.24357">
        <ele>302</ele>
        <time>2018-05-31T17:10:59Z</time>
      </trkpt>
      <trkpt lat="44.53463" lon="2.24355">
        <ele>302.2</ele>
        <time>2018-05-31T17:11:01Z</time>
      </trkpt>
      <trkpt lat="44.53459" lon="2.24356">
        <ele>302.3</ele>
        <time>2018-05-31T17:11:02Z</time>
      </trkpt>
      <trkpt lat="44.53277" lon="2.24537">
        <ele>316.8</ele>
        <time>2018-05-31T17:12:45Z</time>
      </trkpt>
      <trkpt lat="44.53274" lon="2.24557">
        <ele>320.2</ele>
        <time>2018-05-31T17:12:47Z</time>
      </trkpt>
      <trkpt lat="44.53272" lon="2.24554">
        <ele>320.1</ele>
        <time>2018-05-31T17:12:48Z</time>
      </trkpt>
      <trkpt lat="44.53274" lon="2.24543">
        <ele>320</ele>
        <time>2018-05-31T17:12:49Z</time>
      </trkpt>
      <trkpt lat="44.53265" lon="2.24542">
        <ele>318.4</ele>
        <time>2018-05-31T17:12:50Z</time>
      </trkpt>
      <trkpt lat="44.53259" lon="2.24529">
        <ele>315.4</ele>
        <time>2018-05-31T17:12:51Z</time>
      </trkpt>
      <trkpt lat="44.53253" lon="2.24528">
        <ele>313.8</ele>
        <time>2018-05-31T17:12:52Z</time>
      </trkpt>
      <trkpt lat="44.53247" lon="2.24526">
        <ele>313</ele>
        <time>2018-05-31T17:12:53Z</time>
      </trkpt>
      <trkpt lat="44.5325" lon="2.24531">
        <ele>315.1</ele>
        <time>2018-05-31T17:12:54Z</time>
      </trkpt>
      <trkpt lat="44.53255" lon="2.24531">
        <ele>316.3</ele>
        <time>2018-05-31T17:12:55Z</time>
      </trkpt>
      <trkpt lat="44.53254" lon="2.24535">
        <ele>316.6</ele>
        <time>2018-05-31T17:12:57Z</time>
      </trkpt>
      <trkpt lat="44.53253" lon="2.24539">
        <ele>316.8</ele>
        <time>2018-05-31T17:12:59Z</time>
      </trkpt>
      <trkpt lat="44.53253" lon="2.24548">
        <ele>317.3</ele>
        <time>2018-05-31T17:13:01Z</time>
      </trkpt>
      <trkpt lat="44.53254" lon="2.24556">
        <ele>317.8</ele>
        <time>2018-05-31T17:13:03Z</time>
      </trkpt>
      <trkpt lat="44.53251" lon="2.24556">
        <ele>318.1</ele>
        <time>2018-05-31T17:13:04Z</time>
      </trkpt>
      <trkpt lat="44.53248" lon="2.24564">
        <ele>318.8</ele>
        <time>2018-05-31T17:13:06Z</time>
      </trkpt>
      <trkpt lat="44.53253" lon="2.24568">
        <ele>318.8</ele>
        <time>2018-05-31T17:13:07Z</time>
      </trkpt>
      <trkpt lat="44.53255" lon="2.24572">
        <ele>318.8</ele>
        <time>2018-05-31T17:13:09Z</time>
      </trkpt>
      <trkpt lat="44.53254" lon="2.24576">
        <ele>318.8</ele>
        <time>2018-05-31T17:13:15Z</time>
      </trkpt>
      <trkpt lat="44.53256" lon="2.24586">
        <ele>319.6</ele>
        <time>2018-05-31T17:13:17Z</time>
      </trkpt>
      <trkpt lat="44.5324" lon="2.24624">
        <ele>322.2</ele>
        <time>2018-05-31T17:13:34Z</time>
      </trkpt>
      <trkpt lat="44.53237" lon="2.24628">
        <ele>322.4</ele>
        <time>2018-05-31T17:13:38Z</time>
      </trkpt>
      <trkpt lat="44.53238" lon="2.24633">
        <ele>322.5</ele>
        <time>2018-05-31T17:13:40Z</time>
      </trkpt>
      <trkpt lat="44.53239" lon="2.24638">
        <ele>322.7</ele>
        <time>2018-05-31T17:13:41Z</time>
      </trkpt>
      <trkpt lat="44.53232" lon="2.2464">
        <ele>323.4</ele>
        <time>2018-05-31T17:13:44Z</time>
      </trkpt>
      <trkpt lat="44.53216" lon="2.24643">
        <ele>325.2</ele>
        <time>2018-05-31T17:13:46Z</time>
      </trkpt>
      <trkpt lat="44.53218" lon="2.24653">
        <ele>326.1</ele>
        <time>2018-05-31T17:13:48Z</time>
      </trkpt>
      <trkpt lat="44.53218" lon="2.2466">
        <ele>326.4</ele>
        <time>2018-05-31T17:13:49Z</time>
      </trkpt>
      <trkpt lat="44.53222" lon="2.24662">
        <ele>326.5</ele>
        <time>2018-05-31T17:13:50Z</time>
      </trkpt>
      <trkpt lat="44.53215" lon="2.24672">
        <ele>326.9</ele>
        <time>2018-05-31T17:13:51Z</time>
      </trkpt>
      <trkpt lat="44.53213" lon="2.24676">
        <ele>327.3</ele>
        <time>2018-05-31T17:13:52Z</time>
      </trkpt>
      <trkpt lat="44.53213" lon="2.24682">
        <ele>327.6</ele>
        <time>2018-05-31T17:13:53Z</time>
      </trkpt>
      <trkpt lat="44.53211" lon="2.24688">
        <ele>328</ele>
        <time>2018-05-31T17:13:54Z</time>
      </trkpt>
      <trkpt lat="44.53207" lon="2.24688">
        <ele>328.4</ele>
        <time>2018-05-31T17:13:56Z</time>
      </trkpt>
      <trkpt lat="44.532" lon="2.24684">
        <ele>329.3</ele>
        <time>2018-05-31T17:13:57Z</time>
      </trkpt>
      <trkpt lat="44.53195" lon="2.24679">
        <ele>329.8</ele>
        <time>2018-05-31T17:13:58Z</time>
      </trkpt>
      <trkpt lat="44.532" lon="2.24683">
        <ele>330.3</ele>
        <time>2018-05-31T17:13:59Z</time>
      </trkpt>
      <trkpt lat="44.53195" lon="2.24679">
        <ele>330.7</ele>
        <time>2018-05-31T17:14:00Z</time>
      </trkpt>
      <trkpt lat="44.53191" lon="2.2468">
        <ele>331</ele>
        <time>2018-05-31T17:14:02Z</time>
      </trkpt>
      <trkpt lat="44.53187" lon="2.24679">
        <ele>331.4</ele>
        <time>2018-05-31T17:14:03Z</time>
      </trkpt>
      <trkpt lat="44.53193" lon="2.24678">
        <ele>331.8</ele>
        <time>2018-05-31T17:14:04Z</time>
      </trkpt>
      <trkpt lat="44.53188" lon="2.24673">
        <ele>331.8</ele>
        <time>2018-05-31T17:14:06Z</time>
      </trkpt>
      <trkpt lat="44.53184" lon="2.24669">
        <ele>331.8</ele>
        <time>2018-05-31T17:14:08Z</time>
      </trkpt>
      <trkpt lat="44.5318" lon="2.24671">
        <ele>331.5</ele>
        <time>2018-05-31T17:14:12Z</time>
      </trkpt>
      <trkpt lat="44.53175" lon="2.24669">
        <ele>331.2</ele>
        <time>2018-05-31T17:14:14Z</time>
      </trkpt>
      <trkpt lat="44.53178" lon="2.24667">
        <ele>330.9</ele>
        <time>2018-05-31T17:14:15Z</time>
      </trkpt>
      <trkpt lat="44.53182" lon="2.24669">
        <ele>330.6</ele>
        <time>2018-05-31T17:14:16Z</time>
      </trkpt>
      <trkpt lat="44.53177" lon="2.24664">
        <ele>330.3</ele>
        <time>2018-05-31T17:14:18Z</time>
      </trkpt>
      <trkpt lat="44.53169" lon="2.24657">
        <ele>329.8</ele>
        <time>2018-05-31T17:14:21Z</time>
      </trkpt>
      <trkpt lat="44.53166" lon="2.24656">
        <ele>329.5</ele>
        <time>2018-05-31T17:14:22Z</time>
      </trkpt>
      <trkpt lat="44.5316" lon="2.24653">
        <ele>328.8</ele>
        <time>2018-05-31T17:14:24Z</time>
      </trkpt>
      <trkpt lat="44.5315" lon="2.24652">
        <ele>327.8</ele>
        <time>2018-05-31T17:14:26Z</time>
      </trkpt>
      <trkpt lat="44.53147" lon="2.24647">
        <ele>327.3</ele>
        <time>2018-05-31T17:14:27Z</time>
      </trkpt>
      <trkpt lat="44.53148" lon="2.24638">
        <ele>326.7</ele>
        <time>2018-05-31T17:14:29Z</time>
      </trkpt>
      <trkpt lat="44.53145" lon="2.24637">
        <ele>326.2</ele>
        <time>2018-05-31T17:14:30Z</time>
      </trkpt>
      <trkpt lat="44.53148" lon="2.24633">
        <ele>325.8</ele>
        <time>2018-05-31T17:14:32Z</time>
      </trkpt>
      <trkpt lat="44.53144" lon="2.24631">
        <ele>325.4</ele>
        <time>2018-05-31T17:14:35Z</time>
      </trkpt>
      <trkpt lat="44.53142" lon="2.24633">
        <ele>325.6</ele>
        <time>2018-05-31T17:14:36Z</time>
      </trkpt>
      <trkpt lat="44.5314" lon="2.24637">
        <ele>325.8</ele>
        <time>2018-05-31T17:14:37Z</time>
      </trkpt>
      <trkpt lat="44.53121" lon="2.24625">
        <ele>325.7</ele>
        <time>2018-05-31T17:14:39Z</time>
      </trkpt>
      <trkpt lat="44.53117" lon="2.24625">
        <ele>325.4</ele>
        <time>2018-05-31T17:14:40Z</time>
      </trkpt>
      <trkpt lat="44.53113" lon="2.24625">
        <ele>325.4</ele>
        <time>2018-05-31T17:14:41Z</time>
      </trkpt>
      <trkpt lat="44.53101" lon="2.24614">
        <ele>326.2</ele>
        <time>2018-05-31T17:14:54Z</time>
      </trkpt>
      <trkpt lat="44.531" lon="2.24623">
        <ele>326.5</ele>
        <time>2018-05-31T17:14:56Z</time>
      </trkpt>
      <trkpt lat="44.53099" lon="2.24631">
        <ele>327.1</ele>
        <time>2018-05-31T17:14:57Z</time>
      </trkpt>
      <trkpt lat="44.53084" lon="2.24646">
        <ele>329.1</ele>
        <time>2018-05-31T17:15:04Z</time>
      </trkpt>
      <trkpt lat="44.53088" lon="2.24647">
        <ele>329.2</ele>
        <time>2018-05-31T17:15:06Z</time>
      </trkpt>
      <trkpt lat="44.53083" lon="2.2465">
        <ele>329.8</ele>
        <time>2018-05-31T17:15:08Z</time>
      </trkpt>
      <trkpt lat="44.53081" lon="2.24655">
        <ele>330.3</ele>
        <time>2018-05-31T17:15:10Z</time>
      </trkpt>
      <trkpt lat="44.53081" lon="2.24662">
        <ele>330.9</ele>
        <time>2018-05-31T17:15:14Z</time>
      </trkpt>
      <trkpt lat="44.53081" lon="2.24666">
        <ele>331.3</ele>
        <time>2018-05-31T17:15:17Z</time>
      </trkpt>
      <trkpt lat="44.53084" lon="2.24665">
        <ele>331.7</ele>
        <time>2018-05-31T17:15:19Z</time>
      </trkpt>
      <trkpt lat="44.53081" lon="2.24664">
        <ele>332.2</ele>
        <time>2018-05-31T17:15:23Z</time>
      </trkpt>
      <trkpt lat="44.5308" lon="2.24656">
        <ele>332.9</ele>
        <time>2018-05-31T17:15:25Z</time>
      </trkpt>
      <trkpt lat="44.53083" lon="2.24657">
        <ele>333.2</ele>
        <time>2018-05-31T17:15:27Z</time>
      </trkpt>
      <trkpt lat="44.53083" lon="2.24662">
        <ele>333.6</ele>
        <time>2018-05-31T17:15:29Z</time>
      </trkpt>
      <trkpt lat="44.53086" lon="2.24661">
        <ele>333.9</ele>
        <time>2018-05-31T17:15:49Z</time>
      </trkpt>
      <trkpt lat="44.53089" lon="2.24664">
        <ele>334.4</ele>
        <time>2018-05-31T17:15:51Z</time>
      </trkpt>
      <trkpt lat="44.5309" lon="2.24669">
        <ele>335.1</ele>
        <time>2018-05-31T17:15:56Z</time>
      </trkpt>
      <trkpt lat="44.53093" lon="2.24671">
        <ele>335.7</ele>
        <time>2018-05-31T17:16:00Z</time>
      </trkpt>
      <trkpt lat="44.53096" lon="2.24672">
        <ele>336.3</ele>
        <time>2018-05-31T17:16:01Z</time>
      </trkpt>
      <trkpt lat="44.53095" lon="2.24677">
        <ele>336.9</ele>
        <time>2018-05-31T17:16:03Z</time>
      </trkpt>
      <trkpt lat="44.53178" lon="2.2482">
        <ele>360.2</ele>
        <time>2018-05-31T17:17:48Z</time>
      </trkpt>
      <trkpt lat="44.53181" lon="2.24815">
        <ele>360.9</ele>
        <time>2018-05-31T17:17:49Z</time>
      </trkpt>
      <trkpt lat="44.53183" lon="2.2482">
        <ele>361.4</ele>
        <time>2018-05-31T17:17:50Z</time>
      </trkpt>
      <trkpt lat="44.53184" lon="2.24826">
        <ele>362</ele>
        <time>2018-05-31T17:17:52Z</time>
      </trkpt>
      <trkpt lat="44.53184" lon="2.2483">
        <ele>362.4</ele>
        <time>2018-05-31T17:17:53Z</time>
      </trkpt>
      <trkpt lat="44.53183" lon="2.24826">
        <ele>362.8</ele>
        <time>2018-05-31T17:17:54Z</time>
      </trkpt>
      <trkpt lat="44.53186" lon="2.24829">
        <ele>363.2</ele>
        <time>2018-05-31T17:17:57Z</time>
      </trkpt>
      <trkpt lat="44.53187" lon="2.24833">
        <ele>363.6</ele>
        <time>2018-05-31T17:17:58Z</time>
      </trkpt>
      <trkpt lat="44.53188" lon="2.24837">
        <ele>363.8</ele>
        <time>2018-05-31T17:17:59Z</time>
      </trkpt>
      <trkpt lat="44.5319" lon="2.24843">
        <ele>364.2</ele>
        <time>2018-05-31T17:18:02Z</time>
      </trkpt>
      <trkpt lat="44.53193" lon="2.24847">
        <ele>364.4</ele>
        <time>2018-05-31T17:18:05Z</time>
      </trkpt>
      <trkpt lat="44.53195" lon="2.24851">
        <ele>364.6</ele>
        <time>2018-05-31T17:18:08Z</time>
      </trkpt>
      <trkpt lat="44.53198" lon="2.24853">
        <ele>364.8</ele>
        <time>2018-05-31T17:18:09Z</time>
      </trkpt>
      <trkpt lat="44.53201" lon="2.24856">
        <ele>365</ele>
        <time>2018-05-31T17:18:11Z</time>
      </trkpt>
      <trkpt lat="44.53205" lon="2.24863">
        <ele>365.1</ele>
        <time>2018-05-31T17:18:13Z</time>
      </trkpt>
      <trkpt lat="44.53208" lon="2.24865">
        <ele>365.2</ele>
        <time>2018-05-31T17:18:19Z</time>
      </trkpt>
      <trkpt lat="44.53213" lon="2.24865">
        <ele>365.3</ele>
        <time>2018-05-31T17:18:22Z</time>
      </trkpt>
      <trkpt lat="44.53215" lon="2.24867">
        <ele>365.4</ele>
        <time>2018-05-31T17:18:24Z</time>
      </trkpt>
      <trkpt lat="44.5322" lon="2.24871">
        <ele>365.6</ele>
        <time>2018-05-31T17:18:29Z</time>
      </trkpt>
      <trkpt lat="44.53224" lon="2.24871">
        <ele>365.8</ele>
        <time>2018-05-31T17:18:31Z</time>
      </trkpt>
      <trkpt lat="44.5322" lon="2.24872">
        <ele>366</ele>
        <time>2018-05-31T17:18:43Z</time>
      </trkpt>
      <trkpt lat="44.53218" lon="2.24877">
        <ele>366.3</ele>
        <time>2018-05-31T17:18:45Z</time>
      </trkpt>
      <trkpt lat="44.53218" lon="2.24887">
        <ele>366.7</ele>
        <time>2018-05-31T17:18:47Z</time>
      </trkpt>
      <trkpt lat="44.53213" lon="2.24892">
        <ele>367.1</ele>
        <time>2018-05-31T17:18:49Z</time>
      </trkpt>
      <trkpt lat="44.5321" lon="2.24894">
        <ele>367.2</ele>
        <time>2018-05-31T17:18:53Z</time>
      </trkpt>
      <trkpt lat="44.53207" lon="2.24896">
        <ele>366.6</ele>
        <time>2018-05-31T17:18:54Z</time>
      </trkpt>
      <trkpt lat="44.53209" lon="2.249">
        <ele>366.4</ele>
        <time>2018-05-31T17:18:55Z</time>
      </trkpt>
      <trkpt lat="44.53205" lon="2.24904">
        <ele>365.9</ele>
        <time>2018-05-31T17:18:56Z</time>
      </trkpt>
      <trkpt lat="44.5321" lon="2.2491">
        <ele>365.2</ele>
        <time>2018-05-31T17:18:58Z</time>
      </trkpt>
      <trkpt lat="44.53202" lon="2.24908">
        <ele>364.6</ele>
        <time>2018-05-31T17:19:00Z</time>
      </trkpt>
      <trkpt lat="44.53199" lon="2.24911">
        <ele>364.4</ele>
        <time>2018-05-31T17:19:02Z</time>
      </trkpt>
      <trkpt lat="44.53196" lon="2.24915">
        <ele>364.2</ele>
        <time>2018-05-31T17:19:04Z</time>
      </trkpt>
      <trkpt lat="44.53202" lon="2.24922">
        <ele>363.4</ele>
        <time>2018-05-31T17:19:05Z</time>
      </trkpt>
      <trkpt lat="44.53195" lon="2.2493">
        <ele>362.7</ele>
        <time>2018-05-31T17:19:07Z</time>
      </trkpt>
      <trkpt lat="44.53192" lon="2.2493">
        <ele>362.4</ele>
        <time>2018-05-31T17:19:08Z</time>
      </trkpt>
      <trkpt lat="44.5319" lon="2.24928">
        <ele>362.2</ele>
        <time>2018-05-31T17:19:09Z</time>
      </trkpt>
      <trkpt lat="44.53183" lon="2.24931">
        <ele>361.7</ele>
        <time>2018-05-31T17:19:11Z</time>
      </trkpt>
      <trkpt lat="44.53179" lon="2.24935">
        <ele>361.2</ele>
        <time>2018-05-31T17:19:12Z</time>
      </trkpt>
      <trkpt lat="44.53173" lon="2.24931">
        <ele>360.4</ele>
        <time>2018-05-31T17:19:15Z</time>
      </trkpt>
      <trkpt lat="44.53169" lon="2.24931">
        <ele>359.7</ele>
        <time>2018-05-31T17:19:16Z</time>
      </trkpt>
      <trkpt lat="44.5316" lon="2.24936">
        <ele>358.3</ele>
        <time>2018-05-31T17:19:17Z</time>
      </trkpt>
      <trkpt lat="44.53157" lon="2.24935">
        <ele>357.8</ele>
        <time>2018-05-31T17:19:20Z</time>
      </trkpt>
      <trkpt lat="44.53146" lon="2.24945">
        <ele>355.9</ele>
        <time>2018-05-31T17:19:25Z</time>
      </trkpt>
      <trkpt lat="44.53147" lon="2.24952">
        <ele>355.3</ele>
        <time>2018-05-31T17:19:27Z</time>
      </trkpt>
      <trkpt lat="44.53139" lon="2.24954">
        <ele>354.2</ele>
        <time>2018-05-31T17:19:29Z</time>
      </trkpt>
      <trkpt lat="44.53135" lon="2.24955">
        <ele>353.7</ele>
        <time>2018-05-31T17:19:30Z</time>
      </trkpt>
      <trkpt lat="44.53126" lon="2.24958">
        <ele>352.3</ele>
        <time>2018-05-31T17:19:34Z</time>
      </trkpt>
      <trkpt lat="44.53122" lon="2.2496">
        <ele>351.9</ele>
        <time>2018-05-31T17:19:35Z</time>
      </trkpt>
      <trkpt lat="44.53113" lon="2.24969">
        <ele>349.8</ele>
        <time>2018-05-31T17:19:36Z</time>
      </trkpt>
      <trkpt lat="44.53116" lon="2.24974">
        <ele>349.6</ele>
        <time>2018-05-31T17:19:37Z</time>
      </trkpt>
      <trkpt lat="44.53102" lon="2.2499">
        <ele>345.6</ele>
        <time>2018-05-31T17:19:48Z</time>
      </trkpt>
      <trkpt lat="44.53098" lon="2.2499">
        <ele>345.2</ele>
        <time>2018-05-31T17:19:49Z</time>
      </trkpt>
      <trkpt lat="44.53092" lon="2.24989">
        <ele>344.2</ele>
        <time>2018-05-31T17:19:50Z</time>
      </trkpt>
      <trkpt lat="44.53107" lon="2.25001">
        <ele>344.6</ele>
        <time>2018-05-31T17:19:52Z</time>
      </trkpt>
      <trkpt lat="44.53112" lon="2.25007">
        <ele>344</ele>
        <time>2018-05-31T17:19:55Z</time>
      </trkpt>
      <trkpt lat="44.53108" lon="2.2501">
        <ele>343.6</ele>
        <time>2018-05-31T17:19:56Z</time>
      </trkpt>
      <trkpt lat="44.53115" lon="2.2502">
        <ele>342.7</ele>
        <time>2018-05-31T17:19:57Z</time>
      </trkpt>
      <trkpt lat="44.53111" lon="2.25021">
        <ele>342.2</ele>
        <time>2018-05-31T17:20:00Z</time>
      </trkpt>
      <trkpt lat="44.53107" lon="2.25026">
        <ele>341.7</ele>
        <time>2018-05-31T17:20:01Z</time>
      </trkpt>
      <trkpt lat="44.531" lon="2.25026">
        <ele>340.5</ele>
        <time>2018-05-31T17:20:02Z</time>
      </trkpt>
      <trkpt lat="44.53063" lon="2.25024">
        <ele>337.6</ele>
        <time>2018-05-31T17:20:12Z</time>
      </trkpt>
      <trkpt lat="44.53057" lon="2.25024">
        <ele>336.3</ele>
        <time>2018-05-31T17:20:13Z</time>
      </trkpt>
      <trkpt lat="44.53054" lon="2.25025">
        <ele>335.7</ele>
        <time>2018-05-31T17:20:14Z</time>
      </trkpt>
      <trkpt lat="44.53053" lon="2.2502">
        <ele>334.8</ele>
        <time>2018-05-31T17:20:21Z</time>
      </trkpt>
      <trkpt lat="44.53056" lon="2.25024">
        <ele>325.9</ele>
        <time>2018-05-31T17:20:26Z</time>
      </trkpt>
      <trkpt lat="44.52914" lon="2.24948">
        <ele>275.8</ele>
        <time>2018-05-31T17:24:06Z</time>
      </trkpt>
      <trkpt lat="44.5292" lon="2.2495">
        <ele>273</ele>
        <time>2018-05-31T17:24:07Z</time>
      </trkpt>
      <trkpt lat="44.52913" lon="2.24949">
        <ele>272.8</ele>
        <time>2018-05-31T17:24:08Z</time>
      </trkpt>
      <trkpt lat="44.52906" lon="2.24947">
        <ele>272.5</ele>
        <time>2018-05-31T17:24:09Z</time>
      </trkpt>
      <trkpt lat="44.52895" lon="2.24946">
        <ele>272.2</ele>
        <time>2018-05-31T17:24:10Z</time>
      </trkpt>
      <trkpt lat="44.52889" lon="2.24948">
        <ele>272</ele>
        <time>2018-05-31T17:24:11Z</time>
      </trkpt>
      <trkpt lat="44.52881" lon="2.24946">
        <ele>271.7</ele>
        <time>2018-05-31T17:24:13Z</time>
      </trkpt>
      <trkpt lat="44.5288" lon="2.2494">
        <ele>271.5</ele>
        <time>2018-05-31T17:24:15Z</time>
      </trkpt>
      <trkpt lat="44.52861" lon="2.24927">
        <ele>269.9</ele>
        <time>2018-05-31T17:24:17Z</time>
      </trkpt>
      <trkpt lat="44.52866" lon="2.24926">
        <ele>269.4</ele>
        <time>2018-05-31T17:24:18Z</time>
      </trkpt>
      <trkpt lat="44.52867" lon="2.24919">
        <ele>268.9</ele>
        <time>2018-05-31T17:24:20Z</time>
      </trkpt>
      <trkpt lat="44.52864" lon="2.24917">
        <ele>268.7</ele>
        <time>2018-05-31T17:24:21Z</time>
      </trkpt>
      <trkpt lat="44.52861" lon="2.24913">
        <ele>268.5</ele>
        <time>2018-05-31T17:24:22Z</time>
      </trkpt>
      <trkpt lat="44.52857" lon="2.24913">
        <ele>267</ele>
        <time>2018-05-31T17:24:23Z</time>
      </trkpt>
      <trkpt lat="44.52855" lon="2.24911">
        <ele>267</ele>
        <time>2018-05-31T17:24:25Z</time>
      </trkpt>
      <trkpt lat="44.52853" lon="2.24906">
        <ele>267</ele>
        <time>2018-05-31T17:24:28Z</time>
      </trkpt>
      <trkpt lat="44.5285" lon="2.24907">
        <ele>267</ele>
        <time>2018-05-31T17:24:29Z</time>
      </trkpt>
      <trkpt lat="44.52848" lon="2.249">
        <ele>267</ele>
        <time>2018-05-31T17:24:31Z</time>
      </trkpt>
      <trkpt lat="44.52846" lon="2.24897">
        <ele>267</ele>
        <time>2018-05-31T17:24:32Z</time>
      </trkpt>
      <trkpt lat="44.52852" lon="2.249">
        <ele>267</ele>
        <time>2018-05-31T17:24:35Z</time>
      </trkpt>
      <trkpt lat="44.52855" lon="2.24899">
        <ele>267</ele>
        <time>2018-05-31T17:24:36Z</time>
      </trkpt>
      <trkpt lat="44.52847" lon="2.24897">
        <ele>267</ele>
        <time>2018-05-31T17:24:37Z</time>
      </trkpt>
      <trkpt lat="44.52851" lon="2.24895">
        <ele>267</ele>
        <time>2018-05-31T17:24:38Z</time>
      </trkpt>
      <trkpt lat="44.52856" lon="2.24895">
        <ele>267</ele>
        <time>2018-05-31T17:24:39Z</time>
      </trkpt>
      <trkpt lat="44.5286" lon="2.24894">
        <ele>267</ele>
        <time>2018-05-31T17:24:40Z</time>
      </trkpt>
      <trkpt lat="44.52862" lon="2.24889">
        <ele>267</ele>
        <time>2018-05-31T17:24:42Z</time>
      </trkpt>
      <trkpt lat="44.52862" lon="2.24884">
        <ele>267</ele>
        <time>2018-05-31T17:24:44Z</time>
      </trkpt>
      <trkpt lat="44.52864" lon="2.24882">
        <ele>267</ele>
        <time>2018-05-31T17:24:45Z</time>
      </trkpt>
      <trkpt lat="44.52866" lon="2.24878">
        <ele>267</ele>
        <time>2018-05-31T17:24:46Z</time>
      </trkpt>
      <trkpt lat="44.52868" lon="2.24871">
        <ele>266.5</ele>
        <time>2018-05-31T17:24:48Z</time>
      </trkpt>
      <trkpt lat="44.52869" lon="2.24867">
        <ele>266.4</ele>
        <time>2018-05-31T17:24:49Z</time>
      </trkpt>
      <trkpt lat="44.52871" lon="2.24859">
        <ele>266.2</ele>
        <time>2018-05-31T17:24:50Z</time>
      </trkpt>
      <trkpt lat="44.52874" lon="2.24862">
        <ele>266.1</ele>
        <time>2018-05-31T17:24:51Z</time>
      </trkpt>
      <trkpt lat="44.52876" lon="2.24857">
        <ele>265.9</ele>
        <time>2018-05-31T17:24:53Z</time>
      </trkpt>
      <trkpt lat="44.52879" lon="2.2485">
        <ele>265.9</ele>
        <time>2018-05-31T17:24:55Z</time>
      </trkpt>
      <trkpt lat="44.52881" lon="2.24844">
        <ele>265.8</ele>
        <time>2018-05-31T17:24:58Z</time>
      </trkpt>
      <trkpt lat="44.52878" lon="2.24842">
        <ele>265.8</ele>
        <time>2018-05-31T17:24:59Z</time>
      </trkpt>
      <trkpt lat="44.52876" lon="2.24836">
        <ele>265.8</ele>
        <time>2018-05-31T17:25:00Z</time>
      </trkpt>
      <trkpt lat="44.52872" lon="2.24831">
        <ele>265.8</ele>
        <time>2018-05-31T17:25:02Z</time>
      </trkpt>
      <trkpt lat="44.5287" lon="2.24828">
        <ele>265.8</ele>
        <time>2018-05-31T17:25:03Z</time>
      </trkpt>
      <trkpt lat="44.52869" lon="2.24823">
        <ele>265.8</ele>
        <time>2018-05-31T17:25:04Z</time>
      </trkpt>
      <trkpt lat="44.52865" lon="2.24817">
        <ele>265.8</ele>
        <time>2018-05-31T17:25:05Z</time>
      </trkpt>
      <trkpt lat="44.52866" lon="2.24812">
        <ele>265.7</ele>
        <time>2018-05-31T17:25:06Z</time>
      </trkpt>
      <trkpt lat="44.52863" lon="2.24808">
        <ele>265.7</ele>
        <time>2018-05-31T17:25:08Z</time>
      </trkpt>
      <trkpt lat="44.52862" lon="2.24805">
        <ele>265.6</ele>
        <time>2018-05-31T17:25:10Z</time>
      </trkpt>
      <trkpt lat="44.5286" lon="2.24799">
        <ele>265.4</ele>
        <time>2018-05-31T17:25:14Z</time>
      </trkpt>
      <trkpt lat="44.52861" lon="2.24794">
        <ele>265.3</ele>
        <time>2018-05-31T17:25:18Z</time>
      </trkpt>
      <trkpt lat="44.52864" lon="2.24784">
        <ele>264.7</ele>
        <time>2018-05-31T17:25:20Z</time>
      </trkpt>
      <trkpt lat="44.52862" lon="2.24781">
        <ele>264.4</ele>
        <time>2018-05-31T17:25:21Z</time>
      </trkpt>
      <trkpt lat="44.52854" lon="2.24773">
        <ele>263.4</ele>
        <time>2018-05-31T17:25:23Z</time>
      </trkpt>
      <trkpt lat="44.52853" lon="2.24763">
        <ele>262.6</ele>
        <time>2018-05-31T17:25:24Z</time>
      </trkpt>
      <trkpt lat="44.52853" lon="2.24756">
        <ele>262.1</ele>
        <time>2018-05-31T17:25:26Z</time>
      </trkpt>
      <trkpt lat="44.52851" lon="2.24752">
        <ele>261.6</ele>
        <time>2018-05-31T17:25:27Z</time>
      </trkpt>
      <trkpt lat="44.52854" lon="2.24754">
        <ele>261.2</ele>
        <time>2018-05-31T17:25:28Z</time>
      </trkpt>
      <trkpt lat="44.52861" lon="2.24743">
        <ele>260.1</ele>
        <time>2018-05-31T17:25:29Z</time>
      </trkpt>
      <trkpt lat="44.52861" lon="2.24739">
        <ele>259.8</ele>
        <time>2018-05-31T17:25:30Z</time>
      </trkpt>
      <trkpt lat="44.52854" lon="2.24735">
        <ele>259.1</ele>
        <time>2018-05-31T17:25:31Z</time>
      </trkpt>
      <trkpt lat="44.52851" lon="2.2473">
        <ele>258.5</ele>
        <time>2018-05-31T17:25:33Z</time>
      </trkpt>
      <trkpt lat="44.52846" lon="2.24728">
        <ele>258</ele>
        <time>2018-05-31T17:25:34Z</time>
      </trkpt>
      <trkpt lat="44.5284" lon="2.2473">
        <ele>257.3</ele>
        <time>2018-05-31T17:25:36Z</time>
      </trkpt>
      <trkpt lat="44.52836" lon="2.24724">
        <ele>256.6</ele>
        <time>2018-05-31T17:25:37Z</time>
      </trkpt>
      <trkpt lat="44.52827" lon="2.24722">
        <ele>255.5</ele>
        <time>2018-05-31T17:25:39Z</time>
      </trkpt>
      <trkpt lat="44.52823" lon="2.24718">
        <ele>254.9</ele>
        <time>2018-05-31T17:25:40Z</time>
      </trkpt>
      <trkpt lat="44.52827" lon="2.2472">
        <ele>254.3</ele>
        <time>2018-05-31T17:25:41Z</time>
      </trkpt>
      <trkpt lat="44.52824" lon="2.24717">
        <ele>253.8</ele>
        <time>2018-05-31T17:25:42Z</time>
      </trkpt>
      <trkpt lat="44.52821" lon="2.24715">
        <ele>253.3</ele>
        <time>2018-05-31T17:25:43Z</time>
      </trkpt>
      <trkpt lat="44.52819" lon="2.2471">
        <ele>252.7</ele>
        <time>2018-05-31T17:25:44Z</time>
      </trkpt>
      <trkpt lat="44.52817" lon="2.24706">
        <ele>252.3</ele>
        <time>2018-05-31T17:25:45Z</time>
      </trkpt>
      <trkpt lat="44.52813" lon="2.247">
        <ele>251.6</ele>
        <time>2018-05-31T17:25:48Z</time>
      </trkpt>
      <trkpt lat="44.5281" lon="2.24698">
        <ele>251.2</ele>
        <time>2018-05-31T17:25:49Z</time>
      </trkpt>
      <trkpt lat="44.52815" lon="2.24694">
        <ele>250.5</ele>
        <time>2018-05-31T17:25:50Z</time>
      </trkpt>
      <trkpt lat="44.52817" lon="2.24685">
        <ele>249.8</ele>
        <time>2018-05-31T17:25:51Z</time>
      </trkpt>
      <trkpt lat="44.5282" lon="2.2468">
        <ele>249.3</ele>
        <time>2018-05-31T17:25:52Z</time>
      </trkpt>
      <trkpt lat="44.52808" lon="2.24681">
        <ele>248</ele>
        <time>2018-05-31T17:25:53Z</time>
      </trkpt>
      <trkpt lat="44.52805" lon="2.24675">
        <ele>247.5</ele>
        <time>2018-05-31T17:25:56Z</time>
      </trkpt>
      <trkpt lat="44.52803" lon="2.2467">
        <ele>247</ele>
        <time>2018-05-31T17:25:57Z</time>
      </trkpt>
      <trkpt lat="44.52802" lon="2.24662">
        <ele>246.5</ele>
        <time>2018-05-31T17:25:59Z</time>
      </trkpt>
      <trkpt lat="44.52804" lon="2.24653">
        <ele>245.9</ele>
        <time>2018-05-31T17:26:01Z</time>
      </trkpt>
      <trkpt lat="44.52806" lon="2.24641">
        <ele>247.4</ele>
        <time>2018-05-31T17:26:02Z</time>
      </trkpt>
      <trkpt lat="44.52807" lon="2.24635">
        <ele>248.2</ele>
        <time>2018-05-31T17:26:03Z</time>
      </trkpt>
      <trkpt lat="44.52857" lon="2.24348">
        <ele>236.7</ele>
        <time>2018-05-31T17:27:20Z</time>
      </trkpt>
      <trkpt lat="44.52861" lon="2.24343">
        <ele>236.4</ele>
        <time>2018-05-31T17:27:23Z</time>
      </trkpt>
      <trkpt lat="44.52866" lon="2.24343">
        <ele>236.2</ele>
        <time>2018-05-31T17:27:26Z</time>
      </trkpt>
      <trkpt lat="44.52869" lon="2.24337">
        <ele>236</ele>
        <time>2018-05-31T17:27:28Z</time>
      </trkpt>
      <trkpt lat="44.52874" lon="2.24338">
        <ele>235.8</ele>
        <time>2018-05-31T17:27:30Z</time>
      </trkpt>
      <trkpt lat="44.5287" lon="2.24333">
        <ele>235.6</ele>
        <time>2018-05-31T17:27:31Z</time>
      </trkpt>
      <trkpt lat="44.52869" lon="2.24324">
        <ele>235.3</ele>
        <time>2018-05-31T17:27:32Z</time>
      </trkpt>
      <trkpt lat="44.52869" lon="2.24312">
        <ele>235</ele>
        <time>2018-05-31T17:27:33Z</time>
      </trkpt>
      <trkpt lat="44.52871" lon="2.24308">
        <ele>235</ele>
        <time>2018-05-31T17:27:34Z</time>
      </trkpt>
      <trkpt lat="44.52875" lon="2.243">
        <ele>235</ele>
        <time>2018-05-31T17:27:36Z</time>
      </trkpt>
      <trkpt lat="44.52881" lon="2.24303">
        <ele>235</ele>
        <time>2018-05-31T17:27:37Z</time>
      </trkpt>
      <trkpt lat="44.52883" lon="2.24301">
        <ele>235</ele>
        <time>2018-05-31T17:27:38Z</time>
      </trkpt>
      <trkpt lat="44.52884" lon="2.24298">
        <ele>235</ele>
        <time>2018-05-31T17:27:40Z</time>
      </trkpt>
      <trkpt lat="44.52887" lon="2.24295">
        <ele>235</ele>
        <time>2018-05-31T17:27:41Z</time>
      </trkpt>
      <trkpt lat="44.52891" lon="2.24286">
        <ele>235</ele>
        <time>2018-05-31T17:27:42Z</time>
      </trkpt>
      <trkpt lat="44.52894" lon="2.24281">
        <ele>235</ele>
        <time>2018-05-31T17:27:43Z</time>
      </trkpt>
      <trkpt lat="44.52895" lon="2.24285">
        <ele>235</ele>
        <time>2018-05-31T17:27:44Z</time>
      </trkpt>
      <trkpt lat="44.52899" lon="2.24275">
        <ele>235</ele>
        <time>2018-05-31T17:27:46Z</time>
      </trkpt>
      <trkpt lat="44.52902" lon="2.24273">
        <ele>235</ele>
        <time>2018-05-31T17:27:47Z</time>
      </trkpt>
      <trkpt lat="44.52902" lon="2.24268">
        <ele>235</ele>
        <time>2018-05-31T17:27:48Z</time>
      </trkpt>
      <trkpt lat="44.52904" lon="2.24262">
        <ele>235</ele>
        <time>2018-05-31T17:27:49Z</time>
      </trkpt>
      <trkpt lat="44.52904" lon="2.24256">
        <ele>235</ele>
        <time>2018-05-31T17:27:50Z</time>
      </trkpt>
      <trkpt lat="44.52904" lon="2.24249">
        <ele>234.7</ele>
        <time>2018-05-31T17:27:51Z</time>
      </trkpt>
      <trkpt lat="44.52906" lon="2.24244">
        <ele>234</ele>
        <time>2018-05-31T17:27:52Z</time>
      </trkpt>
      <trkpt lat="44.52906" lon="2.24239">
        <ele>234</ele>
        <time>2018-05-31T17:27:53Z</time>
      </trkpt>
      <trkpt lat="44.52909" lon="2.24233">
        <ele>234</ele>
        <time>2018-05-31T17:27:54Z</time>
      </trkpt>
      <trkpt lat="44.52911" lon="2.24229">
        <ele>234</ele>
        <time>2018-05-31T17:27:55Z</time>
      </trkpt>
      <trkpt lat="44.52913" lon="2.24232">
        <ele>234.1</ele>
        <time>2018-05-31T17:27:58Z</time>
      </trkpt>
      <trkpt lat="44.52914" lon="2.24227">
        <ele>234.2</ele>
        <time>2018-05-31T17:27:59Z</time>
      </trkpt>
      <trkpt lat="44.52917" lon="2.2422">
        <ele>234.3</ele>
        <time>2018-05-31T17:28:01Z</time>
      </trkpt>
      <trkpt lat="44.52919" lon="2.24215">
        <ele>234.4</ele>
        <time>2018-05-31T17:28:03Z</time>
      </trkpt>
      <trkpt lat="44.52923" lon="2.24213">
        <ele>234.4</ele>
        <time>2018-05-31T17:28:04Z</time>
      </trkpt>
      <trkpt lat="44.52925" lon="2.24209">
        <ele>234.5</ele>
        <time>2018-05-31T17:28:05Z</time>
      </trkpt>
      <trkpt lat="44.52926" lon="2.24205">
        <ele>234.5</ele>
        <time>2018-05-31T17:28:07Z</time>
      </trkpt>
      <trkpt lat="44.5293" lon="2.242">
        <ele>234.6</ele>
        <time>2018-05-31T17:28:09Z</time>
      </trkpt>
      <trkpt lat="44.52933" lon="2.24196">
        <ele>234.7</ele>
        <time>2018-05-31T17:28:11Z</time>
      </trkpt>
      <trkpt lat="44.52937" lon="2.24192">
        <ele>234.7</ele>
        <time>2018-05-31T17:28:13Z</time>
      </trkpt>
      <trkpt lat="44.52939" lon="2.2419">
        <ele>234.8</ele>
        <time>2018-05-31T17:28:14Z</time>
      </trkpt>
      <trkpt lat="44.52942" lon="2.24184">
        <ele>234.8</ele>
        <time>2018-05-31T17:28:16Z</time>
      </trkpt>
      <trkpt lat="44.52945" lon="2.24184">
        <ele>234.9</ele>
        <time>2018-05-31T17:28:18Z</time>
      </trkpt>
      <trkpt lat="44.52947" lon="2.24179">
        <ele>235.7</ele>
        <time>2018-05-31T17:28:19Z</time>
      </trkpt>
      <trkpt lat="44.5295" lon="2.24178">
        <ele>235.9</ele>
        <time>2018-05-31T17:28:20Z</time>
      </trkpt>
      <trkpt lat="44.52952" lon="2.24172">
        <ele>236.8</ele>
        <time>2018-05-31T17:28:21Z</time>
      </trkpt>
      <trkpt lat="44.52952" lon="2.24162">
        <ele>236.6</ele>
        <time>2018-05-31T17:28:22Z</time>
      </trkpt>
      <trkpt lat="44.52956" lon="2.24155">
        <ele>236.5</ele>
        <time>2018-05-31T17:28:25Z</time>
      </trkpt>
      <trkpt lat="44.52959" lon="2.24152">
        <ele>236.4</ele>
        <time>2018-05-31T17:28:27Z</time>
      </trkpt>
      <trkpt lat="44.52962" lon="2.24148">
        <ele>236.3</ele>
        <time>2018-05-31T17:28:29Z</time>
      </trkpt>
      <trkpt lat="44.52964" lon="2.24145">
        <ele>236.3</ele>
        <time>2018-05-31T17:28:30Z</time>
      </trkpt>
      <trkpt lat="44.52966" lon="2.24137">
        <ele>236.1</ele>
        <time>2018-05-31T17:28:32Z</time>
      </trkpt>
      <trkpt lat="44.52968" lon="2.24131">
        <ele>236</ele>
        <time>2018-05-31T17:28:34Z</time>
      </trkpt>
      <trkpt lat="44.52971" lon="2.24127">
        <ele>236</ele>
        <time>2018-05-31T17:28:37Z</time>
      </trkpt>
      <trkpt lat="44.52975" lon="2.24124">
        <ele>235.9</ele>
        <time>2018-05-31T17:28:38Z</time>
      </trkpt>
      <trkpt lat="44.52979" lon="2.24119">
        <ele>235.8</ele>
        <time>2018-05-31T17:28:43Z</time>
      </trkpt>
      <trkpt lat="44.52981" lon="2.24118">
        <ele>235.8</ele>
        <time>2018-05-31T17:28:45Z</time>
      </trkpt>
      <trkpt lat="44.52984" lon="2.24115">
        <ele>235.8</ele>
        <time>2018-05-31T17:28:48Z</time>
      </trkpt>
      <trkpt lat="44.52986" lon="2.24114">
        <ele>235.7</ele>
        <time>2018-05-31T17:28:49Z</time>
      </trkpt>
      <trkpt lat="44.52988" lon="2.2411">
        <ele>235.7</ele>
        <time>2018-05-31T17:28:51Z</time>
      </trkpt>
      <trkpt lat="44.52991" lon="2.24109">
        <ele>235.6</ele>
        <time>2018-05-31T17:28:52Z</time>
      </trkpt>
      <trkpt lat="44.52992" lon="2.24103">
        <ele>235.6</ele>
        <time>2018-05-31T17:28:54Z</time>
      </trkpt>
      <trkpt lat="44.52995" lon="2.24102">
        <ele>235.5</ele>
        <time>2018-05-31T17:28:55Z</time>
      </trkpt>
      <trkpt lat="44.52996" lon="2.24098">
        <ele>235.5</ele>
        <time>2018-05-31T17:28:56Z</time>
      </trkpt>
      <trkpt lat="44.52997" lon="2.24094">
        <ele>235.4</ele>
        <time>2018-05-31T17:28:57Z</time>
      </trkpt>
      <trkpt lat="44.52998" lon="2.2409">
        <ele>235.4</ele>
        <time>2018-05-31T17:28:58Z</time>
      </trkpt>
      <trkpt lat="44.52999" lon="2.24087">
        <ele>235.3</ele>
        <time>2018-05-31T17:28:59Z</time>
      </trkpt>
      <trkpt lat="44.53004" lon="2.24089">
        <ele>235.3</ele>
        <time>2018-05-31T17:29:00Z</time>
      </trkpt>
      <trkpt lat="44.53007" lon="2.24088">
        <ele>235.2</ele>
        <time>2018-05-31T17:29:01Z</time>
      </trkpt>
      <trkpt lat="44.53009" lon="2.24083">
        <ele>235.2</ele>
        <time>2018-05-31T17:29:02Z</time>
      </trkpt>
      <trkpt lat="44.53011" lon="2.24078">
        <ele>235.1</ele>
        <time>2018-05-31T17:29:03Z</time>
      </trkpt>
      <trkpt lat="44.53015" lon="2.24078">
        <ele>235</ele>
        <time>2018-05-31T17:29:04Z</time>
      </trkpt>
      <trkpt lat="44.53016" lon="2.24068">
        <ele>235</ele>
        <time>2018-05-31T17:29:05Z</time>
      </trkpt>
      <trkpt lat="44.53019" lon="2.24061">
        <ele>235</ele>
        <time>2018-05-31T17:29:06Z</time>
      </trkpt>
      <trkpt lat="44.53019" lon="2.24055">
        <ele>234.6</ele>
        <time>2018-05-31T17:29:07Z</time>
      </trkpt>
      <trkpt lat="44.53022" lon="2.2405">
        <ele>234.5</ele>
        <time>2018-05-31T17:29:08Z</time>
      </trkpt>
      <trkpt lat="44.53024" lon="2.24046">
        <ele>234.3</ele>
        <time>2018-05-31T17:29:09Z</time>
      </trkpt>
      <trkpt lat="44.53027" lon="2.24041">
        <ele>234.2</ele>
        <time>2018-05-31T17:29:10Z</time>
      </trkpt>
      <trkpt lat="44.53029" lon="2.24038">
        <ele>234.1</ele>
        <time>2018-05-31T17:29:11Z</time>
      </trkpt>
      <trkpt lat="44.53032" lon="2.24035">
        <ele>234.1</ele>
        <time>2018-05-31T17:29:12Z</time>
      </trkpt>
      <trkpt lat="44.53032" lon="2.24027">
        <ele>233.9</ele>
        <time>2018-05-31T17:29:13Z</time>
      </trkpt>
      <trkpt lat="44.53031" lon="2.24021">
        <ele>233.8</ele>
        <time>2018-05-31T17:29:14Z</time>
      </trkpt>
      <trkpt lat="44.5303" lon="2.24015">
        <ele>233.7</ele>
        <time>2018-05-31T17:29:15Z</time>
      </trkpt>
      <trkpt lat="44.53032" lon="2.24008">
        <ele>233.6</ele>
        <time>2018-05-31T17:29:16Z</time>
      </trkpt>
      <trkpt lat="44.53035" lon="2.24001">
        <ele>233.4</ele>
        <time>2018-05-31T17:29:20Z</time>
      </trkpt>
      <trkpt lat="44.53038" lon="2.23997">
        <ele>233.3</ele>
        <time>2018-05-31T17:29:21Z</time>
      </trkpt>
      <trkpt lat="44.53039" lon="2.23991">
        <ele>233.3</ele>
        <time>2018-05-31T17:29:23Z</time>
      </trkpt>
      <trkpt lat="44.53043" lon="2.23989">
        <ele>233.2</ele>
        <time>2018-05-31T17:29:26Z</time>
      </trkpt>
      <trkpt lat="44.53045" lon="2.23984">
        <ele>233.2</ele>
        <time>2018-05-31T17:29:28Z</time>
      </trkpt>
      <trkpt lat="44.53046" lon="2.23977">
        <ele>233.1</ele>
        <time>2018-05-31T17:29:29Z</time>
      </trkpt>
      <trkpt lat="44.53049" lon="2.23967">
        <ele>233</ele>
        <time>2018-05-31T17:29:31Z</time>
      </trkpt>
      <trkpt lat="44.53051" lon="2.23961">
        <ele>233</ele>
        <time>2018-05-31T17:29:32Z</time>
      </trkpt>
      <trkpt lat="44.53052" lon="2.23952">
        <ele>232.9</ele>
        <time>2018-05-31T17:29:34Z</time>
      </trkpt>
      <trkpt lat="44.53055" lon="2.23947">
        <ele>232.9</ele>
        <time>2018-05-31T17:29:36Z</time>
      </trkpt>
      <trkpt lat="44.53057" lon="2.23943">
        <ele>232.8</ele>
        <time>2018-05-31T17:29:37Z</time>
      </trkpt>
      <trkpt lat="44.53055" lon="2.23938">
        <ele>232.8</ele>
        <time>2018-05-31T17:29:38Z</time>
      </trkpt>
      <trkpt lat="44.53057" lon="2.2393">
        <ele>232.7</ele>
        <time>2018-05-31T17:29:39Z</time>
      </trkpt>
      <trkpt lat="44.53056" lon="2.23923">
        <ele>232.6</ele>
        <time>2018-05-31T17:29:42Z</time>
      </trkpt>
      <trkpt lat="44.53055" lon="2.23915">
        <ele>232.6</ele>
        <time>2018-05-31T17:29:44Z</time>
      </trkpt>
      <trkpt lat="44.53056" lon="2.23908">
        <ele>232.5</ele>
        <time>2018-05-31T17:29:45Z</time>
      </trkpt>
      <trkpt lat="44.53058" lon="2.23902">
        <ele>232.5</ele>
        <time>2018-05-31T17:29:46Z</time>
      </trkpt>
      <trkpt lat="44.53059" lon="2.23898">
        <ele>232.4</ele>
        <time>2018-05-31T17:29:47Z</time>
      </trkpt>
      <trkpt lat="44.53061" lon="2.2389">
        <ele>232.4</ele>
        <time>2018-05-31T17:29:49Z</time>
      </trkpt>
      <trkpt lat="44.53063" lon="2.23885">
        <ele>232.3</ele>
        <time>2018-05-31T17:29:50Z</time>
      </trkpt>
      <trkpt lat="44.53062" lon="2.23874">
        <ele>232.3</ele>
        <time>2018-05-31T17:29:51Z</time>
      </trkpt>
      <trkpt lat="44.53063" lon="2.23864">
        <ele>232.2</ele>
        <time>2018-05-31T17:29:52Z</time>
      </trkpt>
      <trkpt lat="44.53066" lon="2.23854">
        <ele>232.1</ele>
        <time>2018-05-31T17:29:55Z</time>
      </trkpt>
      <trkpt lat="44.53067" lon="2.2385">
        <ele>232.1</ele>
        <time>2018-05-31T17:29:56Z</time>
      </trkpt>
      <trkpt lat="44.53066" lon="2.23845">
        <ele>232.1</ele>
        <time>2018-05-31T17:29:58Z</time>
      </trkpt>
      <trkpt lat="44.53068" lon="2.23841">
        <ele>232</ele>
        <time>2018-05-31T17:30:00Z</time>
      </trkpt>
      <trkpt lat="44.53069" lon="2.23836">
        <ele>232</ele>
        <time>2018-05-31T17:30:01Z</time>
      </trkpt>
      <trkpt lat="44.53067" lon="2.23829">
        <ele>232</ele>
        <time>2018-05-31T17:30:02Z</time>
      </trkpt>
      <trkpt lat="44.53065" lon="2.23822">
        <ele>232</ele>
        <time>2018-05-31T17:30:04Z</time>
      </trkpt>
      <trkpt lat="44.53064" lon="2.23816">
        <ele>232.1</ele>
        <time>2018-05-31T17:30:06Z</time>
      </trkpt>
      <trkpt lat="44.53063" lon="2.23812">
        <ele>232.1</ele>
        <time>2018-05-31T17:30:07Z</time>
      </trkpt>
      <trkpt lat="44.53064" lon="2.23808">
        <ele>232.2</ele>
        <time>2018-05-31T17:30:08Z</time>
      </trkpt>
      <trkpt lat="44.53066" lon="2.23802">
        <ele>232.3</ele>
        <time>2018-05-31T17:30:10Z</time>
      </trkpt>
      <trkpt lat="44.53069" lon="2.23796">
        <ele>232.5</ele>
        <time>2018-05-31T17:30:12Z</time>
      </trkpt>
      <trkpt lat="44.53071" lon="2.23792">
        <ele>232.6</ele>
        <time>2018-05-31T17:30:14Z</time>
      </trkpt>
      <trkpt lat="44.53073" lon="2.23783">
        <ele>232.7</ele>
        <time>2018-05-31T17:30:16Z</time>
      </trkpt>
      <trkpt lat="44.53074" lon="2.23779">
        <ele>232.8</ele>
        <time>2018-05-31T17:30:18Z</time>
      </trkpt>
      <trkpt lat="44.53076" lon="2.23772">
        <ele>232.9</ele>
        <time>2018-05-31T17:30:19Z</time>
      </trkpt>
      <trkpt lat="44.53078" lon="2.23761">
        <ele>233.2</ele>
        <time>2018-05-31T17:30:20Z</time>
      </trkpt>
      <trkpt lat="44.5308" lon="2.23754">
        <ele>233.4</ele>
        <time>2018-05-31T17:30:21Z</time>
      </trkpt>
      <trkpt lat="44.53081" lon="2.2375">
        <ele>233.6</ele>
        <time>2018-05-31T17:30:22Z</time>
      </trkpt>
      <trkpt lat="44.53083" lon="2.23742">
        <ele>233.8</ele>
        <time>2018-05-31T17:30:24Z</time>
      </trkpt>
      <trkpt lat="44.53083" lon="2.23738">
        <ele>234</ele>
        <time>2018-05-31T17:30:25Z</time>
      </trkpt>
      <trkpt lat="44.53085" lon="2.23732">
        <ele>234.2</ele>
        <time>2018-05-31T17:30:26Z</time>
      </trkpt>
      <trkpt lat="44.53086" lon="2.23728">
        <ele>234.3</ele>
        <time>2018-05-31T17:30:31Z</time>
      </trkpt>
      <trkpt lat="44.53087" lon="2.23723">
        <ele>234.5</ele>
        <time>2018-05-31T17:30:33Z</time>
      </trkpt>
      <trkpt lat="44.5309" lon="2.23718">
        <ele>234.7</ele>
        <time>2018-05-31T17:30:36Z</time>
      </trkpt>
      <trkpt lat="44.53093" lon="2.23716">
        <ele>234.9</ele>
        <time>2018-05-31T17:30:38Z</time>
      </trkpt>
      <trkpt lat="44.53095" lon="2.23709">
        <ele>235</ele>
        <time>2018-05-31T17:30:40Z</time>
      </trkpt>
      <trkpt lat="44.53098" lon="2.23706">
        <ele>235</ele>
        <time>2018-05-31T17:30:41Z</time>
      </trkpt>
      <trkpt lat="44.531" lon="2.23703">
        <ele>235</ele>
        <time>2018-05-31T17:30:42Z</time>
      </trkpt>
      <trkpt lat="44.53102" lon="2.23698">
        <ele>235</ele>
        <time>2018-05-31T17:30:43Z</time>
      </trkpt>
      <trkpt lat="44.53104" lon="2.23694">
        <ele>235</ele>
        <time>2018-05-31T17:30:44Z</time>
      </trkpt>
      <trkpt lat="44.53106" lon="2.23688">
        <ele>235</ele>
        <time>2018-05-31T17:30:47Z</time>
      </trkpt>
      <trkpt lat="44.53107" lon="2.23682">
        <ele>234.8</ele>
        <time>2018-05-31T17:30:50Z</time>
      </trkpt>
      <trkpt lat="44.53108" lon="2.23678">
        <ele>234.7</ele>
        <time>2018-05-31T17:30:51Z</time>
      </trkpt>
      <trkpt lat="44.5311" lon="2.23675">
        <ele>234.6</ele>
        <time>2018-05-31T17:30:52Z</time>
      </trkpt>
      <trkpt lat="44.53112" lon="2.23671">
        <ele>234.5</ele>
        <time>2018-05-31T17:30:53Z</time>
      </trkpt>
      <trkpt lat="44.53114" lon="2.23666">
        <ele>234.3</ele>
        <time>2018-05-31T17:30:54Z</time>
      </trkpt>
      <trkpt lat="44.53116" lon="2.23661">
        <ele>234.2</ele>
        <time>2018-05-31T17:30:55Z</time>
      </trkpt>
      <trkpt lat="44.53118" lon="2.23656">
        <ele>234.1</ele>
        <time>2018-05-31T17:30:56Z</time>
      </trkpt>
      <trkpt lat="44.5312" lon="2.23653">
        <ele>234</ele>
        <time>2018-05-31T17:30:57Z</time>
      </trkpt>
      <trkpt lat="44.53121" lon="2.23647">
        <ele>233.6</ele>
        <time>2018-05-31T17:30:58Z</time>
      </trkpt>
      <trkpt lat="44.53124" lon="2.23641">
        <ele>233.2</ele>
        <time>2018-05-31T17:31:00Z</time>
      </trkpt>
      <trkpt lat="44.53128" lon="2.23637">
        <ele>232.7</ele>
        <time>2018-05-31T17:31:02Z</time>
      </trkpt>
      <trkpt lat="44.5313" lon="2.23631">
        <ele>232.3</ele>
        <time>2018-05-31T17:31:03Z</time>
      </trkpt>
      <trkpt lat="44.53133" lon="2.23627">
        <ele>232</ele>
        <time>2018-05-31T17:31:04Z</time>
      </trkpt>
      <trkpt lat="44.53442" lon="2.23174">
        <ele>231.3</ele>
        <time>2018-05-31T17:33:39Z</time>
      </trkpt>
      <trkpt lat="44.53441" lon="2.23167">
        <ele>230.2</ele>
        <time>2018-05-31T17:33:40Z</time>
      </trkpt>
      <trkpt lat="44.53442" lon="2.23176">
        <ele>230.8</ele>
        <time>2018-05-31T17:33:42Z</time>
      </trkpt>
      <trkpt lat="44.53445" lon="2.23174">
        <ele>231.1</ele>
        <time>2018-05-31T17:33:44Z</time>
      </trkpt>
      <trkpt lat="44.5345" lon="2.23172">
        <ele>231.5</ele>
        <time>2018-05-31T17:33:45Z</time>
      </trkpt>
      <trkpt lat="44.53453" lon="2.23168">
        <ele>231.8</ele>
        <time>2018-05-31T17:33:48Z</time>
      </trkpt>
      <trkpt lat="44.53455" lon="2.23165">
        <ele>232.1</ele>
        <time>2018-05-31T17:33:49Z</time>
      </trkpt>
      <trkpt lat="44.53458" lon="2.23162">
        <ele>232.4</ele>
        <time>2018-05-31T17:33:51Z</time>
      </trkpt>
      <trkpt lat="44.53461" lon="2.23162">
        <ele>232.7</ele>
        <time>2018-05-31T17:33:52Z</time>
      </trkpt>
      <trkpt lat="44.53466" lon="2.2316">
        <ele>233.1</ele>
        <time>2018-05-31T17:33:55Z</time>
      </trkpt>
      <trkpt lat="44.53469" lon="2.23155">
        <ele>233.5</ele>
        <time>2018-05-31T17:33:57Z</time>
      </trkpt>
      <trkpt lat="44.53469" lon="2.23149">
        <ele>233.9</ele>
        <time>2018-05-31T17:33:58Z</time>
      </trkpt>
      <trkpt lat="44.53472" lon="2.23148">
        <ele>234.2</ele>
        <time>2018-05-31T17:34:01Z</time>
      </trkpt>
      <trkpt lat="44.53477" lon="2.23142">
        <ele>234.7</ele>
        <time>2018-05-31T17:34:03Z</time>
      </trkpt>
      <trkpt lat="44.53481" lon="2.23143">
        <ele>236</ele>
        <time>2018-05-31T17:34:05Z</time>
      </trkpt>
      <trkpt lat="44.53482" lon="2.23138">
        <ele>236</ele>
        <time>2018-05-31T17:34:06Z</time>
      </trkpt>
      <trkpt lat="44.53484" lon="2.23131">
        <ele>235.7</ele>
        <time>2018-05-31T17:34:07Z</time>
      </trkpt>
      <trkpt lat="44.53487" lon="2.23125">
        <ele>235.5</ele>
        <time>2018-05-31T17:34:08Z</time>
      </trkpt>
      <trkpt lat="44.53488" lon="2.23121">
        <ele>235.3</ele>
        <time>2018-05-31T17:34:09Z</time>
      </trkpt>
      <trkpt lat="44.53489" lon="2.23117">
        <ele>235.2</ele>
        <time>2018-05-31T17:34:11Z</time>
      </trkpt>
      <trkpt lat="44.5349" lon="2.23113">
        <ele>235</ele>
        <time>2018-05-31T17:34:12Z</time>
      </trkpt>
      <trkpt lat="44.53493" lon="2.23109">
        <ele>234.9</ele>
        <time>2018-05-31T17:34:13Z</time>
      </trkpt>
      <trkpt lat="44.53495" lon="2.23104">
        <ele>234.7</ele>
        <time>2018-05-31T17:34:14Z</time>
      </trkpt>
      <trkpt lat="44.535" lon="2.23096">
        <ele>234.3</ele>
        <time>2018-05-31T17:34:15Z</time>
      </trkpt>
      <trkpt lat="44.53499" lon="2.23091">
        <ele>234.2</ele>
        <time>2018-05-31T17:34:18Z</time>
      </trkpt>
      <trkpt lat="44.53502" lon="2.23087">
        <ele>234</ele>
        <time>2018-05-31T17:34:19Z</time>
      </trkpt>
      <trkpt lat="44.53503" lon="2.23084">
        <ele>233.9</ele>
        <time>2018-05-31T17:34:20Z</time>
      </trkpt>
      <trkpt lat="44.53507" lon="2.2308">
        <ele>233.5</ele>
        <time>2018-05-31T17:34:22Z</time>
      </trkpt>
      <trkpt lat="44.53507" lon="2.23074">
        <ele>233.1</ele>
        <time>2018-05-31T17:34:24Z</time>
      </trkpt>
      <trkpt lat="44.53511" lon="2.23071">
        <ele>232.7</ele>
        <time>2018-05-31T17:34:26Z</time>
      </trkpt>
      <trkpt lat="44.53514" lon="2.23066">
        <ele>232.3</ele>
        <time>2018-05-31T17:34:27Z</time>
      </trkpt>
      <trkpt lat="44.53517" lon="2.23059">
        <ele>231.5</ele>
        <time>2018-05-31T17:34:29Z</time>
      </trkpt>
      <trkpt lat="44.5352" lon="2.23056">
        <ele>231</ele>
        <time>2018-05-31T17:34:31Z</time>
      </trkpt>
      <trkpt lat="44.53526" lon="2.23061">
        <ele>231</ele>
        <time>2018-05-31T17:34:32Z</time>
      </trkpt>
      <trkpt lat="44.53529" lon="2.23053">
        <ele>231</ele>
        <time>2018-05-31T17:34:33Z</time>
      </trkpt>
      <trkpt lat="44.53539" lon="2.23045">
        <ele>237.3</ele>
        <time>2018-05-31T17:34:34Z</time>
      </trkpt>
      <trkpt lat="44.53538" lon="2.23035">
        <ele>238.5</ele>
        <time>2018-05-31T17:34:35Z</time>
      </trkpt>
      <trkpt lat="44.53535" lon="2.23024">
        <ele>239.7</ele>
        <time>2018-05-31T17:34:37Z</time>
      </trkpt>
      <trkpt lat="44.53531" lon="2.23022">
        <ele>240.3</ele>
        <time>2018-05-31T17:34:38Z</time>
      </trkpt>
      <trkpt lat="44.53537" lon="2.23028">
        <ele>241.5</ele>
        <time>2018-05-31T17:34:39Z</time>
      </trkpt>
      <trkpt lat="44.53535" lon="2.2302">
        <ele>242.6</ele>
        <time>2018-05-31T17:34:41Z</time>
      </trkpt>
      <trkpt lat="44.53536" lon="2.23015">
        <ele>243.2</ele>
        <time>2018-05-31T17:34:42Z</time>
      </trkpt>
      <trkpt lat="44.5354" lon="2.23016">
        <ele>243.7</ele>
        <time>2018-05-31T17:34:43Z</time>
      </trkpt>
      <trkpt lat="44.53539" lon="2.23009">
        <ele>244</ele>
        <time>2018-05-31T17:34:44Z</time>
      </trkpt>
      <trkpt lat="44.53539" lon="2.22997">
        <ele>244</ele>
        <time>2018-05-31T17:34:45Z</time>
      </trkpt>
      <trkpt lat="44.53551" lon="2.23">
        <ele>244.1</ele>
        <time>2018-05-31T17:34:46Z</time>
      </trkpt>
      <trkpt lat="44.53552" lon="2.22995">
        <ele>244.1</ele>
        <time>2018-05-31T17:34:47Z</time>
      </trkpt>
      <trkpt lat="44.53554" lon="2.22992">
        <ele>244.1</ele>
        <time>2018-05-31T17:34:48Z</time>
      </trkpt>
      <trkpt lat="44.53562" lon="2.22985">
        <ele>244.4</ele>
        <time>2018-05-31T17:34:50Z</time>
      </trkpt>
      <trkpt lat="44.53566" lon="2.22983">
        <ele>244.4</ele>
        <time>2018-05-31T17:34:51Z</time>
      </trkpt>
      <trkpt lat="44.53569" lon="2.22978">
        <ele>244.3</ele>
        <time>2018-05-31T17:34:52Z</time>
      </trkpt>
      <trkpt lat="44.53565" lon="2.22979">
        <ele>244</ele>
        <time>2018-05-31T17:34:54Z</time>
      </trkpt>
      <trkpt lat="44.53561" lon="2.22974">
        <ele>243.7</ele>
        <time>2018-05-31T17:34:55Z</time>
      </trkpt>
      <trkpt lat="44.53561" lon="2.22963">
        <ele>243.4</ele>
        <time>2018-05-31T17:34:56Z</time>
      </trkpt>
      <trkpt lat="44.53568" lon="2.22962">
        <ele>243</ele>
        <time>2018-05-31T17:34:57Z</time>
      </trkpt>
      <trkpt lat="44.53568" lon="2.22968">
        <ele>242.7</ele>
        <time>2018-05-31T17:34:58Z</time>
      </trkpt>
      <trkpt lat="44.5357" lon="2.22959">
        <ele>242.4</ele>
        <time>2018-05-31T17:34:59Z</time>
      </trkpt>
      <trkpt lat="44.53572" lon="2.22953">
        <ele>242.2</ele>
        <time>2018-05-31T17:35:00Z</time>
      </trkpt>
      <trkpt lat="44.53575" lon="2.22947">
        <ele>241.9</ele>
        <time>2018-05-31T17:35:02Z</time>
      </trkpt>
      <trkpt lat="44.53579" lon="2.22949">
        <ele>241.7</ele>
        <time>2018-05-31T17:35:03Z</time>
      </trkpt>
      <trkpt lat="44.53584" lon="2.22963">
        <ele>241.1</ele>
        <time>2018-05-31T17:35:04Z</time>
      </trkpt>
      <trkpt lat="44.53583" lon="2.22957">
        <ele>241</ele>
        <time>2018-05-31T17:35:05Z</time>
      </trkpt>
      <trkpt lat="44.53589" lon="2.22956">
        <ele>240.7</ele>
        <time>2018-05-31T17:35:07Z</time>
      </trkpt>
      <trkpt lat="44.53595" lon="2.22958">
        <ele>240.3</ele>
        <time>2018-05-31T17:35:08Z</time>
      </trkpt>
      <trkpt lat="44.53596" lon="2.22954">
        <ele>240.2</ele>
        <time>2018-05-31T17:35:09Z</time>
      </trkpt>
      <trkpt lat="44.53595" lon="2.22946">
        <ele>239.9</ele>
        <time>2018-05-31T17:35:10Z</time>
      </trkpt>
      <trkpt lat="44.53602" lon="2.22952">
        <ele>239.5</ele>
        <time>2018-05-31T17:35:13Z</time>
      </trkpt>
      <trkpt lat="44.53601" lon="2.22951">
        <ele>239</ele>
        <time>2018-05-31T17:35:16Z</time>
      </trkpt>
      <trkpt lat="44.53598" lon="2.22946">
        <ele>238.9</ele>
        <time>2018-05-31T17:35:17Z</time>
      </trkpt>
      <trkpt lat="44.53611" lon="2.2295">
        <ele>238.8</ele>
        <time>2018-05-31T17:35:18Z</time>
      </trkpt>
      <trkpt lat="44.53615" lon="2.2295">
        <ele>238.7</ele>
        <time>2018-05-31T17:35:19Z</time>
      </trkpt>
      <trkpt lat="44.53616" lon="2.22954">
        <ele>238.7</ele>
        <time>2018-05-31T17:35:20Z</time>
      </trkpt>
      <trkpt lat="44.5362" lon="2.22951">
        <ele>238.7</ele>
        <time>2018-05-31T17:35:21Z</time>
      </trkpt>
      <trkpt lat="44.53617" lon="2.22947">
        <ele>238.6</ele>
        <time>2018-05-31T17:35:22Z</time>
      </trkpt>
      <trkpt lat="44.5362" lon="2.22951">
        <ele>238.6</ele>
        <time>2018-05-31T17:35:23Z</time>
      </trkpt>
      <trkpt lat="44.53621" lon="2.22944">
        <ele>238.5</ele>
        <time>2018-05-31T17:35:24Z</time>
      </trkpt>
      <trkpt lat="44.53625" lon="2.22945">
        <ele>238.5</ele>
        <time>2018-05-31T17:35:25Z</time>
      </trkpt>
      <trkpt lat="44.53631" lon="2.22949">
        <ele>238.4</ele>
        <time>2018-05-31T17:35:26Z</time>
      </trkpt>
      <trkpt lat="44.53634" lon="2.2295">
        <ele>238.3</ele>
        <time>2018-05-31T17:35:27Z</time>
      </trkpt>
      <trkpt lat="44.53638" lon="2.22955">
        <ele>238.3</ele>
        <time>2018-05-31T17:35:28Z</time>
      </trkpt>
      <trkpt lat="44.5364" lon="2.22949">
        <ele>238.2</ele>
        <time>2018-05-31T17:35:29Z</time>
      </trkpt>
      <trkpt lat="44.53645" lon="2.22945">
        <ele>238.1</ele>
        <time>2018-05-31T17:35:30Z</time>
      </trkpt>
      <trkpt lat="44.53651" lon="2.22944">
        <ele>238.1</ele>
        <time>2018-05-31T17:35:31Z</time>
      </trkpt>
      <trkpt lat="44.53654" lon="2.22941">
        <ele>238</ele>
        <time>2018-05-31T17:35:32Z</time>
      </trkpt>
      <trkpt lat="44.53658" lon="2.22942">
        <ele>238</ele>
        <time>2018-05-31T17:35:34Z</time>
      </trkpt>
      <trkpt lat="44.5366" lon="2.22939">
        <ele>237.9</ele>
        <time>2018-05-31T17:35:35Z</time>
      </trkpt>
      <trkpt lat="44.53662" lon="2.22935">
        <ele>237.9</ele>
        <time>2018-05-31T17:35:36Z</time>
      </trkpt>
      <trkpt lat="44.53668" lon="2.22934">
        <ele>237.7</ele>
        <time>2018-05-31T17:35:37Z</time>
      </trkpt>
      <trkpt lat="44.53671" lon="2.22933">
        <ele>237.7</ele>
        <time>2018-05-31T17:35:38Z</time>
      </trkpt>
      <trkpt lat="44.53676" lon="2.22932">
        <ele>237.5</ele>
        <time>2018-05-31T17:35:39Z</time>
      </trkpt>
      <trkpt lat="44.53676" lon="2.22927">
        <ele>237.4</ele>
        <time>2018-05-31T17:35:40Z</time>
      </trkpt>
      <trkpt lat="44.53676" lon="2.22914">
        <ele>237.2</ele>
        <time>2018-05-31T17:35:42Z</time>
      </trkpt>
      <trkpt lat="44.53676" lon="2.22907">
        <ele>237</ele>
        <time>2018-05-31T17:35:44Z</time>
      </trkpt>
      <trkpt lat="44.53676" lon="2.22901">
        <ele>236.9</ele>
        <time>2018-05-31T17:35:45Z</time>
      </trkpt>
      <trkpt lat="44.53679" lon="2.22902">
        <ele>236.8</ele>
        <time>2018-05-31T17:35:46Z</time>
      </trkpt>
      <trkpt lat="44.53683" lon="2.22902">
        <ele>236.7</ele>
        <time>2018-05-31T17:35:47Z</time>
      </trkpt>
      <trkpt lat="44.53687" lon="2.229">
        <ele>236.6</ele>
        <time>2018-05-31T17:35:48Z</time>
      </trkpt>
      <trkpt lat="44.53686" lon="2.22905">
        <ele>236.5</ele>
        <time>2018-05-31T17:35:49Z</time>
      </trkpt>
      <trkpt lat="44.53689" lon="2.22899">
        <ele>236.4</ele>
        <time>2018-05-31T17:35:50Z</time>
      </trkpt>
      <trkpt lat="44.53692" lon="2.22898">
        <ele>236.3</ele>
        <time>2018-05-31T17:35:52Z</time>
      </trkpt>
      <trkpt lat="44.53695" lon="2.22909">
        <ele>236.1</ele>
        <time>2018-05-31T17:35:53Z</time>
      </trkpt>
      <trkpt lat="44.53697" lon="2.22913">
        <ele>236</ele>
        <time>2018-05-31T17:35:54Z</time>
      </trkpt>
      <trkpt lat="44.537" lon="2.22909">
        <ele>235.8</ele>
        <time>2018-05-31T17:35:56Z</time>
      </trkpt>
      <trkpt lat="44.53699" lon="2.22912">
        <ele>235.8</ele>
        <time>2018-05-31T17:35:57Z</time>
      </trkpt>
      <trkpt lat="44.53704" lon="2.22918">
        <ele>235.6</ele>
        <time>2018-05-31T17:35:58Z</time>
      </trkpt>
      <trkpt lat="44.53704" lon="2.2291">
        <ele>235.4</ele>
        <time>2018-05-31T17:36:00Z</time>
      </trkpt>
      <trkpt lat="44.53707" lon="2.22903">
        <ele>235.3</ele>
        <time>2018-05-31T17:36:02Z</time>
      </trkpt>
      <trkpt lat="44.53713" lon="2.22902">
        <ele>235.2</ele>
        <time>2018-05-31T17:36:03Z</time>
      </trkpt>
      <trkpt lat="44.53715" lon="2.22905">
        <ele>235.2</ele>
        <time>2018-05-31T17:36:04Z</time>
      </trkpt>
      <trkpt lat="44.54126" lon="2.22657">
        <ele>229.2</ele>
        <time>2018-05-31T17:38:52Z</time>
      </trkpt>
      <trkpt lat="44.5413" lon="2.2265">
        <ele>227.5</ele>
        <time>2018-05-31T17:38:53Z</time>
      </trkpt>
      <trkpt lat="44.54135" lon="2.22645">
        <ele>228</ele>
        <time>2018-05-31T17:38:54Z</time>
      </trkpt>
      <trkpt lat="44.5414" lon="2.2264">
        <ele>228.6</ele>
        <time>2018-05-31T17:38:55Z</time>
      </trkpt>
      <trkpt lat="44.54144" lon="2.22637">
        <ele>229.2</ele>
        <time>2018-05-31T17:38:57Z</time>
      </trkpt>
      <trkpt lat="44.54148" lon="2.22631">
        <ele>228.7</ele>
        <time>2018-05-31T17:38:58Z</time>
      </trkpt>
      <trkpt lat="44.54151" lon="2.22629">
        <ele>228.4</ele>
        <time>2018-05-31T17:39:00Z</time>
      </trkpt>
      <trkpt lat="44.54155" lon="2.22626">
        <ele>227.9</ele>
        <time>2018-05-31T17:39:01Z</time>
      </trkpt>
      <trkpt lat="44.54162" lon="2.22619">
        <ele>227.3</ele>
        <time>2018-05-31T17:39:02Z</time>
      </trkpt>
      <trkpt lat="44.54165" lon="2.22615">
        <ele>227.1</ele>
        <time>2018-05-31T17:39:03Z</time>
      </trkpt>
      <trkpt lat="44.54169" lon="2.22611">
        <ele>227</ele>
        <time>2018-05-31T17:39:04Z</time>
      </trkpt>
      <trkpt lat="44.54175" lon="2.22605">
        <ele>227</ele>
        <time>2018-05-31T17:39:06Z</time>
      </trkpt>
      <trkpt lat="44.54181" lon="2.22612">
        <ele>227.3</ele>
        <time>2018-05-31T17:39:07Z</time>
      </trkpt>
      <trkpt lat="44.54184" lon="2.22613">
        <ele>227.5</ele>
        <time>2018-05-31T17:39:09Z</time>
      </trkpt>
      <trkpt lat="44.54185" lon="2.22609">
        <ele>227.6</ele>
        <time>2018-05-31T17:39:10Z</time>
      </trkpt>
      <trkpt lat="44.54188" lon="2.22605">
        <ele>227.6</ele>
        <time>2018-05-31T17:39:12Z</time>
      </trkpt>
      <trkpt lat="44.5419" lon="2.22602">
        <ele>227.7</ele>
        <time>2018-05-31T17:39:13Z</time>
      </trkpt>
      <trkpt lat="44.54193" lon="2.22598">
        <ele>227.8</ele>
        <time>2018-05-31T17:39:15Z</time>
      </trkpt>
      <trkpt lat="44.54198" lon="2.22592">
        <ele>227.9</ele>
        <time>2018-05-31T17:39:16Z</time>
      </trkpt>
      <trkpt lat="44.54204" lon="2.22586">
        <ele>228</ele>
        <time>2018-05-31T17:39:17Z</time>
      </trkpt>
      <trkpt lat="44.54211" lon="2.2258">
        <ele>228.2</ele>
        <time>2018-05-31T17:39:19Z</time>
      </trkpt>
      <trkpt lat="44.54214" lon="2.22577">
        <ele>228.3</ele>
        <time>2018-05-31T17:39:20Z</time>
      </trkpt>
      <trkpt lat="44.54217" lon="2.2257">
        <ele>228.4</ele>
        <time>2018-05-31T17:39:23Z</time>
      </trkpt>
      <trkpt lat="44.54219" lon="2.22567">
        <ele>228.5</ele>
        <time>2018-05-31T17:39:24Z</time>
      </trkpt>
      <trkpt lat="44.54229" lon="2.22559">
        <ele>228.7</ele>
        <time>2018-05-31T17:39:26Z</time>
      </trkpt>
      <trkpt lat="44.54232" lon="2.22555">
        <ele>228.8</ele>
        <time>2018-05-31T17:39:29Z</time>
      </trkpt>
      <trkpt lat="44.54234" lon="2.22552">
        <ele>229</ele>
        <time>2018-05-31T17:39:30Z</time>
      </trkpt>
      <trkpt lat="44.54236" lon="2.2255">
        <ele>229.1</ele>
        <time>2018-05-31T17:39:31Z</time>
      </trkpt>
      <trkpt lat="44.54243" lon="2.22546">
        <ele>229.4</ele>
        <time>2018-05-31T17:39:32Z</time>
      </trkpt>
      <trkpt lat="44.54245" lon="2.22543">
        <ele>229.6</ele>
        <time>2018-05-31T17:39:34Z</time>
      </trkpt>
      <trkpt lat="44.5425" lon="2.2254">
        <ele>229.9</ele>
        <time>2018-05-31T17:39:39Z</time>
      </trkpt>
      <trkpt lat="44.54259" lon="2.22534">
        <ele>230.4</ele>
        <time>2018-05-31T17:39:41Z</time>
      </trkpt>
      <trkpt lat="44.54264" lon="2.2253">
        <ele>230.7</ele>
        <time>2018-05-31T17:39:44Z</time>
      </trkpt>
      <trkpt lat="44.54269" lon="2.22528">
        <ele>231</ele>
        <time>2018-05-31T17:39:46Z</time>
      </trkpt>
      <trkpt lat="44.54272" lon="2.22525">
        <ele>231.2</ele>
        <time>2018-05-31T17:39:47Z</time>
      </trkpt>
      <trkpt lat="44.54276" lon="2.22521">
        <ele>231.4</ele>
        <time>2018-05-31T17:39:48Z</time>
      </trkpt>
      <trkpt lat="44.54278" lon="2.22519">
        <ele>231.6</ele>
        <time>2018-05-31T17:39:50Z</time>
      </trkpt>
      <trkpt lat="44.54281" lon="2.22517">
        <ele>231.7</ele>
        <time>2018-05-31T17:39:51Z</time>
      </trkpt>
      <trkpt lat="44.54284" lon="2.22517">
        <ele>231.8</ele>
        <time>2018-05-31T17:39:52Z</time>
      </trkpt>
      <trkpt lat="44.54287" lon="2.22513">
        <ele>231.9</ele>
        <time>2018-05-31T17:39:53Z</time>
      </trkpt>
      <trkpt lat="44.54289" lon="2.22511">
        <ele>232</ele>
        <time>2018-05-31T17:39:54Z</time>
      </trkpt>
      <trkpt lat="44.54294" lon="2.22508">
        <ele>232.1</ele>
        <time>2018-05-31T17:39:55Z</time>
      </trkpt>
      <trkpt lat="44.54298" lon="2.22505">
        <ele>232.3</ele>
        <time>2018-05-31T17:39:57Z</time>
      </trkpt>
      <trkpt lat="44.54302" lon="2.22502">
        <ele>232.4</ele>
        <time>2018-05-31T17:39:58Z</time>
      </trkpt>
      <trkpt lat="44.54305" lon="2.22499">
        <ele>232.5</ele>
        <time>2018-05-31T17:40:00Z</time>
      </trkpt>
      <trkpt lat="44.54308" lon="2.22497">
        <ele>232.6</ele>
        <time>2018-05-31T17:40:01Z</time>
      </trkpt>
      <trkpt lat="44.54312" lon="2.22492">
        <ele>232.7</ele>
        <time>2018-05-31T17:40:04Z</time>
      </trkpt>
      <trkpt lat="44.54315" lon="2.2249">
        <ele>232.8</ele>
        <time>2018-05-31T17:40:06Z</time>
      </trkpt>
      <trkpt lat="44.54323" lon="2.22485">
        <ele>233.1</ele>
        <time>2018-05-31T17:40:08Z</time>
      </trkpt>
      <trkpt lat="44.54326" lon="2.22482">
        <ele>233.1</ele>
        <time>2018-05-31T17:40:10Z</time>
      </trkpt>
      <trkpt lat="44.5433" lon="2.22481">
        <ele>233.3</ele>
        <time>2018-05-31T17:40:13Z</time>
      </trkpt>
      <trkpt lat="44.54336" lon="2.22477">
        <ele>233.5</ele>
        <time>2018-05-31T17:40:15Z</time>
      </trkpt>
      <trkpt lat="44.54342" lon="2.22472">
        <ele>233.7</ele>
        <time>2018-05-31T17:40:16Z</time>
      </trkpt>
      <trkpt lat="44.54344" lon="2.22468">
        <ele>233.9</ele>
        <time>2018-05-31T17:40:18Z</time>
      </trkpt>
      <trkpt lat="44.5435" lon="2.22466">
        <ele>234.1</ele>
        <time>2018-05-31T17:40:21Z</time>
      </trkpt>
      <trkpt lat="44.54358" lon="2.22463">
        <ele>234.4</ele>
        <time>2018-05-31T17:40:25Z</time>
      </trkpt>
      <trkpt lat="44.54364" lon="2.22458">
        <ele>234.6</ele>
        <time>2018-05-31T17:40:27Z</time>
      </trkpt>
      <trkpt lat="44.54366" lon="2.22464">
        <ele>234.8</ele>
        <time>2018-05-31T17:40:31Z</time>
      </trkpt>
      <trkpt lat="44.54369" lon="2.22462">
        <ele>235</ele>
        <time>2018-05-31T17:40:32Z</time>
      </trkpt>
      <trkpt lat="44.54373" lon="2.22465">
        <ele>235</ele>
        <time>2018-05-31T17:40:34Z</time>
      </trkpt>
      <trkpt lat="44.54376" lon="2.22473">
        <ele>235</ele>
        <time>2018-05-31T17:40:36Z</time>
      </trkpt>
      <trkpt lat="44.54379" lon="2.2247">
        <ele>235</ele>
        <time>2018-05-31T17:40:37Z</time>
      </trkpt>
      <trkpt lat="44.54382" lon="2.22466">
        <ele>235</ele>
        <time>2018-05-31T17:40:38Z</time>
      </trkpt>
      <trkpt lat="44.54385" lon="2.22472">
        <ele>235</ele>
        <time>2018-05-31T17:40:39Z</time>
      </trkpt>
      <trkpt lat="44.54388" lon="2.2247">
        <ele>235</ele>
        <time>2018-05-31T17:40:40Z</time>
      </trkpt>
      <trkpt lat="44.54391" lon="2.22476">
        <ele>235</ele>
        <time>2018-05-31T17:40:41Z</time>
      </trkpt>
      <trkpt lat="44.54394" lon="2.22478">
        <ele>235</ele>
        <time>2018-05-31T17:40:43Z</time>
      </trkpt>
      <trkpt lat="44.54395" lon="2.22481">
        <ele>235</ele>
        <time>2018-05-31T17:40:44Z</time>
      </trkpt>
      <trkpt lat="44.54397" lon="2.22485">
        <ele>235</ele>
        <time>2018-05-31T17:40:45Z</time>
      </trkpt>
      <trkpt lat="44.54393" lon="2.22489">
        <ele>235</ele>
        <time>2018-05-31T17:40:46Z</time>
      </trkpt>
      <trkpt lat="44.54397" lon="2.22494">
        <ele>231.8</ele>
        <time>2018-05-31T17:40:47Z</time>
      </trkpt>
      <trkpt lat="44.54401" lon="2.225">
        <ele>228.4</ele>
        <time>2018-05-31T17:40:49Z</time>
      </trkpt>
      <trkpt lat="44.54405" lon="2.22504">
        <ele>225.3</ele>
        <time>2018-05-31T17:40:52Z</time>
      </trkpt>
      <trkpt lat="44.54408" lon="2.22509">
        <ele>222.4</ele>
        <time>2018-05-31T17:40:53Z</time>
      </trkpt>
      <trkpt lat="44.5441" lon="2.22513">
        <ele>220.4</ele>
        <time>2018-05-31T17:40:54Z</time>
      </trkpt>
      <trkpt lat="44.54416" lon="2.2252">
        <ele>214.2</ele>
        <time>2018-05-31T17:40:56Z</time>
      </trkpt>
      <trkpt lat="44.54417" lon="2.22525">
        <ele>212</ele>
        <time>2018-05-31T17:40:57Z</time>
      </trkpt>
      <trkpt lat="44.54419" lon="2.22529">
        <ele>212</ele>
        <time>2018-05-31T17:40:59Z</time>
      </trkpt>
      <trkpt lat="44.54421" lon="2.2253">
        <ele>212</ele>
        <time>2018-05-31T17:41:01Z</time>
      </trkpt>
      <trkpt lat="44.54424" lon="2.22533">
        <ele>212</ele>
        <time>2018-05-31T17:41:02Z</time>
      </trkpt>
      <trkpt lat="44.54425" lon="2.22536">
        <ele>212</ele>
        <time>2018-05-31T17:41:04Z</time>
      </trkpt>
      <trkpt lat="44.54528" lon="2.22749">
        <ele>220.6</ele>
        <time>2018-05-31T17:42:17Z</time>
      </trkpt>
      <trkpt lat="44.54549" lon="2.22774">
        <ele>221.9</ele>
        <time>2018-05-31T17:42:19Z</time>
      </trkpt>
      <trkpt lat="44.54549" lon="2.22778">
        <ele>221.9</ele>
        <time>2018-05-31T17:42:20Z</time>
      </trkpt>
      <trkpt lat="44.5455" lon="2.22773">
        <ele>221.9</ele>
        <time>2018-05-31T17:42:21Z</time>
      </trkpt>
      <trkpt lat="44.54552" lon="2.22778">
        <ele>221.9</ele>
        <time>2018-05-31T17:42:23Z</time>
      </trkpt>
      <trkpt lat="44.54555" lon="2.22782">
        <ele>221.9</ele>
        <time>2018-05-31T17:42:24Z</time>
      </trkpt>
      <trkpt lat="44.54557" lon="2.22787">
        <ele>221.9</ele>
        <time>2018-05-31T17:42:25Z</time>
      </trkpt>
      <trkpt lat="44.54561" lon="2.22793">
        <ele>221.9</ele>
        <time>2018-05-31T17:42:27Z</time>
      </trkpt>
      <trkpt lat="44.5456" lon="2.22798">
        <ele>221.8</ele>
        <time>2018-05-31T17:42:29Z</time>
      </trkpt>
      <trkpt lat="44.54563" lon="2.22801">
        <ele>221.8</ele>
        <time>2018-05-31T17:42:30Z</time>
      </trkpt>
      <trkpt lat="44.54565" lon="2.22807">
        <ele>221.8</ele>
        <time>2018-05-31T17:42:32Z</time>
      </trkpt>
      <trkpt lat="44.5457" lon="2.22815">
        <ele>221.8</ele>
        <time>2018-05-31T17:42:34Z</time>
      </trkpt>
      <trkpt lat="44.54573" lon="2.22824">
        <ele>221.8</ele>
        <time>2018-05-31T17:42:37Z</time>
      </trkpt>
      <trkpt lat="44.54574" lon="2.22827">
        <ele>221.7</ele>
        <time>2018-05-31T17:42:38Z</time>
      </trkpt>
      <trkpt lat="44.54575" lon="2.22831">
        <ele>221.7</ele>
        <time>2018-05-31T17:42:39Z</time>
      </trkpt>
      <trkpt lat="44.54577" lon="2.22834">
        <ele>221.7</ele>
        <time>2018-05-31T17:42:40Z</time>
      </trkpt>
      <trkpt lat="44.54578" lon="2.22838">
        <ele>221.7</ele>
        <time>2018-05-31T17:42:41Z</time>
      </trkpt>
      <trkpt lat="44.54579" lon="2.22842">
        <ele>221.7</ele>
        <time>2018-05-31T17:42:42Z</time>
      </trkpt>
      <trkpt lat="44.54582" lon="2.22844">
        <ele>221.7</ele>
        <time>2018-05-31T17:42:43Z</time>
      </trkpt>
      <trkpt lat="44.54582" lon="2.22848">
        <ele>221.7</ele>
        <time>2018-05-31T17:42:44Z</time>
      </trkpt>
      <trkpt lat="44.54581" lon="2.22853">
        <ele>221.7</ele>
        <time>2018-05-31T17:42:46Z</time>
      </trkpt>
      <trkpt lat="44.54584" lon="2.22859">
        <ele>221.7</ele>
        <time>2018-05-31T17:42:48Z</time>
      </trkpt>
      <trkpt lat="44.54586" lon="2.22867">
        <ele>221.7</ele>
        <time>2018-05-31T17:42:50Z</time>
      </trkpt>
      <trkpt lat="44.54589" lon="2.22872">
        <ele>221.7</ele>
        <time>2018-05-31T17:42:52Z</time>
      </trkpt>
      <trkpt lat="44.54589" lon="2.22879">
        <ele>221.7</ele>
        <time>2018-05-31T17:42:54Z</time>
      </trkpt>
      <trkpt lat="44.54591" lon="2.22886">
        <ele>221.7</ele>
        <time>2018-05-31T17:42:56Z</time>
      </trkpt>
      <trkpt lat="44.54593" lon="2.22891">
        <ele>221.7</ele>
        <time>2018-05-31T17:42:57Z</time>
      </trkpt>
      <trkpt lat="44.5459" lon="2.22895">
        <ele>221.7</ele>
        <time>2018-05-31T17:42:58Z</time>
      </trkpt>
      <trkpt lat="44.54585" lon="2.22894">
        <ele>221.7</ele>
        <time>2018-05-31T17:42:59Z</time>
      </trkpt>
      <trkpt lat="44.54588" lon="2.22897">
        <ele>221.7</ele>
        <time>2018-05-31T17:43:00Z</time>
      </trkpt>
      <trkpt lat="44.54588" lon="2.22902">
        <ele>221.7</ele>
        <time>2018-05-31T17:43:01Z</time>
      </trkpt>
      <trkpt lat="44.5459" lon="2.22908">
        <ele>221.7</ele>
        <time>2018-05-31T17:43:03Z</time>
      </trkpt>
      <trkpt lat="44.54589" lon="2.22913">
        <ele>221.7</ele>
        <time>2018-05-31T17:43:05Z</time>
      </trkpt>
      <trkpt lat="44.54589" lon="2.22918">
        <ele>221.7</ele>
        <time>2018-05-31T17:43:07Z</time>
      </trkpt>
      <trkpt lat="44.54586" lon="2.22917">
        <ele>221.7</ele>
        <time>2018-05-31T17:43:09Z</time>
      </trkpt>
      <trkpt lat="44.54584" lon="2.22926">
        <ele>221.7</ele>
        <time>2018-05-31T17:43:11Z</time>
      </trkpt>
      <trkpt lat="44.54589" lon="2.22932">
        <ele>221.7</ele>
        <time>2018-05-31T17:43:12Z</time>
      </trkpt>
      <trkpt lat="44.54591" lon="2.2294">
        <ele>221.7</ele>
        <time>2018-05-31T17:43:14Z</time>
      </trkpt>
      <trkpt lat="44.54603" lon="2.22947">
        <ele>221.8</ele>
        <time>2018-05-31T17:43:15Z</time>
      </trkpt>
      <trkpt lat="44.54611" lon="2.22966">
        <ele>221.8</ele>
        <time>2018-05-31T17:43:16Z</time>
      </trkpt>
      <trkpt lat="44.5461" lon="2.22971">
        <ele>221.8</ele>
        <time>2018-05-31T17:43:17Z</time>
      </trkpt>
      <trkpt lat="44.54611" lon="2.22976">
        <ele>221.9</ele>
        <time>2018-05-31T17:43:18Z</time>
      </trkpt>
      <trkpt lat="44.5461" lon="2.22982">
        <ele>221.9</ele>
        <time>2018-05-31T17:43:19Z</time>
      </trkpt>
      <trkpt lat="44.54611" lon="2.22993">
        <ele>221.9</ele>
        <time>2018-05-31T17:43:22Z</time>
      </trkpt>
      <trkpt lat="44.54611" lon="2.22997">
        <ele>221.9</ele>
        <time>2018-05-31T17:43:23Z</time>
      </trkpt>
      <trkpt lat="44.54614" lon="2.23002">
        <ele>221.9</ele>
        <time>2018-05-31T17:43:24Z</time>
      </trkpt>
      <trkpt lat="44.54613" lon="2.23007">
        <ele>221.9</ele>
        <time>2018-05-31T17:43:26Z</time>
      </trkpt>
      <trkpt lat="44.54614" lon="2.23012">
        <ele>221.9</ele>
        <time>2018-05-31T17:43:27Z</time>
      </trkpt>
      <trkpt lat="44.54618" lon="2.2302">
        <ele>222</ele>
        <time>2018-05-31T17:43:31Z</time>
      </trkpt>
      <trkpt lat="44.5462" lon="2.23023">
        <ele>222</ele>
        <time>2018-05-31T17:43:32Z</time>
      </trkpt>
      <trkpt lat="44.54624" lon="2.2303">
        <ele>222</ele>
        <time>2018-05-31T17:43:33Z</time>
      </trkpt>
      <trkpt lat="44.54627" lon="2.23035">
        <ele>222</ele>
        <time>2018-05-31T17:43:35Z</time>
      </trkpt>
      <trkpt lat="44.5463" lon="2.23035">
        <ele>222</ele>
        <time>2018-05-31T17:43:36Z</time>
      </trkpt>
      <trkpt lat="44.54635" lon="2.23043">
        <ele>222</ele>
        <time>2018-05-31T17:43:38Z</time>
      </trkpt>
      <trkpt lat="44.54637" lon="2.23046">
        <ele>222</ele>
        <time>2018-05-31T17:43:39Z</time>
      </trkpt>
      <trkpt lat="44.54639" lon="2.23051">
        <ele>222</ele>
        <time>2018-05-31T17:43:40Z</time>
      </trkpt>
      <trkpt lat="44.54643" lon="2.23056">
        <ele>222</ele>
        <time>2018-05-31T17:43:41Z</time>
      </trkpt>
      <trkpt lat="44.54648" lon="2.23062">
        <ele>222.2</ele>
        <time>2018-05-31T17:43:42Z</time>
      </trkpt>
      <trkpt lat="44.54651" lon="2.23064">
        <ele>222.2</ele>
        <time>2018-05-31T17:43:43Z</time>
      </trkpt>
      <trkpt lat="44.54655" lon="2.23062">
        <ele>222.3</ele>
        <time>2018-05-31T17:43:45Z</time>
      </trkpt>
      <trkpt lat="44.54658" lon="2.23064">
        <ele>222.4</ele>
        <time>2018-05-31T17:43:46Z</time>
      </trkpt>
      <trkpt lat="44.54662" lon="2.23068">
        <ele>222.5</ele>
        <time>2018-05-31T17:43:47Z</time>
      </trkpt>
      <trkpt lat="44.54665" lon="2.23067">
        <ele>222.6</ele>
        <time>2018-05-31T17:43:48Z</time>
      </trkpt>
      <trkpt lat="44.54669" lon="2.23068">
        <ele>222.6</ele>
        <time>2018-05-31T17:43:49Z</time>
      </trkpt>
      <trkpt lat="44.54674" lon="2.23067">
        <ele>222.7</ele>
        <time>2018-05-31T17:43:51Z</time>
      </trkpt>
      <trkpt lat="44.54677" lon="2.23062">
        <ele>222.8</ele>
        <time>2018-05-31T17:43:54Z</time>
      </trkpt>
      <trkpt lat="44.54681" lon="2.2306">
        <ele>222.9</ele>
        <time>2018-05-31T17:43:56Z</time>
      </trkpt>
      <trkpt lat="44.54684" lon="2.23059">
        <ele>223.1</ele>
        <time>2018-05-31T17:43:58Z</time>
      </trkpt>
      <trkpt lat="44.54688" lon="2.23061">
        <ele>223.1</ele>
        <time>2018-05-31T17:44:00Z</time>
      </trkpt>
      <trkpt lat="44.54693" lon="2.23064">
        <ele>223.2</ele>
        <time>2018-05-31T17:44:03Z</time>
      </trkpt>
      <trkpt lat="44.54695" lon="2.23071">
        <ele>223.3</ele>
        <time>2018-05-31T17:44:06Z</time>
      </trkpt>
      <trkpt lat="44.54698" lon="2.23077">
        <ele>223.3</ele>
        <time>2018-05-31T17:44:07Z</time>
      </trkpt>
      <trkpt lat="44.54698" lon="2.23082">
        <ele>223.4</ele>
        <time>2018-05-31T17:44:09Z</time>
      </trkpt>
      <trkpt lat="44.547" lon="2.23088">
        <ele>223.4</ele>
        <time>2018-05-31T17:44:10Z</time>
      </trkpt>
      <trkpt lat="44.54699" lon="2.23092">
        <ele>223.5</ele>
        <time>2018-05-31T17:44:11Z</time>
      </trkpt>
      <trkpt lat="44.54701" lon="2.23097">
        <ele>223.5</ele>
        <time>2018-05-31T17:44:13Z</time>
      </trkpt>
      <trkpt lat="44.54701" lon="2.23102">
        <ele>223.5</ele>
        <time>2018-05-31T17:44:15Z</time>
      </trkpt>
      <trkpt lat="44.547" lon="2.23107">
        <ele>223.6</ele>
        <time>2018-05-31T17:44:16Z</time>
      </trkpt>
      <trkpt lat="44.54696" lon="2.23114">
        <ele>223.6</ele>
        <time>2018-05-31T17:44:18Z</time>
      </trkpt>
      <trkpt lat="44.54694" lon="2.23118">
        <ele>223.6</ele>
        <time>2018-05-31T17:44:20Z</time>
      </trkpt>
      <trkpt lat="44.54695" lon="2.23123">
        <ele>223.7</ele>
        <time>2018-05-31T17:44:23Z</time>
      </trkpt>
      <trkpt lat="44.54695" lon="2.23128">
        <ele>223.7</ele>
        <time>2018-05-31T17:44:25Z</time>
      </trkpt>
      <trkpt lat="44.54696" lon="2.23132">
        <ele>223.7</ele>
        <time>2018-05-31T17:44:26Z</time>
      </trkpt>
      <trkpt lat="44.54694" lon="2.23137">
        <ele>223.7</ele>
        <time>2018-05-31T17:44:28Z</time>
      </trkpt>
      <trkpt lat="44.54694" lon="2.23144">
        <ele>223.8</ele>
        <time>2018-05-31T17:44:30Z</time>
      </trkpt>
      <trkpt lat="44.54692" lon="2.2315">
        <ele>223.8</ele>
        <time>2018-05-31T17:44:32Z</time>
      </trkpt>
      <trkpt lat="44.54693" lon="2.23154">
        <ele>223.8</ele>
        <time>2018-05-31T17:44:35Z</time>
      </trkpt>
      <trkpt lat="44.54692" lon="2.23159">
        <ele>223.9</ele>
        <time>2018-05-31T17:44:37Z</time>
      </trkpt>
      <trkpt lat="44.54689" lon="2.23161">
        <ele>223.9</ele>
        <time>2018-05-31T17:44:38Z</time>
      </trkpt>
      <trkpt lat="44.5469" lon="2.23166">
        <ele>223.9</ele>
        <time>2018-05-31T17:44:40Z</time>
      </trkpt>
      <trkpt lat="44.5469" lon="2.23172">
        <ele>224</ele>
        <time>2018-05-31T17:44:41Z</time>
      </trkpt>
      <trkpt lat="44.54689" lon="2.2318">
        <ele>224</ele>
        <time>2018-05-31T17:44:43Z</time>
      </trkpt>
      <trkpt lat="44.54689" lon="2.23189">
        <ele>224.1</ele>
        <time>2018-05-31T17:44:45Z</time>
      </trkpt>
      <trkpt lat="44.54688" lon="2.23202">
        <ele>224.1</ele>
        <time>2018-05-31T17:44:48Z</time>
      </trkpt>
      <trkpt lat="44.54687" lon="2.23209">
        <ele>224.2</ele>
        <time>2018-05-31T17:44:49Z</time>
      </trkpt>
      <trkpt lat="44.54684" lon="2.23229">
        <ele>224.3</ele>
        <time>2018-05-31T17:44:50Z</time>
      </trkpt>
      <trkpt lat="44.54687" lon="2.23235">
        <ele>224.3</ele>
        <time>2018-05-31T17:44:52Z</time>
      </trkpt>
      <trkpt lat="44.54688" lon="2.23243">
        <ele>224.3</ele>
        <time>2018-05-31T17:44:53Z</time>
      </trkpt>
      <trkpt lat="44.54688" lon="2.23247">
        <ele>224.3</ele>
        <time>2018-05-31T17:44:57Z</time>
      </trkpt>
      <trkpt lat="44.54691" lon="2.23248">
        <ele>224.4</ele>
        <time>2018-05-31T17:45:00Z</time>
      </trkpt>
      <trkpt lat="44.54689" lon="2.23253">
        <ele>224.4</ele>
        <time>2018-05-31T17:45:03Z</time>
      </trkpt>
      <trkpt lat="44.54687" lon="2.23257">
        <ele>224.4</ele>
        <time>2018-05-31T17:45:04Z</time>
      </trkpt>
      <trkpt lat="44.54686" lon="2.23261">
        <ele>224.4</ele>
        <time>2018-05-31T17:45:08Z</time>
      </trkpt>
      <trkpt lat="44.54687" lon="2.23265">
        <ele>224.4</ele>
        <time>2018-05-31T17:45:10Z</time>
      </trkpt>
    </trkseg>
  </trk>
</gpx>